<?xml version="1.0" encoding="UTF-8" standalone="no" ?>
<gpx xmlns="http://www.topografix.com/GPX/1/1" xmlns:xsi="http://www.w3.org/2001/XMLSchema-instance" xsi:schemaLocation="http://www.topografix.com/GPX/1/1 http://www.topografix.com/GPX/1/1/gpx.xsd" version="1.1" creator="VisuGPX - https://www.visugpx.com">
  <metadata>
    <name>la butte rouge</name>
    <desc><![CDATA[
Petite balade semi urbaine en bonne et charmante compagnie.]]></desc>
  </metadata>
  <trk>
    <name><![CDATA[8 févr. 2020 09:23:13]]></name>
    <trkseg>
      <trkpt lat="48.78299" lon="2.28709">
        <ele>132.87</ele>
        <time>2020-02-08T08:23:13.999Z</time>
      </trkpt>
      <trkpt lat="48.7829" lon="2.28704">
        <ele>131.86</ele>
        <time>2020-02-08T08:23:24.999Z</time>
      </trkpt>
      <trkpt lat="48.7828" lon="2.287">
        <ele>132.96</ele>
        <time>2020-02-08T08:23:38.999Z</time>
      </trkpt>
      <trkpt lat="48.7827" lon="2.28702">
        <ele>132.99</ele>
        <time>2020-02-08T08:23:51.999Z</time>
      </trkpt>
      <trkpt lat="48.7826" lon="2.28703">
        <ele>132.91</ele>
        <time>2020-02-08T08:24:05.999Z</time>
      </trkpt>
      <trkpt lat="48.78251" lon="2.28704">
        <ele>132.7</ele>
        <time>2020-02-08T08:24:24.999Z</time>
      </trkpt>
      <trkpt lat="48.78241" lon="2.28712">
        <ele>132.35</ele>
        <time>2020-02-08T08:24:43.999Z</time>
      </trkpt>
      <trkpt lat="48.78232" lon="2.28717">
        <ele>132.16</ele>
        <time>2020-02-08T08:24:53.999Z</time>
      </trkpt>
      <trkpt lat="48.78223" lon="2.28719">
        <ele>132.05</ele>
        <time>2020-02-08T08:24:57.999Z</time>
      </trkpt>
      <trkpt lat="48.78215" lon="2.28728">
        <ele>131.92</ele>
        <time>2020-02-08T08:25:03.999Z</time>
      </trkpt>
      <trkpt lat="48.78207" lon="2.28736">
        <ele>131.89</ele>
        <time>2020-02-08T08:25:05.999Z</time>
      </trkpt>
      <trkpt lat="48.78196" lon="2.28744">
        <ele>131.82</ele>
        <time>2020-02-08T08:25:08.999Z</time>
      </trkpt>
      <trkpt lat="48.78187" lon="2.28745">
        <ele>131.68</ele>
        <time>2020-02-08T08:25:13.999Z</time>
      </trkpt>
      <trkpt lat="48.78181" lon="2.28734">
        <ele>131.55</ele>
        <time>2020-02-08T08:25:18.999Z</time>
      </trkpt>
      <trkpt lat="48.78172" lon="2.28729">
        <ele>131.42</ele>
        <time>2020-02-08T08:25:26.999Z</time>
      </trkpt>
      <trkpt lat="48.78165" lon="2.2872">
        <ele>131.28</ele>
        <time>2020-02-08T08:25:35.999Z</time>
      </trkpt>
      <trkpt lat="48.78155" lon="2.28717">
        <ele>131.2</ele>
        <time>2020-02-08T08:25:44.999Z</time>
      </trkpt>
      <trkpt lat="48.78146" lon="2.28712">
        <ele>130.97</ele>
        <time>2020-02-08T08:27:00.999Z</time>
      </trkpt>
      <trkpt lat="48.78138" lon="2.28706">
        <ele>130.79</ele>
        <time>2020-02-08T08:27:08.999Z</time>
      </trkpt>
      <trkpt lat="48.78131" lon="2.28697">
        <ele>130.6</ele>
        <time>2020-02-08T08:27:19.999Z</time>
      </trkpt>
      <trkpt lat="48.78122" lon="2.28695">
        <ele>130.42</ele>
        <time>2020-02-08T08:27:28.999Z</time>
      </trkpt>
      <trkpt lat="48.78115" lon="2.28705">
        <ele>130.32</ele>
        <time>2020-02-08T08:27:41.999Z</time>
      </trkpt>
      <trkpt lat="48.78108" lon="2.28715">
        <ele>130.31</ele>
        <time>2020-02-08T08:27:48.999Z</time>
      </trkpt>
      <trkpt lat="48.78099" lon="2.28717">
        <ele>130.34</ele>
        <time>2020-02-08T08:27:56.999Z</time>
      </trkpt>
      <trkpt lat="48.78089" lon="2.28717">
        <ele>130.38</ele>
        <time>2020-02-08T08:28:05.999Z</time>
      </trkpt>
      <trkpt lat="48.78079" lon="2.28718">
        <ele>130.43</ele>
        <time>2020-02-08T08:28:11.999Z</time>
      </trkpt>
      <trkpt lat="48.7807" lon="2.28716">
        <ele>130.47</ele>
        <time>2020-02-08T08:28:18.999Z</time>
      </trkpt>
      <trkpt lat="48.78061" lon="2.28706">
        <ele>130.53</ele>
        <time>2020-02-08T08:28:31.999Z</time>
      </trkpt>
      <trkpt lat="48.78053" lon="2.28696">
        <ele>130.57</ele>
        <time>2020-02-08T08:28:37.999Z</time>
      </trkpt>
      <trkpt lat="48.78044" lon="2.2869">
        <ele>130.68</ele>
        <time>2020-02-08T08:28:49.999Z</time>
      </trkpt>
      <trkpt lat="48.78034" lon="2.28689">
        <ele>130.88</ele>
        <time>2020-02-08T08:29:00.999Z</time>
      </trkpt>
      <trkpt lat="48.78024" lon="2.28684">
        <ele>131.1</ele>
        <time>2020-02-08T08:29:10.999Z</time>
      </trkpt>
      <trkpt lat="48.78015" lon="2.28687">
        <ele>131.24</ele>
        <time>2020-02-08T08:29:16.999Z</time>
      </trkpt>
      <trkpt lat="48.78007" lon="2.28681">
        <ele>131.39</ele>
        <time>2020-02-08T08:29:26.999Z</time>
      </trkpt>
      <trkpt lat="48.77999" lon="2.2867">
        <ele>131.49</ele>
        <time>2020-02-08T08:29:33.999Z</time>
      </trkpt>
      <trkpt lat="48.77992" lon="2.28661">
        <ele>131.64</ele>
        <time>2020-02-08T08:29:42.999Z</time>
      </trkpt>
      <trkpt lat="48.77982" lon="2.28659">
        <ele>131.76</ele>
        <time>2020-02-08T08:29:48.999Z</time>
      </trkpt>
      <trkpt lat="48.77973" lon="2.28654">
        <ele>131.9</ele>
        <time>2020-02-08T08:29:55.999Z</time>
      </trkpt>
      <trkpt lat="48.77962" lon="2.28648">
        <ele>132.09</ele>
        <time>2020-02-08T08:30:04.999Z</time>
      </trkpt>
      <trkpt lat="48.77954" lon="2.28641">
        <ele>132.23</ele>
        <time>2020-02-08T08:30:12.999Z</time>
      </trkpt>
      <trkpt lat="48.77945" lon="2.2864">
        <ele>132.4</ele>
        <time>2020-02-08T08:30:21.999Z</time>
      </trkpt>
      <trkpt lat="48.77936" lon="2.28646">
        <ele>132.56</ele>
        <time>2020-02-08T08:30:27.999Z</time>
      </trkpt>
      <trkpt lat="48.77927" lon="2.28643">
        <ele>132.84</ele>
        <time>2020-02-08T08:30:35.999Z</time>
      </trkpt>
      <trkpt lat="48.77918" lon="2.28641">
        <ele>133.14</ele>
        <time>2020-02-08T08:30:43.999Z</time>
      </trkpt>
      <trkpt lat="48.77911" lon="2.28632">
        <ele>133.39</ele>
        <time>2020-02-08T08:30:49.999Z</time>
      </trkpt>
      <trkpt lat="48.77903" lon="2.28639">
        <ele>133.73</ele>
        <time>2020-02-08T08:30:55.999Z</time>
      </trkpt>
      <trkpt lat="48.77894" lon="2.28641">
        <ele>134.12</ele>
        <time>2020-02-08T08:31:01.999Z</time>
      </trkpt>
      <trkpt lat="48.77884" lon="2.28635">
        <ele>134.9</ele>
        <time>2020-02-08T08:31:13.999Z</time>
      </trkpt>
      <trkpt lat="48.77876" lon="2.2863">
        <ele>135.4</ele>
        <time>2020-02-08T08:31:21.999Z</time>
      </trkpt>
      <trkpt lat="48.77865" lon="2.28633">
        <ele>135.87</ele>
        <time>2020-02-08T08:31:29.999Z</time>
      </trkpt>
      <trkpt lat="48.77856" lon="2.28634">
        <ele>136.34</ele>
        <time>2020-02-08T08:31:37.999Z</time>
      </trkpt>
      <trkpt lat="48.77847" lon="2.28635">
        <ele>136.75</ele>
        <time>2020-02-08T08:31:44.999Z</time>
      </trkpt>
      <trkpt lat="48.77838" lon="2.28635">
        <ele>137.16</ele>
        <time>2020-02-08T08:31:51.999Z</time>
      </trkpt>
      <trkpt lat="48.77828" lon="2.28634">
        <ele>137.57</ele>
        <time>2020-02-08T08:31:58.999Z</time>
      </trkpt>
      <trkpt lat="48.77818" lon="2.28634">
        <ele>137.97</ele>
        <time>2020-02-08T08:32:05.999Z</time>
      </trkpt>
      <trkpt lat="48.7781" lon="2.28631">
        <ele>138.36</ele>
        <time>2020-02-08T08:32:12.999Z</time>
      </trkpt>
      <trkpt lat="48.778" lon="2.28631">
        <ele>138.82</ele>
        <time>2020-02-08T08:32:22.000Z</time>
      </trkpt>
      <trkpt lat="48.77791" lon="2.28628">
        <ele>139.38</ele>
        <time>2020-02-08T08:32:33.000Z</time>
      </trkpt>
      <trkpt lat="48.77782" lon="2.28622">
        <ele>139.65</ele>
        <time>2020-02-08T08:32:39.000Z</time>
      </trkpt>
      <trkpt lat="48.77773" lon="2.28618">
        <ele>139.95</ele>
        <time>2020-02-08T08:32:46.000Z</time>
      </trkpt>
      <trkpt lat="48.77763" lon="2.28617">
        <ele>140.25</ele>
        <time>2020-02-08T08:32:53.000Z</time>
      </trkpt>
      <trkpt lat="48.77754" lon="2.28617">
        <ele>140.5</ele>
        <time>2020-02-08T08:32:59.000Z</time>
      </trkpt>
      <trkpt lat="48.77744" lon="2.28615">
        <ele>140.82</ele>
        <time>2020-02-08T08:33:07.000Z</time>
      </trkpt>
      <trkpt lat="48.77735" lon="2.28616">
        <ele>141.03</ele>
        <time>2020-02-08T08:33:12.000Z</time>
      </trkpt>
      <trkpt lat="48.77725" lon="2.28613">
        <ele>141.44</ele>
        <time>2020-02-08T08:33:20.000Z</time>
      </trkpt>
      <trkpt lat="48.77716" lon="2.28619">
        <ele>141.94</ele>
        <time>2020-02-08T08:33:30.000Z</time>
      </trkpt>
      <trkpt lat="48.77707" lon="2.28624">
        <ele>142.27</ele>
        <time>2020-02-08T08:33:38.000Z</time>
      </trkpt>
      <trkpt lat="48.77698" lon="2.28626">
        <ele>142.96</ele>
        <time>2020-02-08T08:34:26.000Z</time>
      </trkpt>
      <trkpt lat="48.77688" lon="2.28625">
        <ele>143.2</ele>
        <time>2020-02-08T08:34:34.000Z</time>
      </trkpt>
      <trkpt lat="48.77677" lon="2.28622">
        <ele>143.39</ele>
        <time>2020-02-08T08:34:41.000Z</time>
      </trkpt>
      <trkpt lat="48.77669" lon="2.28619">
        <ele>143.68</ele>
        <time>2020-02-08T08:34:51.000Z</time>
      </trkpt>
      <trkpt lat="48.77659" lon="2.28618">
        <ele>143.96</ele>
        <time>2020-02-08T08:35:04.000Z</time>
      </trkpt>
      <trkpt lat="48.77649" lon="2.28615">
        <ele>144.11</ele>
        <time>2020-02-08T08:35:12.000Z</time>
      </trkpt>
      <trkpt lat="48.7764" lon="2.28614">
        <ele>144.22</ele>
        <time>2020-02-08T08:35:21.000Z</time>
      </trkpt>
      <trkpt lat="48.77631" lon="2.28613">
        <ele>144.28</ele>
        <time>2020-02-08T08:35:31.000Z</time>
      </trkpt>
      <trkpt lat="48.77622" lon="2.28612">
        <ele>144.26</ele>
        <time>2020-02-08T08:35:41.000Z</time>
      </trkpt>
      <trkpt lat="48.77613" lon="2.28604">
        <ele>144.2</ele>
        <time>2020-02-08T08:35:49.000Z</time>
      </trkpt>
      <trkpt lat="48.77605" lon="2.28598">
        <ele>144.07</ele>
        <time>2020-02-08T08:35:58.000Z</time>
      </trkpt>
      <trkpt lat="48.77596" lon="2.28594">
        <ele>143.82</ele>
        <time>2020-02-08T08:36:13.000Z</time>
      </trkpt>
      <trkpt lat="48.77587" lon="2.28593">
        <ele>143.58</ele>
        <time>2020-02-08T08:36:27.000Z</time>
      </trkpt>
      <trkpt lat="48.77577" lon="2.28589">
        <ele>143.38</ele>
        <time>2020-02-08T08:36:35.000Z</time>
      </trkpt>
      <trkpt lat="48.77567" lon="2.28592">
        <ele>143.18</ele>
        <time>2020-02-08T08:36:43.000Z</time>
      </trkpt>
      <trkpt lat="48.77557" lon="2.28591">
        <ele>143</ele>
        <time>2020-02-08T08:36:50.000Z</time>
      </trkpt>
      <trkpt lat="48.77547" lon="2.28587">
        <ele>142.82</ele>
        <time>2020-02-08T08:36:57.000Z</time>
      </trkpt>
      <trkpt lat="48.77537" lon="2.28585">
        <ele>142.6</ele>
        <time>2020-02-08T08:37:06.000Z</time>
      </trkpt>
      <trkpt lat="48.77528" lon="2.28586">
        <ele>142.39</ele>
        <time>2020-02-08T08:37:15.000Z</time>
      </trkpt>
      <trkpt lat="48.77518" lon="2.28585">
        <ele>142.18</ele>
        <time>2020-02-08T08:37:24.000Z</time>
      </trkpt>
      <trkpt lat="48.77508" lon="2.28587">
        <ele>142</ele>
        <time>2020-02-08T08:37:32.000Z</time>
      </trkpt>
      <trkpt lat="48.77499" lon="2.28588">
        <ele>141.82</ele>
        <time>2020-02-08T08:37:40.000Z</time>
      </trkpt>
      <trkpt lat="48.77489" lon="2.28587">
        <ele>141.66</ele>
        <time>2020-02-08T08:37:47.000Z</time>
      </trkpt>
      <trkpt lat="48.77479" lon="2.28584">
        <ele>141.52</ele>
        <time>2020-02-08T08:37:53.000Z</time>
      </trkpt>
      <trkpt lat="48.7747" lon="2.28582">
        <ele>141.31</ele>
        <time>2020-02-08T08:38:02.000Z</time>
      </trkpt>
      <trkpt lat="48.7746" lon="2.28579">
        <ele>141.15</ele>
        <time>2020-02-08T08:38:09.000Z</time>
      </trkpt>
      <trkpt lat="48.77451" lon="2.2858">
        <ele>140.96</ele>
        <time>2020-02-08T08:38:17.000Z</time>
      </trkpt>
      <trkpt lat="48.77441" lon="2.2858">
        <ele>140.79</ele>
        <time>2020-02-08T08:38:24.000Z</time>
      </trkpt>
      <trkpt lat="48.77432" lon="2.28579">
        <ele>140.58</ele>
        <time>2020-02-08T08:38:32.000Z</time>
      </trkpt>
      <trkpt lat="48.77423" lon="2.28576">
        <ele>140.34</ele>
        <time>2020-02-08T08:38:41.000Z</time>
      </trkpt>
      <trkpt lat="48.77413" lon="2.28576">
        <ele>140.13</ele>
        <time>2020-02-08T08:38:49.000Z</time>
      </trkpt>
      <trkpt lat="48.77403" lon="2.28575">
        <ele>139.94</ele>
        <time>2020-02-08T08:38:56.000Z</time>
      </trkpt>
      <trkpt lat="48.77395" lon="2.28572">
        <ele>139.7</ele>
        <time>2020-02-08T08:39:05.000Z</time>
      </trkpt>
      <trkpt lat="48.77385" lon="2.28568">
        <ele>139.49</ele>
        <time>2020-02-08T08:39:13.000Z</time>
      </trkpt>
      <trkpt lat="48.77376" lon="2.28567">
        <ele>139.29</ele>
        <time>2020-02-08T08:39:21.000Z</time>
      </trkpt>
      <trkpt lat="48.77366" lon="2.28565">
        <ele>139.13</ele>
        <time>2020-02-08T08:39:28.000Z</time>
      </trkpt>
      <trkpt lat="48.77356" lon="2.28563">
        <ele>138.97</ele>
        <time>2020-02-08T08:39:36.000Z</time>
      </trkpt>
      <trkpt lat="48.77347" lon="2.28561">
        <ele>138.84</ele>
        <time>2020-02-08T08:39:43.000Z</time>
      </trkpt>
      <trkpt lat="48.77338" lon="2.28557">
        <ele>138.67</ele>
        <time>2020-02-08T08:39:51.000Z</time>
      </trkpt>
      <trkpt lat="48.77329" lon="2.28556">
        <ele>138.48</ele>
        <time>2020-02-08T08:39:59.000Z</time>
      </trkpt>
      <trkpt lat="48.77319" lon="2.28556">
        <ele>138.27</ele>
        <time>2020-02-08T08:40:08.000Z</time>
      </trkpt>
      <trkpt lat="48.77309" lon="2.28555">
        <ele>138.04</ele>
        <time>2020-02-08T08:40:18.000Z</time>
      </trkpt>
      <trkpt lat="48.77299" lon="2.28552">
        <ele>137.9</ele>
        <time>2020-02-08T08:40:25.000Z</time>
      </trkpt>
      <trkpt lat="48.77288" lon="2.2855">
        <ele>137.73</ele>
        <time>2020-02-08T08:40:34.000Z</time>
      </trkpt>
      <trkpt lat="48.77284" lon="2.28538">
        <ele>137.6</ele>
        <time>2020-02-08T08:40:41.000Z</time>
      </trkpt>
      <trkpt lat="48.77275" lon="2.28529">
        <ele>137.4</ele>
        <time>2020-02-08T08:40:53.000Z</time>
      </trkpt>
      <trkpt lat="48.77266" lon="2.28523">
        <ele>137.28</ele>
        <time>2020-02-08T08:41:01.000Z</time>
      </trkpt>
      <trkpt lat="48.77257" lon="2.28519">
        <ele>137.18</ele>
        <time>2020-02-08T08:41:08.000Z</time>
      </trkpt>
      <trkpt lat="48.77248" lon="2.28514">
        <ele>137.08</ele>
        <time>2020-02-08T08:41:16.000Z</time>
      </trkpt>
      <trkpt lat="48.77239" lon="2.28509">
        <ele>136.96</ele>
        <time>2020-02-08T08:41:26.000Z</time>
      </trkpt>
      <trkpt lat="48.7723" lon="2.285">
        <ele>136.89</ele>
        <time>2020-02-08T08:41:33.000Z</time>
      </trkpt>
      <trkpt lat="48.77223" lon="2.28491">
        <ele>136.82</ele>
        <time>2020-02-08T08:41:42.000Z</time>
      </trkpt>
      <trkpt lat="48.77215" lon="2.28486">
        <ele>136.77</ele>
        <time>2020-02-08T08:41:50.000Z</time>
      </trkpt>
      <trkpt lat="48.77205" lon="2.28483">
        <ele>136.74</ele>
        <time>2020-02-08T08:41:55.000Z</time>
      </trkpt>
      <trkpt lat="48.77201" lon="2.2847">
        <ele>136.67</ele>
        <time>2020-02-08T08:42:05.000Z</time>
      </trkpt>
      <trkpt lat="48.77195" lon="2.28459">
        <ele>136.44</ele>
        <time>2020-02-08T08:42:39.000Z</time>
      </trkpt>
      <trkpt lat="48.77192" lon="2.28446">
        <ele>136.2</ele>
        <time>2020-02-08T08:42:49.000Z</time>
      </trkpt>
      <trkpt lat="48.7719" lon="2.28432">
        <ele>136.07</ele>
        <time>2020-02-08T08:42:55.000Z</time>
      </trkpt>
      <trkpt lat="48.77189" lon="2.28418">
        <ele>135.87</ele>
        <time>2020-02-08T08:43:05.000Z</time>
      </trkpt>
      <trkpt lat="48.77183" lon="2.28407">
        <ele>135.71</ele>
        <time>2020-02-08T08:43:16.000Z</time>
      </trkpt>
      <trkpt lat="48.77187" lon="2.28394">
        <ele>135.58</ele>
        <time>2020-02-08T08:43:27.000Z</time>
      </trkpt>
      <trkpt lat="48.77185" lon="2.28379">
        <ele>135.47</ele>
        <time>2020-02-08T08:43:35.000Z</time>
      </trkpt>
      <trkpt lat="48.77181" lon="2.28367">
        <ele>135.38</ele>
        <time>2020-02-08T08:43:42.000Z</time>
      </trkpt>
      <trkpt lat="48.77181" lon="2.28353">
        <ele>135.29</ele>
        <time>2020-02-08T08:43:50.000Z</time>
      </trkpt>
      <trkpt lat="48.77179" lon="2.28338">
        <ele>135.2</ele>
        <time>2020-02-08T08:43:59.000Z</time>
      </trkpt>
      <trkpt lat="48.77174" lon="2.28327">
        <ele>135.12</ele>
        <time>2020-02-08T08:44:08.000Z</time>
      </trkpt>
      <trkpt lat="48.77172" lon="2.28312">
        <ele>135.07</ele>
        <time>2020-02-08T08:44:15.000Z</time>
      </trkpt>
      <trkpt lat="48.77171" lon="2.28298">
        <ele>135.02</ele>
        <time>2020-02-08T08:44:25.000Z</time>
      </trkpt>
      <trkpt lat="48.77169" lon="2.28284">
        <ele>134.99</ele>
        <time>2020-02-08T08:44:33.000Z</time>
      </trkpt>
      <trkpt lat="48.77167" lon="2.28271">
        <ele>134.96</ele>
        <time>2020-02-08T08:44:40.000Z</time>
      </trkpt>
      <trkpt lat="48.77165" lon="2.28257">
        <ele>134.93</ele>
        <time>2020-02-08T08:44:48.000Z</time>
      </trkpt>
      <trkpt lat="48.77164" lon="2.28243">
        <ele>134.91</ele>
        <time>2020-02-08T08:44:58.000Z</time>
      </trkpt>
      <trkpt lat="48.77164" lon="2.28229">
        <ele>134.89</ele>
        <time>2020-02-08T08:45:08.000Z</time>
      </trkpt>
      <trkpt lat="48.77162" lon="2.28215">
        <ele>134.88</ele>
        <time>2020-02-08T08:45:17.000Z</time>
      </trkpt>
      <trkpt lat="48.7716" lon="2.28198">
        <ele>134.86</ele>
        <time>2020-02-08T08:45:27.000Z</time>
      </trkpt>
      <trkpt lat="48.77157" lon="2.28185">
        <ele>134.85</ele>
        <time>2020-02-08T08:45:33.000Z</time>
      </trkpt>
      <trkpt lat="48.77151" lon="2.28174">
        <ele>134.84</ele>
        <time>2020-02-08T08:45:39.000Z</time>
      </trkpt>
      <trkpt lat="48.77147" lon="2.2816">
        <ele>134.82</ele>
        <time>2020-02-08T08:45:49.000Z</time>
      </trkpt>
      <trkpt lat="48.77146" lon="2.28147">
        <ele>134.82</ele>
        <time>2020-02-08T08:45:55.999Z</time>
      </trkpt>
      <trkpt lat="48.77142" lon="2.28134">
        <ele>134.81</ele>
        <time>2020-02-08T08:46:06.999Z</time>
      </trkpt>
      <trkpt lat="48.77137" lon="2.28119">
        <ele>134.81</ele>
        <time>2020-02-08T08:46:13.999Z</time>
      </trkpt>
      <trkpt lat="48.77135" lon="2.28105">
        <ele>134.8</ele>
        <time>2020-02-08T08:46:23.999Z</time>
      </trkpt>
      <trkpt lat="48.7713" lon="2.28094">
        <ele>134.8</ele>
        <time>2020-02-08T08:46:29.999Z</time>
      </trkpt>
      <trkpt lat="48.77128" lon="2.28078">
        <ele>134.81</ele>
        <time>2020-02-08T08:46:54.999Z</time>
      </trkpt>
      <trkpt lat="48.77128" lon="2.28063">
        <ele>134.82</ele>
        <time>2020-02-08T08:47:06.999Z</time>
      </trkpt>
      <trkpt lat="48.7713" lon="2.28047">
        <ele>134.83</ele>
        <time>2020-02-08T08:47:14.999Z</time>
      </trkpt>
      <trkpt lat="48.7713" lon="2.28033">
        <ele>134.83</ele>
        <time>2020-02-08T08:47:21.999Z</time>
      </trkpt>
      <trkpt lat="48.77128" lon="2.28018">
        <ele>134.84</ele>
        <time>2020-02-08T08:47:29.999Z</time>
      </trkpt>
      <trkpt lat="48.77126" lon="2.28005">
        <ele>134.85</ele>
        <time>2020-02-08T08:47:40.999Z</time>
      </trkpt>
      <trkpt lat="48.77121" lon="2.27994">
        <ele>134.86</ele>
        <time>2020-02-08T08:47:49.999Z</time>
      </trkpt>
      <trkpt lat="48.77117" lon="2.2798">
        <ele>134.86</ele>
        <time>2020-02-08T08:47:56.999Z</time>
      </trkpt>
      <trkpt lat="48.77115" lon="2.27966">
        <ele>134.87</ele>
        <time>2020-02-08T08:48:04.999Z</time>
      </trkpt>
      <trkpt lat="48.77114" lon="2.27952">
        <ele>134.88</ele>
        <time>2020-02-08T08:48:15.999Z</time>
      </trkpt>
      <trkpt lat="48.77112" lon="2.27938">
        <ele>134.88</ele>
        <time>2020-02-08T08:48:23.999Z</time>
      </trkpt>
      <trkpt lat="48.7711" lon="2.27924">
        <ele>134.89</ele>
        <time>2020-02-08T08:48:31.999Z</time>
      </trkpt>
      <trkpt lat="48.77108" lon="2.27909">
        <ele>134.89</ele>
        <time>2020-02-08T08:48:39.999Z</time>
      </trkpt>
      <trkpt lat="48.77108" lon="2.27894">
        <ele>134.91</ele>
        <time>2020-02-08T08:48:48.999Z</time>
      </trkpt>
      <trkpt lat="48.77109" lon="2.2788">
        <ele>134.93</ele>
        <time>2020-02-08T08:48:57.999Z</time>
      </trkpt>
      <trkpt lat="48.77109" lon="2.27865">
        <ele>134.94</ele>
        <time>2020-02-08T08:49:05.999Z</time>
      </trkpt>
      <trkpt lat="48.77106" lon="2.27851">
        <ele>134.95</ele>
        <time>2020-02-08T08:49:14.999Z</time>
      </trkpt>
      <trkpt lat="48.77103" lon="2.27838">
        <ele>134.95</ele>
        <time>2020-02-08T08:49:22.999Z</time>
      </trkpt>
      <trkpt lat="48.771" lon="2.27824">
        <ele>134.95</ele>
        <time>2020-02-08T08:49:31.999Z</time>
      </trkpt>
      <trkpt lat="48.77098" lon="2.27808">
        <ele>134.96</ele>
        <time>2020-02-08T08:49:40.999Z</time>
      </trkpt>
      <trkpt lat="48.77095" lon="2.27794">
        <ele>134.97</ele>
        <time>2020-02-08T08:49:46.999Z</time>
      </trkpt>
      <trkpt lat="48.77092" lon="2.2778">
        <ele>135</ele>
        <time>2020-02-08T08:49:54.999Z</time>
      </trkpt>
      <trkpt lat="48.77091" lon="2.27765">
        <ele>135.04</ele>
        <time>2020-02-08T08:50:03.999Z</time>
      </trkpt>
      <trkpt lat="48.77088" lon="2.27752">
        <ele>135.08</ele>
        <time>2020-02-08T08:50:12.999Z</time>
      </trkpt>
      <trkpt lat="48.77087" lon="2.27737">
        <ele>135.13</ele>
        <time>2020-02-08T08:50:21.999Z</time>
      </trkpt>
      <trkpt lat="48.77083" lon="2.27723">
        <ele>135.17</ele>
        <time>2020-02-08T08:50:28.999Z</time>
      </trkpt>
      <trkpt lat="48.7708" lon="2.27706">
        <ele>135.21</ele>
        <time>2020-02-08T08:50:36.999Z</time>
      </trkpt>
      <trkpt lat="48.77078" lon="2.27692">
        <ele>135.26</ele>
        <time>2020-02-08T08:50:43.999Z</time>
      </trkpt>
      <trkpt lat="48.77076" lon="2.27676">
        <ele>135.31</ele>
        <time>2020-02-08T08:50:50.999Z</time>
      </trkpt>
      <trkpt lat="48.77074" lon="2.27662">
        <ele>135.35</ele>
        <time>2020-02-08T08:50:57.999Z</time>
      </trkpt>
      <trkpt lat="48.77072" lon="2.27648">
        <ele>135.39</ele>
        <time>2020-02-08T08:51:04.999Z</time>
      </trkpt>
      <trkpt lat="48.7707" lon="2.27634">
        <ele>135.44</ele>
        <time>2020-02-08T08:51:13.999Z</time>
      </trkpt>
      <trkpt lat="48.77069" lon="2.27619">
        <ele>135.49</ele>
        <time>2020-02-08T08:51:22.999Z</time>
      </trkpt>
      <trkpt lat="48.77067" lon="2.27605">
        <ele>135.54</ele>
        <time>2020-02-08T08:51:30.999Z</time>
      </trkpt>
      <trkpt lat="48.77066" lon="2.27591">
        <ele>135.58</ele>
        <time>2020-02-08T08:51:36.999Z</time>
      </trkpt>
      <trkpt lat="48.77064" lon="2.27578">
        <ele>135.62</ele>
        <time>2020-02-08T08:51:43.999Z</time>
      </trkpt>
      <trkpt lat="48.7706" lon="2.27563">
        <ele>135.67</ele>
        <time>2020-02-08T08:51:50.999Z</time>
      </trkpt>
      <trkpt lat="48.77057" lon="2.27548">
        <ele>135.74</ele>
        <time>2020-02-08T08:52:00.999Z</time>
      </trkpt>
      <trkpt lat="48.77057" lon="2.27533">
        <ele>135.8</ele>
        <time>2020-02-08T08:52:09.999Z</time>
      </trkpt>
      <trkpt lat="48.77057" lon="2.27518">
        <ele>135.85</ele>
        <time>2020-02-08T08:52:17.999Z</time>
      </trkpt>
      <trkpt lat="48.77053" lon="2.27503">
        <ele>135.9</ele>
        <time>2020-02-08T08:52:25.999Z</time>
      </trkpt>
      <trkpt lat="48.77052" lon="2.2749">
        <ele>135.97</ele>
        <time>2020-02-08T08:52:40.999Z</time>
      </trkpt>
      <trkpt lat="48.77058" lon="2.27479">
        <ele>135.96</ele>
        <time>2020-02-08T08:52:50.999Z</time>
      </trkpt>
      <trkpt lat="48.77062" lon="2.27465">
        <ele>135.92</ele>
        <time>2020-02-08T08:52:56.999Z</time>
      </trkpt>
      <trkpt lat="48.77065" lon="2.27449">
        <ele>135.89</ele>
        <time>2020-02-08T08:53:00.999Z</time>
      </trkpt>
      <trkpt lat="48.77061" lon="2.27437">
        <ele>135.8</ele>
        <time>2020-02-08T08:53:14.999Z</time>
      </trkpt>
      <trkpt lat="48.77057" lon="2.27424">
        <ele>135.75</ele>
        <time>2020-02-08T08:53:32.999Z</time>
      </trkpt>
      <trkpt lat="48.7705" lon="2.27414">
        <ele>135.73</ele>
        <time>2020-02-08T08:54:49.999Z</time>
      </trkpt>
      <trkpt lat="48.7704" lon="2.2741">
        <ele>135.73</ele>
        <time>2020-02-08T08:55:00.999Z</time>
      </trkpt>
      <trkpt lat="48.77036" lon="2.27397">
        <ele>135.73</ele>
        <time>2020-02-08T08:55:06.999Z</time>
      </trkpt>
      <trkpt lat="48.77034" lon="2.27384">
        <ele>135.73</ele>
        <time>2020-02-08T08:55:18.999Z</time>
      </trkpt>
      <trkpt lat="48.77031" lon="2.27369">
        <ele>135.74</ele>
        <time>2020-02-08T08:55:26.999Z</time>
      </trkpt>
      <trkpt lat="48.77031" lon="2.27355">
        <ele>135.74</ele>
        <time>2020-02-08T08:55:34.999Z</time>
      </trkpt>
      <trkpt lat="48.77027" lon="2.27342">
        <ele>135.74</ele>
        <time>2020-02-08T08:55:41.999Z</time>
      </trkpt>
      <trkpt lat="48.77024" lon="2.27329">
        <ele>135.75</ele>
        <time>2020-02-08T08:55:48.999Z</time>
      </trkpt>
      <trkpt lat="48.77021" lon="2.27315">
        <ele>135.76</ele>
        <time>2020-02-08T08:55:54.999Z</time>
      </trkpt>
      <trkpt lat="48.77017" lon="2.27303">
        <ele>135.78</ele>
        <time>2020-02-08T08:56:02.999Z</time>
      </trkpt>
      <trkpt lat="48.77015" lon="2.27288">
        <ele>135.8</ele>
        <time>2020-02-08T08:56:12.999Z</time>
      </trkpt>
      <trkpt lat="48.77014" lon="2.27273">
        <ele>135.88</ele>
        <time>2020-02-08T08:56:43.999Z</time>
      </trkpt>
      <trkpt lat="48.77018" lon="2.27259">
        <ele>136.17</ele>
        <time>2020-02-08T08:58:05.999Z</time>
      </trkpt>
      <trkpt lat="48.77027" lon="2.27254">
        <ele>136.38</ele>
        <time>2020-02-08T08:58:28.999Z</time>
      </trkpt>
      <trkpt lat="48.77036" lon="2.27253">
        <ele>136.46</ele>
        <time>2020-02-08T08:58:37.999Z</time>
      </trkpt>
      <trkpt lat="48.77045" lon="2.27249">
        <ele>136.51</ele>
        <time>2020-02-08T08:58:43.999Z</time>
      </trkpt>
      <trkpt lat="48.77049" lon="2.27236">
        <ele>136.56</ele>
        <time>2020-02-08T08:58:48.999Z</time>
      </trkpt>
      <trkpt lat="48.77047" lon="2.27222">
        <ele>136.71</ele>
        <time>2020-02-08T08:59:04.999Z</time>
      </trkpt>
      <trkpt lat="48.77042" lon="2.27209">
        <ele>136.8</ele>
        <time>2020-02-08T08:59:13.999Z</time>
      </trkpt>
      <trkpt lat="48.77037" lon="2.27197">
        <ele>136.87</ele>
        <time>2020-02-08T08:59:21.999Z</time>
      </trkpt>
      <trkpt lat="48.77034" lon="2.27184">
        <ele>136.95</ele>
        <time>2020-02-08T08:59:30.999Z</time>
      </trkpt>
      <trkpt lat="48.7703" lon="2.2717">
        <ele>137.02</ele>
        <time>2020-02-08T08:59:39.000Z</time>
      </trkpt>
      <trkpt lat="48.77027" lon="2.27156">
        <ele>137.07</ele>
        <time>2020-02-08T08:59:46.000Z</time>
      </trkpt>
      <trkpt lat="48.77023" lon="2.27142">
        <ele>137.13</ele>
        <time>2020-02-08T08:59:52.000Z</time>
      </trkpt>
      <trkpt lat="48.77019" lon="2.2713">
        <ele>137.2</ele>
        <time>2020-02-08T09:00:00.000Z</time>
      </trkpt>
      <trkpt lat="48.77016" lon="2.27117">
        <ele>137.27</ele>
        <time>2020-02-08T09:00:10.000Z</time>
      </trkpt>
      <trkpt lat="48.77013" lon="2.27104">
        <ele>137.36</ele>
        <time>2020-02-08T09:00:20.000Z</time>
      </trkpt>
      <trkpt lat="48.7701" lon="2.2709">
        <ele>137.44</ele>
        <time>2020-02-08T09:00:29.000Z</time>
      </trkpt>
      <trkpt lat="48.77011" lon="2.27071">
        <ele>137.54</ele>
        <time>2020-02-08T09:00:40.000Z</time>
      </trkpt>
      <trkpt lat="48.7701" lon="2.27057">
        <ele>137.61</ele>
        <time>2020-02-08T09:00:47.000Z</time>
      </trkpt>
      <trkpt lat="48.77012" lon="2.27044">
        <ele>137.71</ele>
        <time>2020-02-08T09:00:56.000Z</time>
      </trkpt>
      <trkpt lat="48.77013" lon="2.27028">
        <ele>137.84</ele>
        <time>2020-02-08T09:01:07.000Z</time>
      </trkpt>
      <trkpt lat="48.77017" lon="2.27016">
        <ele>137.96</ele>
        <time>2020-02-08T09:01:18.000Z</time>
      </trkpt>
      <trkpt lat="48.77026" lon="2.27013">
        <ele>138.05</ele>
        <time>2020-02-08T09:01:28.000Z</time>
      </trkpt>
      <trkpt lat="48.77035" lon="2.27017">
        <ele>138.1</ele>
        <time>2020-02-08T09:01:34.000Z</time>
      </trkpt>
      <trkpt lat="48.77044" lon="2.27015">
        <ele>138.16</ele>
        <time>2020-02-08T09:01:44.000Z</time>
      </trkpt>
      <trkpt lat="48.77053" lon="2.27008">
        <ele>138.42</ele>
        <time>2020-02-08T09:02:47.000Z</time>
      </trkpt>
      <trkpt lat="48.77061" lon="2.27003">
        <ele>138.87</ele>
        <time>2020-02-08T09:03:39.000Z</time>
      </trkpt>
      <trkpt lat="48.77058" lon="2.27016">
        <ele>139.89</ele>
        <time>2020-02-08T09:06:28.000Z</time>
      </trkpt>
      <trkpt lat="48.77062" lon="2.27003">
        <ele>140.22</ele>
        <time>2020-02-08T09:07:44.000Z</time>
      </trkpt>
      <trkpt lat="48.77067" lon="2.26992">
        <ele>140.28</ele>
        <time>2020-02-08T09:07:52.000Z</time>
      </trkpt>
      <trkpt lat="48.77072" lon="2.2698">
        <ele>140.36</ele>
        <time>2020-02-08T09:08:02.000Z</time>
      </trkpt>
      <trkpt lat="48.77079" lon="2.26967">
        <ele>140.42</ele>
        <time>2020-02-08T09:08:12.000Z</time>
      </trkpt>
      <trkpt lat="48.77085" lon="2.26956">
        <ele>140.48</ele>
        <time>2020-02-08T09:08:26.000Z</time>
      </trkpt>
      <trkpt lat="48.77089" lon="2.26944">
        <ele>140.5</ele>
        <time>2020-02-08T09:08:41.000Z</time>
      </trkpt>
      <trkpt lat="48.77098" lon="2.26937">
        <ele>140.46</ele>
        <time>2020-02-08T09:08:58.000Z</time>
      </trkpt>
      <trkpt lat="48.77104" lon="2.26925">
        <ele>140.39</ele>
        <time>2020-02-08T09:09:09.000Z</time>
      </trkpt>
      <trkpt lat="48.77115" lon="2.26919">
        <ele>140.33</ele>
        <time>2020-02-08T09:09:17.000Z</time>
      </trkpt>
      <trkpt lat="48.77124" lon="2.26913">
        <ele>140.27</ele>
        <time>2020-02-08T09:09:25.000Z</time>
      </trkpt>
      <trkpt lat="48.77134" lon="2.26915">
        <ele>140.2</ele>
        <time>2020-02-08T09:09:40.000Z</time>
      </trkpt>
      <trkpt lat="48.77141" lon="2.26922">
        <ele>140.17</ele>
        <time>2020-02-08T09:09:44.000Z</time>
      </trkpt>
      <trkpt lat="48.7715" lon="2.26927">
        <ele>140.15</ele>
        <time>2020-02-08T09:09:49.000Z</time>
      </trkpt>
      <trkpt lat="48.77159" lon="2.26935">
        <ele>140.13</ele>
        <time>2020-02-08T09:09:56.000Z</time>
      </trkpt>
      <trkpt lat="48.77168" lon="2.26936">
        <ele>140.11</ele>
        <time>2020-02-08T09:10:06.000Z</time>
      </trkpt>
      <trkpt lat="48.77178" lon="2.26939">
        <ele>140.1</ele>
        <time>2020-02-08T09:10:15.000Z</time>
      </trkpt>
      <trkpt lat="48.77187" lon="2.26938">
        <ele>140.09</ele>
        <time>2020-02-08T09:10:24.000Z</time>
      </trkpt>
      <trkpt lat="48.77195" lon="2.26933">
        <ele>140.09</ele>
        <time>2020-02-08T09:10:33.000Z</time>
      </trkpt>
      <trkpt lat="48.77205" lon="2.26931">
        <ele>140.43</ele>
        <time>2020-02-08T09:12:26.000Z</time>
      </trkpt>
      <trkpt lat="48.77215" lon="2.26928">
        <ele>140.76</ele>
        <time>2020-02-08T09:13:05.000Z</time>
      </trkpt>
      <trkpt lat="48.77223" lon="2.26917">
        <ele>140.88</ele>
        <time>2020-02-08T09:13:11.000Z</time>
      </trkpt>
      <trkpt lat="48.77223" lon="2.26901">
        <ele>140.97</ele>
        <time>2020-02-08T09:13:16.000Z</time>
      </trkpt>
      <trkpt lat="48.7722" lon="2.26887">
        <ele>141.01</ele>
        <time>2020-02-08T09:13:19.000Z</time>
      </trkpt>
      <trkpt lat="48.77218" lon="2.26873">
        <ele>141.09</ele>
        <time>2020-02-08T09:13:26.000Z</time>
      </trkpt>
      <trkpt lat="48.77217" lon="2.26859">
        <ele>141.14</ele>
        <time>2020-02-08T09:13:31.000Z</time>
      </trkpt>
      <trkpt lat="48.77216" lon="2.26845">
        <ele>141.25</ele>
        <time>2020-02-08T09:13:40.000Z</time>
      </trkpt>
      <trkpt lat="48.77222" lon="2.26834">
        <ele>141.35</ele>
        <time>2020-02-08T09:13:48.000Z</time>
      </trkpt>
      <trkpt lat="48.77225" lon="2.2682">
        <ele>141.43</ele>
        <time>2020-02-08T09:13:55.000Z</time>
      </trkpt>
      <trkpt lat="48.77227" lon="2.26806">
        <ele>141.52</ele>
        <time>2020-02-08T09:14:01.999Z</time>
      </trkpt>
      <trkpt lat="48.77222" lon="2.26794">
        <ele>141.64</ele>
        <time>2020-02-08T09:14:10.999Z</time>
      </trkpt>
      <trkpt lat="48.77217" lon="2.26782">
        <ele>141.71</ele>
        <time>2020-02-08T09:14:16.999Z</time>
      </trkpt>
      <trkpt lat="48.7721" lon="2.26773">
        <ele>141.91</ele>
        <time>2020-02-08T09:14:33.999Z</time>
      </trkpt>
      <trkpt lat="48.77202" lon="2.26764">
        <ele>142.07</ele>
        <time>2020-02-08T09:14:48.999Z</time>
      </trkpt>
      <trkpt lat="48.77202" lon="2.26749">
        <ele>142.16</ele>
        <time>2020-02-08T09:14:58.999Z</time>
      </trkpt>
      <trkpt lat="48.77199" lon="2.26735">
        <ele>142.18</ele>
        <time>2020-02-08T09:15:01.999Z</time>
      </trkpt>
      <trkpt lat="48.77198" lon="2.26721">
        <ele>142.23</ele>
        <time>2020-02-08T09:15:09.999Z</time>
      </trkpt>
      <trkpt lat="48.77208" lon="2.26717">
        <ele>142.21</ele>
        <time>2020-02-08T09:15:31.999Z</time>
      </trkpt>
      <trkpt lat="48.77218" lon="2.26717">
        <ele>142.18</ele>
        <time>2020-02-08T09:15:34.999Z</time>
      </trkpt>
      <trkpt lat="48.77228" lon="2.26722">
        <ele>142.14</ele>
        <time>2020-02-08T09:15:40.999Z</time>
      </trkpt>
      <trkpt lat="48.77236" lon="2.26729">
        <ele>142.09</ele>
        <time>2020-02-08T09:15:47.999Z</time>
      </trkpt>
      <trkpt lat="48.77242" lon="2.26741">
        <ele>142.09</ele>
        <time>2020-02-08T09:15:55.999Z</time>
      </trkpt>
      <trkpt lat="48.77248" lon="2.26751">
        <ele>142.14</ele>
        <time>2020-02-08T09:16:03.999Z</time>
      </trkpt>
      <trkpt lat="48.77254" lon="2.26761">
        <ele>142.22</ele>
        <time>2020-02-08T09:16:11.999Z</time>
      </trkpt>
      <trkpt lat="48.7726" lon="2.26772">
        <ele>142.32</ele>
        <time>2020-02-08T09:16:18.999Z</time>
      </trkpt>
      <trkpt lat="48.77269" lon="2.26777">
        <ele>142.47</ele>
        <time>2020-02-08T09:16:27.999Z</time>
      </trkpt>
      <trkpt lat="48.77277" lon="2.26785">
        <ele>142.59</ele>
        <time>2020-02-08T09:16:34.999Z</time>
      </trkpt>
      <trkpt lat="48.77284" lon="2.26795">
        <ele>142.76</ele>
        <time>2020-02-08T09:16:44.999Z</time>
      </trkpt>
      <trkpt lat="48.77289" lon="2.26807">
        <ele>142.96</ele>
        <time>2020-02-08T09:16:54.999Z</time>
      </trkpt>
      <trkpt lat="48.77298" lon="2.26813">
        <ele>143.22</ele>
        <time>2020-02-08T09:17:08.999Z</time>
      </trkpt>
      <trkpt lat="48.77303" lon="2.26802">
        <ele>143.4</ele>
        <time>2020-02-08T09:17:19.999Z</time>
      </trkpt>
      <trkpt lat="48.77308" lon="2.26788">
        <ele>143.52</ele>
        <time>2020-02-08T09:17:27.999Z</time>
      </trkpt>
      <trkpt lat="48.77315" lon="2.26777">
        <ele>143.71</ele>
        <time>2020-02-08T09:17:39.999Z</time>
      </trkpt>
      <trkpt lat="48.77322" lon="2.26768">
        <ele>143.85</ele>
        <time>2020-02-08T09:17:49.999Z</time>
      </trkpt>
      <trkpt lat="48.77328" lon="2.26758">
        <ele>143.91</ele>
        <time>2020-02-08T09:17:53.999Z</time>
      </trkpt>
      <trkpt lat="48.77332" lon="2.26745">
        <ele>144.12</ele>
        <time>2020-02-08T09:18:16.999Z</time>
      </trkpt>
      <trkpt lat="48.77338" lon="2.26733">
        <ele>144.16</ele>
        <time>2020-02-08T09:18:21.999Z</time>
      </trkpt>
      <trkpt lat="48.77344" lon="2.26722">
        <ele>144.22</ele>
        <time>2020-02-08T09:18:31.999Z</time>
      </trkpt>
      <trkpt lat="48.77347" lon="2.26707">
        <ele>144.28</ele>
        <time>2020-02-08T09:18:46.999Z</time>
      </trkpt>
      <trkpt lat="48.77356" lon="2.26702">
        <ele>144.22</ele>
        <time>2020-02-08T09:19:35.999Z</time>
      </trkpt>
      <trkpt lat="48.77359" lon="2.26685">
        <ele>144.12</ele>
        <time>2020-02-08T09:19:45.999Z</time>
      </trkpt>
      <trkpt lat="48.77363" lon="2.26672">
        <ele>144.06</ele>
        <time>2020-02-08T09:19:51.999Z</time>
      </trkpt>
      <trkpt lat="48.77367" lon="2.2666">
        <ele>144.02</ele>
        <time>2020-02-08T09:20:02.999Z</time>
      </trkpt>
      <trkpt lat="48.77374" lon="2.26652">
        <ele>144.01</ele>
        <time>2020-02-08T09:20:07.999Z</time>
      </trkpt>
      <trkpt lat="48.77379" lon="2.26638">
        <ele>143.99</ele>
        <time>2020-02-08T09:20:19.999Z</time>
      </trkpt>
      <trkpt lat="48.77386" lon="2.2663">
        <ele>143.86</ele>
        <time>2020-02-08T09:20:31.999Z</time>
      </trkpt>
      <trkpt lat="48.77389" lon="2.26617">
        <ele>143.55</ele>
        <time>2020-02-08T09:20:52.999Z</time>
      </trkpt>
      <trkpt lat="48.77397" lon="2.26608">
        <ele>143.4</ele>
        <time>2020-02-08T09:21:00.999Z</time>
      </trkpt>
      <trkpt lat="48.77403" lon="2.26596">
        <ele>143.29</ele>
        <time>2020-02-08T09:21:06.999Z</time>
      </trkpt>
      <trkpt lat="48.7741" lon="2.26586">
        <ele>143.09</ele>
        <time>2020-02-08T09:21:13.999Z</time>
      </trkpt>
      <trkpt lat="48.77419" lon="2.26588">
        <ele>142.97</ele>
        <time>2020-02-08T09:21:16.999Z</time>
      </trkpt>
      <trkpt lat="48.77427" lon="2.26579">
        <ele>142.53</ele>
        <time>2020-02-08T09:21:30.999Z</time>
      </trkpt>
      <trkpt lat="48.77436" lon="2.26579">
        <ele>142.3</ele>
        <time>2020-02-08T09:21:35.999Z</time>
      </trkpt>
      <trkpt lat="48.77444" lon="2.26573">
        <ele>142.18</ele>
        <time>2020-02-08T09:21:44.999Z</time>
      </trkpt>
      <trkpt lat="48.77453" lon="2.26564">
        <ele>142.21</ele>
        <time>2020-02-08T09:21:53.999Z</time>
      </trkpt>
      <trkpt lat="48.77457" lon="2.26552">
        <ele>142.34</ele>
        <time>2020-02-08T09:22:03.999Z</time>
      </trkpt>
      <trkpt lat="48.77459" lon="2.26537">
        <ele>142.33</ele>
        <time>2020-02-08T09:22:14.999Z</time>
      </trkpt>
      <trkpt lat="48.77463" lon="2.26523">
        <ele>142.24</ele>
        <time>2020-02-08T09:22:27.999Z</time>
      </trkpt>
      <trkpt lat="48.77465" lon="2.26507">
        <ele>142.29</ele>
        <time>2020-02-08T09:22:32.999Z</time>
      </trkpt>
      <trkpt lat="48.77464" lon="2.26493">
        <ele>142.39</ele>
        <time>2020-02-08T09:22:36.999Z</time>
      </trkpt>
      <trkpt lat="48.7746" lon="2.2648">
        <ele>142.67</ele>
        <time>2020-02-08T09:22:44.999Z</time>
      </trkpt>
      <trkpt lat="48.77458" lon="2.26467">
        <ele>142.99</ele>
        <time>2020-02-08T09:22:52.999Z</time>
      </trkpt>
      <trkpt lat="48.77454" lon="2.26454">
        <ele>143.25</ele>
        <time>2020-02-08T09:23:00.999Z</time>
      </trkpt>
      <trkpt lat="48.77447" lon="2.26442">
        <ele>143.76</ele>
        <time>2020-02-08T09:23:06.999Z</time>
      </trkpt>
      <trkpt lat="48.77445" lon="2.26428">
        <ele>144.87</ele>
        <time>2020-02-08T09:23:17.999Z</time>
      </trkpt>
      <trkpt lat="48.77442" lon="2.26415">
        <ele>145.46</ele>
        <time>2020-02-08T09:23:24.999Z</time>
      </trkpt>
      <trkpt lat="48.77437" lon="2.26402">
        <ele>145.82</ele>
        <time>2020-02-08T09:23:31.999Z</time>
      </trkpt>
      <trkpt lat="48.77433" lon="2.26389">
        <ele>146.79</ele>
        <time>2020-02-08T09:23:46.999Z</time>
      </trkpt>
      <trkpt lat="48.77424" lon="2.26381">
        <ele>147.47</ele>
        <time>2020-02-08T09:23:53.999Z</time>
      </trkpt>
      <trkpt lat="48.77416" lon="2.26375">
        <ele>148.71</ele>
        <time>2020-02-08T09:24:06.999Z</time>
      </trkpt>
      <trkpt lat="48.77407" lon="2.26378">
        <ele>149.79</ele>
        <time>2020-02-08T09:24:16.999Z</time>
      </trkpt>
      <trkpt lat="48.77397" lon="2.26376">
        <ele>151.45</ele>
        <time>2020-02-08T09:24:33.999Z</time>
      </trkpt>
      <trkpt lat="48.77388" lon="2.26374">
        <ele>152.3</ele>
        <time>2020-02-08T09:24:38.999Z</time>
      </trkpt>
      <trkpt lat="48.77377" lon="2.26377">
        <ele>153.52</ele>
        <time>2020-02-08T09:24:46.999Z</time>
      </trkpt>
      <trkpt lat="48.77368" lon="2.26377">
        <ele>154.84</ele>
        <time>2020-02-08T09:24:57.999Z</time>
      </trkpt>
      <trkpt lat="48.7736" lon="2.26368">
        <ele>155.71</ele>
        <time>2020-02-08T09:25:04.999Z</time>
      </trkpt>
      <trkpt lat="48.77351" lon="2.26359">
        <ele>156.7</ele>
        <time>2020-02-08T09:25:12.999Z</time>
      </trkpt>
      <trkpt lat="48.77344" lon="2.26349">
        <ele>157.59</ele>
        <time>2020-02-08T09:25:24.999Z</time>
      </trkpt>
      <trkpt lat="48.77336" lon="2.26341">
        <ele>157.97</ele>
        <time>2020-02-08T09:25:27.999Z</time>
      </trkpt>
      <trkpt lat="48.77329" lon="2.26331">
        <ele>158.62</ele>
        <time>2020-02-08T09:25:33.999Z</time>
      </trkpt>
      <trkpt lat="48.77323" lon="2.2632">
        <ele>159.06</ele>
        <time>2020-02-08T09:25:41.999Z</time>
      </trkpt>
      <trkpt lat="48.77318" lon="2.26309">
        <ele>159.82</ele>
        <time>2020-02-08T09:25:50.999Z</time>
      </trkpt>
      <trkpt lat="48.77311" lon="2.26297">
        <ele>160.47</ele>
        <time>2020-02-08T09:25:57.999Z</time>
      </trkpt>
      <trkpt lat="48.77305" lon="2.26286">
        <ele>161.17</ele>
        <time>2020-02-08T09:26:04.999Z</time>
      </trkpt>
      <trkpt lat="48.77301" lon="2.26272">
        <ele>161.71</ele>
        <time>2020-02-08T09:26:11.999Z</time>
      </trkpt>
      <trkpt lat="48.77299" lon="2.26259">
        <ele>162.3</ele>
        <time>2020-02-08T09:26:20.999Z</time>
      </trkpt>
      <trkpt lat="48.77296" lon="2.26246">
        <ele>162.52</ele>
        <time>2020-02-08T09:26:26.999Z</time>
      </trkpt>
      <trkpt lat="48.77297" lon="2.26232">
        <ele>162.89</ele>
        <time>2020-02-08T09:26:33.999Z</time>
      </trkpt>
      <trkpt lat="48.77299" lon="2.26214">
        <ele>163.33</ele>
        <time>2020-02-08T09:26:41.999Z</time>
      </trkpt>
      <trkpt lat="48.77302" lon="2.26201">
        <ele>163.59</ele>
        <time>2020-02-08T09:26:47.999Z</time>
      </trkpt>
      <trkpt lat="48.77305" lon="2.26187">
        <ele>163.81</ele>
        <time>2020-02-08T09:26:54.999Z</time>
      </trkpt>
      <trkpt lat="48.77297" lon="2.26178">
        <ele>163.94</ele>
        <time>2020-02-08T09:27:05.999Z</time>
      </trkpt>
      <trkpt lat="48.77289" lon="2.26172">
        <ele>164.24</ele>
        <time>2020-02-08T09:27:27.999Z</time>
      </trkpt>
      <trkpt lat="48.77281" lon="2.26162">
        <ele>164.49</ele>
        <time>2020-02-08T09:27:36.999Z</time>
      </trkpt>
      <trkpt lat="48.77273" lon="2.26151">
        <ele>164.66</ele>
        <time>2020-02-08T09:27:42.999Z</time>
      </trkpt>
      <trkpt lat="48.77263" lon="2.26151">
        <ele>164.95</ele>
        <time>2020-02-08T09:27:53.999Z</time>
      </trkpt>
      <trkpt lat="48.77254" lon="2.26156">
        <ele>165.16</ele>
        <time>2020-02-08T09:28:03.999Z</time>
      </trkpt>
      <trkpt lat="48.77244" lon="2.26156">
        <ele>165.87</ele>
        <time>2020-02-08T09:28:33.999Z</time>
      </trkpt>
      <trkpt lat="48.77235" lon="2.26153">
        <ele>166.81</ele>
        <time>2020-02-08T09:29:11.000Z</time>
      </trkpt>
      <trkpt lat="48.77232" lon="2.2614">
        <ele>171.99</ele>
        <time>2020-02-08T09:33:09.000Z</time>
      </trkpt>
      <trkpt lat="48.77238" lon="2.26154">
        <ele>172.36</ele>
        <time>2020-02-08T09:33:34.000Z</time>
      </trkpt>
      <trkpt lat="48.77232" lon="2.26143">
        <ele>174.63</ele>
        <time>2020-02-08T09:35:50.000Z</time>
      </trkpt>
      <trkpt lat="48.77227" lon="2.26132">
        <ele>175.21</ele>
        <time>2020-02-08T09:36:04.000Z</time>
      </trkpt>
      <trkpt lat="48.77221" lon="2.2612">
        <ele>175.56</ele>
        <time>2020-02-08T09:36:12.000Z</time>
      </trkpt>
      <trkpt lat="48.77213" lon="2.26108">
        <ele>175.64</ele>
        <time>2020-02-08T09:36:14.000Z</time>
      </trkpt>
      <trkpt lat="48.77205" lon="2.26102">
        <ele>176.21</ele>
        <time>2020-02-08T09:36:32.000Z</time>
      </trkpt>
      <trkpt lat="48.77196" lon="2.26101">
        <ele>176.43</ele>
        <time>2020-02-08T09:36:39.000Z</time>
      </trkpt>
      <trkpt lat="48.77187" lon="2.26096">
        <ele>176.58</ele>
        <time>2020-02-08T09:36:44.000Z</time>
      </trkpt>
      <trkpt lat="48.77176" lon="2.26086">
        <ele>176.84</ele>
        <time>2020-02-08T09:36:51.000Z</time>
      </trkpt>
      <trkpt lat="48.77167" lon="2.26082">
        <ele>177.42</ele>
        <time>2020-02-08T09:37:07.000Z</time>
      </trkpt>
      <trkpt lat="48.77158" lon="2.26079">
        <ele>177.93</ele>
        <time>2020-02-08T09:37:18.000Z</time>
      </trkpt>
      <trkpt lat="48.77149" lon="2.26077">
        <ele>178.42</ele>
        <time>2020-02-08T09:37:28.000Z</time>
      </trkpt>
      <trkpt lat="48.7714" lon="2.26068">
        <ele>178.89</ele>
        <time>2020-02-08T09:37:40.000Z</time>
      </trkpt>
      <trkpt lat="48.7713" lon="2.26064">
        <ele>179.11</ele>
        <time>2020-02-08T09:37:47.000Z</time>
      </trkpt>
      <trkpt lat="48.77121" lon="2.26063">
        <ele>179.32</ele>
        <time>2020-02-08T09:37:56.000Z</time>
      </trkpt>
      <trkpt lat="48.77111" lon="2.26057">
        <ele>179.47</ele>
        <time>2020-02-08T09:38:02.000Z</time>
      </trkpt>
      <trkpt lat="48.77102" lon="2.26055">
        <ele>179.57</ele>
        <time>2020-02-08T09:38:06.000Z</time>
      </trkpt>
      <trkpt lat="48.77093" lon="2.26051">
        <ele>179.78</ele>
        <time>2020-02-08T09:38:18.000Z</time>
      </trkpt>
      <trkpt lat="48.77082" lon="2.2605">
        <ele>179.98</ele>
        <time>2020-02-08T09:38:35.000Z</time>
      </trkpt>
      <trkpt lat="48.77073" lon="2.2604">
        <ele>180.03</ele>
        <time>2020-02-08T09:38:39.000Z</time>
      </trkpt>
      <trkpt lat="48.77063" lon="2.26033">
        <ele>180.09</ele>
        <time>2020-02-08T09:38:46.000Z</time>
      </trkpt>
      <trkpt lat="48.77055" lon="2.26027">
        <ele>180.14</ele>
        <time>2020-02-08T09:38:52.000Z</time>
      </trkpt>
      <trkpt lat="48.77045" lon="2.26031">
        <ele>180.17</ele>
        <time>2020-02-08T09:39:10.000Z</time>
      </trkpt>
      <trkpt lat="48.77038" lon="2.26042">
        <ele>180.13</ele>
        <time>2020-02-08T09:39:20.000Z</time>
      </trkpt>
      <trkpt lat="48.77031" lon="2.26051">
        <ele>180.08</ele>
        <time>2020-02-08T09:39:27.000Z</time>
      </trkpt>
      <trkpt lat="48.77025" lon="2.26061">
        <ele>180.03</ele>
        <time>2020-02-08T09:39:34.000Z</time>
      </trkpt>
      <trkpt lat="48.77016" lon="2.26067">
        <ele>179.99</ele>
        <time>2020-02-08T09:39:41.000Z</time>
      </trkpt>
      <trkpt lat="48.77006" lon="2.26065">
        <ele>179.92</ele>
        <time>2020-02-08T09:39:49.000Z</time>
      </trkpt>
      <trkpt lat="48.76998" lon="2.26058">
        <ele>179.88</ele>
        <time>2020-02-08T09:39:55.000Z</time>
      </trkpt>
      <trkpt lat="48.76989" lon="2.26056">
        <ele>179.83</ele>
        <time>2020-02-08T09:40:03.000Z</time>
      </trkpt>
      <trkpt lat="48.76979" lon="2.2605">
        <ele>179.75</ele>
        <time>2020-02-08T09:40:19.000Z</time>
      </trkpt>
      <trkpt lat="48.7697" lon="2.2605">
        <ele>179.6</ele>
        <time>2020-02-08T09:40:37.000Z</time>
      </trkpt>
      <trkpt lat="48.7696" lon="2.26044">
        <ele>179.53</ele>
        <time>2020-02-08T09:40:45.000Z</time>
      </trkpt>
      <trkpt lat="48.76951" lon="2.26038">
        <ele>179.47</ele>
        <time>2020-02-08T09:40:56.000Z</time>
      </trkpt>
      <trkpt lat="48.76942" lon="2.26038">
        <ele>179.35</ele>
        <time>2020-02-08T09:41:10.000Z</time>
      </trkpt>
      <trkpt lat="48.76932" lon="2.26045">
        <ele>179.3</ele>
        <time>2020-02-08T09:41:18.000Z</time>
      </trkpt>
      <trkpt lat="48.76924" lon="2.26053">
        <ele>179.23</ele>
        <time>2020-02-08T09:41:32.000Z</time>
      </trkpt>
      <trkpt lat="48.76926" lon="2.26069">
        <ele>179.19</ele>
        <time>2020-02-08T09:41:37.000Z</time>
      </trkpt>
      <trkpt lat="48.76927" lon="2.26082">
        <ele>179.13</ele>
        <time>2020-02-08T09:41:47.000Z</time>
      </trkpt>
      <trkpt lat="48.76932" lon="2.26094">
        <ele>179.1</ele>
        <time>2020-02-08T09:41:53.000Z</time>
      </trkpt>
      <trkpt lat="48.76937" lon="2.26106">
        <ele>179.07</ele>
        <time>2020-02-08T09:42:02.000Z</time>
      </trkpt>
      <trkpt lat="48.76942" lon="2.26118">
        <ele>179.05</ele>
        <time>2020-02-08T09:42:08.000Z</time>
      </trkpt>
      <trkpt lat="48.76939" lon="2.26133">
        <ele>179.03</ele>
        <time>2020-02-08T09:42:13.000Z</time>
      </trkpt>
      <trkpt lat="48.76933" lon="2.26144">
        <ele>179.01</ele>
        <time>2020-02-08T09:42:20.000Z</time>
      </trkpt>
      <trkpt lat="48.7693" lon="2.26157">
        <ele>179</ele>
        <time>2020-02-08T09:42:27.000Z</time>
      </trkpt>
      <trkpt lat="48.76922" lon="2.26166">
        <ele>179.03</ele>
        <time>2020-02-08T09:42:36.999Z</time>
      </trkpt>
      <trkpt lat="48.76919" lon="2.2618">
        <ele>179.05</ele>
        <time>2020-02-08T09:42:46.999Z</time>
      </trkpt>
      <trkpt lat="48.76913" lon="2.26192">
        <ele>179.07</ele>
        <time>2020-02-08T09:42:54.999Z</time>
      </trkpt>
      <trkpt lat="48.76905" lon="2.26199">
        <ele>179.09</ele>
        <time>2020-02-08T09:43:05.999Z</time>
      </trkpt>
      <trkpt lat="48.76894" lon="2.262">
        <ele>179.12</ele>
        <time>2020-02-08T09:43:11.999Z</time>
      </trkpt>
      <trkpt lat="48.76886" lon="2.26207">
        <ele>179.18</ele>
        <time>2020-02-08T09:43:20.999Z</time>
      </trkpt>
      <trkpt lat="48.76877" lon="2.26202">
        <ele>179.26</ele>
        <time>2020-02-08T09:43:31.999Z</time>
      </trkpt>
      <trkpt lat="48.76867" lon="2.26202">
        <ele>179.31</ele>
        <time>2020-02-08T09:43:42.999Z</time>
      </trkpt>
      <trkpt lat="48.76858" lon="2.26199">
        <ele>179.33</ele>
        <time>2020-02-08T09:43:47.999Z</time>
      </trkpt>
      <trkpt lat="48.76849" lon="2.26197">
        <ele>179.39</ele>
        <time>2020-02-08T09:43:54.999Z</time>
      </trkpt>
      <trkpt lat="48.76842" lon="2.26188">
        <ele>179.48</ele>
        <time>2020-02-08T09:44:05.999Z</time>
      </trkpt>
      <trkpt lat="48.76836" lon="2.26176">
        <ele>179.88</ele>
        <time>2020-02-08T09:45:45.999Z</time>
      </trkpt>
      <trkpt lat="48.76829" lon="2.26164">
        <ele>180.02</ele>
        <time>2020-02-08T09:45:54.999Z</time>
      </trkpt>
      <trkpt lat="48.76822" lon="2.26156">
        <ele>180.26</ele>
        <time>2020-02-08T09:46:12.999Z</time>
      </trkpt>
      <trkpt lat="48.76812" lon="2.26153">
        <ele>180.38</ele>
        <time>2020-02-08T09:46:21.999Z</time>
      </trkpt>
      <trkpt lat="48.76803" lon="2.26161">
        <ele>180.66</ele>
        <time>2020-02-08T09:46:50.999Z</time>
      </trkpt>
      <trkpt lat="48.76808" lon="2.26173">
        <ele>180.82</ele>
        <time>2020-02-08T09:47:08.999Z</time>
      </trkpt>
      <trkpt lat="48.76807" lon="2.26187">
        <ele>180.89</ele>
        <time>2020-02-08T09:47:25.999Z</time>
      </trkpt>
      <trkpt lat="48.76801" lon="2.26198">
        <ele>180.96</ele>
        <time>2020-02-08T09:47:48.999Z</time>
      </trkpt>
      <trkpt lat="48.76791" lon="2.26201">
        <ele>181.01</ele>
        <time>2020-02-08T09:47:56.999Z</time>
      </trkpt>
      <trkpt lat="48.76781" lon="2.26206">
        <ele>181.14</ele>
        <time>2020-02-08T09:48:16.999Z</time>
      </trkpt>
      <trkpt lat="48.76772" lon="2.26209">
        <ele>181.22</ele>
        <time>2020-02-08T09:48:24.999Z</time>
      </trkpt>
      <trkpt lat="48.76763" lon="2.26205">
        <ele>181.3</ele>
        <time>2020-02-08T09:48:29.999Z</time>
      </trkpt>
      <trkpt lat="48.76757" lon="2.26195">
        <ele>181.44</ele>
        <time>2020-02-08T09:48:38.999Z</time>
      </trkpt>
      <trkpt lat="48.76758" lon="2.26181">
        <ele>181.84</ele>
        <time>2020-02-08T09:48:58.999Z</time>
      </trkpt>
      <trkpt lat="48.76755" lon="2.26167">
        <ele>182.12</ele>
        <time>2020-02-08T09:49:15.999Z</time>
      </trkpt>
      <trkpt lat="48.76747" lon="2.26156">
        <ele>182.22</ele>
        <time>2020-02-08T09:49:21.999Z</time>
      </trkpt>
      <trkpt lat="48.76742" lon="2.26144">
        <ele>182.33</ele>
        <time>2020-02-08T09:49:26.999Z</time>
      </trkpt>
      <trkpt lat="48.76733" lon="2.26139">
        <ele>182.48</ele>
        <time>2020-02-08T09:49:33.999Z</time>
      </trkpt>
      <trkpt lat="48.76724" lon="2.26137">
        <ele>182.82</ele>
        <time>2020-02-08T09:49:58.999Z</time>
      </trkpt>
      <trkpt lat="48.76717" lon="2.26127">
        <ele>183.04</ele>
        <time>2020-02-08T09:50:11.999Z</time>
      </trkpt>
      <trkpt lat="48.76717" lon="2.26113">
        <ele>183.2</ele>
        <time>2020-02-08T09:50:18.999Z</time>
      </trkpt>
      <trkpt lat="48.76716" lon="2.26098">
        <ele>183.37</ele>
        <time>2020-02-08T09:50:25.999Z</time>
      </trkpt>
      <trkpt lat="48.76713" lon="2.26085">
        <ele>183.63</ele>
        <time>2020-02-08T09:50:36.999Z</time>
      </trkpt>
      <trkpt lat="48.76704" lon="2.26078">
        <ele>183.84</ele>
        <time>2020-02-08T09:50:44.999Z</time>
      </trkpt>
      <trkpt lat="48.76694" lon="2.26077">
        <ele>184.01</ele>
        <time>2020-02-08T09:50:50.999Z</time>
      </trkpt>
      <trkpt lat="48.76685" lon="2.26074">
        <ele>184.25</ele>
        <time>2020-02-08T09:51:00.999Z</time>
      </trkpt>
      <trkpt lat="48.76678" lon="2.26066">
        <ele>184.6</ele>
        <time>2020-02-08T09:51:14.999Z</time>
      </trkpt>
      <trkpt lat="48.76669" lon="2.26059">
        <ele>184.79</ele>
        <time>2020-02-08T09:51:23.999Z</time>
      </trkpt>
      <trkpt lat="48.76662" lon="2.26049">
        <ele>184.89</ele>
        <time>2020-02-08T09:51:27.999Z</time>
      </trkpt>
      <trkpt lat="48.76653" lon="2.26043">
        <ele>185.17</ele>
        <time>2020-02-08T09:51:39.999Z</time>
      </trkpt>
      <trkpt lat="48.76643" lon="2.26041">
        <ele>185.38</ele>
        <time>2020-02-08T09:51:48.999Z</time>
      </trkpt>
      <trkpt lat="48.76634" lon="2.26035">
        <ele>185.67</ele>
        <time>2020-02-08T09:52:01.999Z</time>
      </trkpt>
      <trkpt lat="48.76625" lon="2.26039">
        <ele>185.83</ele>
        <time>2020-02-08T09:52:08.999Z</time>
      </trkpt>
      <trkpt lat="48.76616" lon="2.26043">
        <ele>185.99</ele>
        <time>2020-02-08T09:52:15.999Z</time>
      </trkpt>
      <trkpt lat="48.76611" lon="2.26053">
        <ele>186.9</ele>
        <time>2020-02-08T09:53:03.999Z</time>
      </trkpt>
      <trkpt lat="48.76601" lon="2.2605">
        <ele>188.35</ele>
        <time>2020-02-08T09:53:42.999Z</time>
      </trkpt>
      <trkpt lat="48.76591" lon="2.26047">
        <ele>188.62</ele>
        <time>2020-02-08T09:53:50.999Z</time>
      </trkpt>
      <trkpt lat="48.76583" lon="2.26042">
        <ele>189.03</ele>
        <time>2020-02-08T09:54:04.999Z</time>
      </trkpt>
      <trkpt lat="48.76574" lon="2.26034">
        <ele>189.28</ele>
        <time>2020-02-08T09:54:14.999Z</time>
      </trkpt>
      <trkpt lat="48.76565" lon="2.26026">
        <ele>189.72</ele>
        <time>2020-02-08T09:54:29.999Z</time>
      </trkpt>
      <trkpt lat="48.76557" lon="2.26018">
        <ele>190.31</ele>
        <time>2020-02-08T09:54:50.999Z</time>
      </trkpt>
      <trkpt lat="48.76547" lon="2.26012">
        <ele>190.65</ele>
        <time>2020-02-08T09:55:03.999Z</time>
      </trkpt>
      <trkpt lat="48.7654" lon="2.26002">
        <ele>190.92</ele>
        <time>2020-02-08T09:55:15.999Z</time>
      </trkpt>
      <trkpt lat="48.7654" lon="2.25986">
        <ele>191.08</ele>
        <time>2020-02-08T09:55:24.999Z</time>
      </trkpt>
      <trkpt lat="48.76541" lon="2.25971">
        <ele>191.18</ele>
        <time>2020-02-08T09:55:31.999Z</time>
      </trkpt>
      <trkpt lat="48.76544" lon="2.25958">
        <ele>191.26</ele>
        <time>2020-02-08T09:55:39.999Z</time>
      </trkpt>
      <trkpt lat="48.76549" lon="2.25946">
        <ele>191.34</ele>
        <time>2020-02-08T09:55:49.999Z</time>
      </trkpt>
      <trkpt lat="48.76554" lon="2.25934">
        <ele>191.4</ele>
        <time>2020-02-08T09:55:56.999Z</time>
      </trkpt>
      <trkpt lat="48.76557" lon="2.2592">
        <ele>191.51</ele>
        <time>2020-02-08T09:56:05.999Z</time>
      </trkpt>
      <trkpt lat="48.76557" lon="2.25906">
        <ele>191.64</ele>
        <time>2020-02-08T09:56:18.999Z</time>
      </trkpt>
      <trkpt lat="48.76559" lon="2.25891">
        <ele>191.77</ele>
        <time>2020-02-08T09:56:30.000Z</time>
      </trkpt>
      <trkpt lat="48.76561" lon="2.25878">
        <ele>191.87</ele>
        <time>2020-02-08T09:56:39.000Z</time>
      </trkpt>
      <trkpt lat="48.76561" lon="2.25864">
        <ele>191.97</ele>
        <time>2020-02-08T09:56:48.000Z</time>
      </trkpt>
      <trkpt lat="48.76561" lon="2.25849">
        <ele>192.06</ele>
        <time>2020-02-08T09:56:57.000Z</time>
      </trkpt>
      <trkpt lat="48.76552" lon="2.25845">
        <ele>192.42</ele>
        <time>2020-02-08T09:57:20.000Z</time>
      </trkpt>
      <trkpt lat="48.76543" lon="2.25839">
        <ele>192.64</ele>
        <time>2020-02-08T09:57:32.000Z</time>
      </trkpt>
      <trkpt lat="48.76534" lon="2.25834">
        <ele>192.89</ele>
        <time>2020-02-08T09:57:47.000Z</time>
      </trkpt>
      <trkpt lat="48.76525" lon="2.25834">
        <ele>193.24</ele>
        <time>2020-02-08T09:58:03.000Z</time>
      </trkpt>
      <trkpt lat="48.76516" lon="2.25839">
        <ele>193.38</ele>
        <time>2020-02-08T09:58:10.000Z</time>
      </trkpt>
      <trkpt lat="48.76507" lon="2.25839">
        <ele>193.47</ele>
        <time>2020-02-08T09:58:15.000Z</time>
      </trkpt>
      <trkpt lat="48.76496" lon="2.25836">
        <ele>193.73</ele>
        <time>2020-02-08T09:58:28.000Z</time>
      </trkpt>
      <trkpt lat="48.76491" lon="2.25822">
        <ele>193.88</ele>
        <time>2020-02-08T09:58:37.000Z</time>
      </trkpt>
      <trkpt lat="48.76489" lon="2.25806">
        <ele>194.14</ele>
        <time>2020-02-08T09:59:03.000Z</time>
      </trkpt>
      <trkpt lat="48.76493" lon="2.25793">
        <ele>194.19</ele>
        <time>2020-02-08T09:59:14.000Z</time>
      </trkpt>
      <trkpt lat="48.7649" lon="2.25779">
        <ele>194.22</ele>
        <time>2020-02-08T09:59:36.000Z</time>
      </trkpt>
      <trkpt lat="48.76483" lon="2.25768">
        <ele>194.2</ele>
        <time>2020-02-08T09:59:40.000Z</time>
      </trkpt>
      <trkpt lat="48.7648" lon="2.25752">
        <ele>194.17</ele>
        <time>2020-02-08T09:59:46.000Z</time>
      </trkpt>
      <trkpt lat="48.76475" lon="2.25739">
        <ele>194.14</ele>
        <time>2020-02-08T10:00:03.000Z</time>
      </trkpt>
      <trkpt lat="48.7647" lon="2.25724">
        <ele>194.11</ele>
        <time>2020-02-08T10:00:17.000Z</time>
      </trkpt>
      <trkpt lat="48.76462" lon="2.25716">
        <ele>194.08</ele>
        <time>2020-02-08T10:00:27.000Z</time>
      </trkpt>
      <trkpt lat="48.76456" lon="2.25704">
        <ele>194.04</ele>
        <time>2020-02-08T10:00:41.000Z</time>
      </trkpt>
      <trkpt lat="48.76452" lon="2.25692">
        <ele>193.99</ele>
        <time>2020-02-08T10:00:55.000Z</time>
      </trkpt>
      <trkpt lat="48.7645" lon="2.25679">
        <ele>193.93</ele>
        <time>2020-02-08T10:01:11.000Z</time>
      </trkpt>
      <trkpt lat="48.76446" lon="2.25665">
        <ele>193.9</ele>
        <time>2020-02-08T10:01:28.000Z</time>
      </trkpt>
      <trkpt lat="48.76437" lon="2.2566">
        <ele>193.89</ele>
        <time>2020-02-08T10:01:33.000Z</time>
      </trkpt>
      <trkpt lat="48.76432" lon="2.25647">
        <ele>193.91</ele>
        <time>2020-02-08T10:01:46.000Z</time>
      </trkpt>
      <trkpt lat="48.76432" lon="2.25634">
        <ele>193.94</ele>
        <time>2020-02-08T10:02:01.000Z</time>
      </trkpt>
      <trkpt lat="48.76425" lon="2.25625">
        <ele>194.05</ele>
        <time>2020-02-08T10:02:26.000Z</time>
      </trkpt>
      <trkpt lat="48.76417" lon="2.25617">
        <ele>194.2</ele>
        <time>2020-02-08T10:02:48.000Z</time>
      </trkpt>
      <trkpt lat="48.76409" lon="2.25624">
        <ele>194.81</ele>
        <time>2020-02-08T10:03:54.000Z</time>
      </trkpt>
      <trkpt lat="48.76402" lon="2.25635">
        <ele>195.13</ele>
        <time>2020-02-08T10:04:33.000Z</time>
      </trkpt>
      <trkpt lat="48.76392" lon="2.25631">
        <ele>195.51</ele>
        <time>2020-02-08T10:04:44.000Z</time>
      </trkpt>
      <trkpt lat="48.76384" lon="2.25623">
        <ele>195.75</ele>
        <time>2020-02-08T10:04:52.000Z</time>
      </trkpt>
      <trkpt lat="48.76379" lon="2.2561">
        <ele>196.13</ele>
        <time>2020-02-08T10:05:06.000Z</time>
      </trkpt>
      <trkpt lat="48.76374" lon="2.25598">
        <ele>196.37</ele>
        <time>2020-02-08T10:05:17.000Z</time>
      </trkpt>
      <trkpt lat="48.76369" lon="2.25584">
        <ele>196.54</ele>
        <time>2020-02-08T10:05:26.000Z</time>
      </trkpt>
      <trkpt lat="48.76366" lon="2.25569">
        <ele>196.74</ele>
        <time>2020-02-08T10:05:36.000Z</time>
      </trkpt>
      <trkpt lat="48.7636" lon="2.25557">
        <ele>196.91</ele>
        <time>2020-02-08T10:05:45.000Z</time>
      </trkpt>
      <trkpt lat="48.76354" lon="2.25546">
        <ele>197.11</ele>
        <time>2020-02-08T10:05:56.000Z</time>
      </trkpt>
      <trkpt lat="48.7635" lon="2.25534">
        <ele>197.27</ele>
        <time>2020-02-08T10:06:05.000Z</time>
      </trkpt>
      <trkpt lat="48.76349" lon="2.2552">
        <ele>197.44</ele>
        <time>2020-02-08T10:06:15.000Z</time>
      </trkpt>
      <trkpt lat="48.76349" lon="2.25506">
        <ele>197.55</ele>
        <time>2020-02-08T10:06:22.000Z</time>
      </trkpt>
      <trkpt lat="48.76349" lon="2.25492">
        <ele>197.73</ele>
        <time>2020-02-08T10:06:34.000Z</time>
      </trkpt>
      <trkpt lat="48.76346" lon="2.25478">
        <ele>197.93</ele>
        <time>2020-02-08T10:06:45.000Z</time>
      </trkpt>
      <trkpt lat="48.76348" lon="2.25465">
        <ele>198.12</ele>
        <time>2020-02-08T10:06:55.000Z</time>
      </trkpt>
      <trkpt lat="48.76354" lon="2.25454">
        <ele>198.32</ele>
        <time>2020-02-08T10:07:06.000Z</time>
      </trkpt>
      <trkpt lat="48.76349" lon="2.25442">
        <ele>198.6</ele>
        <time>2020-02-08T10:07:25.000Z</time>
      </trkpt>
      <trkpt lat="48.76342" lon="2.25433">
        <ele>198.7</ele>
        <time>2020-02-08T10:07:33.000Z</time>
      </trkpt>
      <trkpt lat="48.76345" lon="2.25419">
        <ele>198.84</ele>
        <time>2020-02-08T10:07:43.000Z</time>
      </trkpt>
      <trkpt lat="48.76337" lon="2.25412">
        <ele>199</ele>
        <time>2020-02-08T10:07:56.000Z</time>
      </trkpt>
      <trkpt lat="48.76327" lon="2.25407">
        <ele>199.1</ele>
        <time>2020-02-08T10:08:05.000Z</time>
      </trkpt>
      <trkpt lat="48.76318" lon="2.25402">
        <ele>199.17</ele>
        <time>2020-02-08T10:08:17.000Z</time>
      </trkpt>
      <trkpt lat="48.76308" lon="2.25396">
        <ele>199.21</ele>
        <time>2020-02-08T10:08:27.000Z</time>
      </trkpt>
      <trkpt lat="48.763" lon="2.2539">
        <ele>199.22</ele>
        <time>2020-02-08T10:08:36.000Z</time>
      </trkpt>
      <trkpt lat="48.76291" lon="2.25385">
        <ele>199.19</ele>
        <time>2020-02-08T10:08:46.000Z</time>
      </trkpt>
      <trkpt lat="48.76283" lon="2.2538">
        <ele>199.18</ele>
        <time>2020-02-08T10:08:54.000Z</time>
      </trkpt>
      <trkpt lat="48.76273" lon="2.25376">
        <ele>199.18</ele>
        <time>2020-02-08T10:09:03.000Z</time>
      </trkpt>
      <trkpt lat="48.76264" lon="2.25376">
        <ele>199.21</ele>
        <time>2020-02-08T10:09:10.000Z</time>
      </trkpt>
      <trkpt lat="48.76255" lon="2.25376">
        <ele>199.25</ele>
        <time>2020-02-08T10:09:17.000Z</time>
      </trkpt>
      <trkpt lat="48.76248" lon="2.25366">
        <ele>199.3</ele>
        <time>2020-02-08T10:09:23.000Z</time>
      </trkpt>
      <trkpt lat="48.76242" lon="2.25355">
        <ele>199.45</ele>
        <time>2020-02-08T10:09:37.000Z</time>
      </trkpt>
      <trkpt lat="48.76235" lon="2.25345">
        <ele>199.59</ele>
        <time>2020-02-08T10:09:52.000Z</time>
      </trkpt>
      <trkpt lat="48.76227" lon="2.25334">
        <ele>199.64</ele>
        <time>2020-02-08T10:10:01.000Z</time>
      </trkpt>
      <trkpt lat="48.76222" lon="2.25323">
        <ele>199.7</ele>
        <time>2020-02-08T10:10:14.999Z</time>
      </trkpt>
      <trkpt lat="48.76215" lon="2.25314">
        <ele>199.79</ele>
        <time>2020-02-08T10:10:42.999Z</time>
      </trkpt>
      <trkpt lat="48.76217" lon="2.253">
        <ele>199.9</ele>
        <time>2020-02-08T10:11:16.999Z</time>
      </trkpt>
      <trkpt lat="48.76216" lon="2.25285">
        <ele>199.93</ele>
        <time>2020-02-08T10:11:31.999Z</time>
      </trkpt>
      <trkpt lat="48.76219" lon="2.2527">
        <ele>199.95</ele>
        <time>2020-02-08T10:11:40.999Z</time>
      </trkpt>
      <trkpt lat="48.76221" lon="2.25256">
        <ele>199.98</ele>
        <time>2020-02-08T10:11:58.999Z</time>
      </trkpt>
      <trkpt lat="48.76223" lon="2.25243">
        <ele>200</ele>
        <time>2020-02-08T10:12:14.999Z</time>
      </trkpt>
      <trkpt lat="48.76226" lon="2.25229">
        <ele>200.11</ele>
        <time>2020-02-08T10:13:03.999Z</time>
      </trkpt>
      <trkpt lat="48.76235" lon="2.25223">
        <ele>200.42</ele>
        <time>2020-02-08T10:13:46.999Z</time>
      </trkpt>
      <trkpt lat="48.76241" lon="2.25213">
        <ele>200.59</ele>
        <time>2020-02-08T10:14:04.999Z</time>
      </trkpt>
      <trkpt lat="48.76246" lon="2.25197">
        <ele>200.72</ele>
        <time>2020-02-08T10:14:20.999Z</time>
      </trkpt>
      <trkpt lat="48.76251" lon="2.25185">
        <ele>200.77</ele>
        <time>2020-02-08T10:14:29.999Z</time>
      </trkpt>
      <trkpt lat="48.76259" lon="2.25178">
        <ele>200.83</ele>
        <time>2020-02-08T10:14:38.999Z</time>
      </trkpt>
      <trkpt lat="48.76266" lon="2.25168">
        <ele>200.93</ele>
        <time>2020-02-08T10:15:00.999Z</time>
      </trkpt>
      <trkpt lat="48.76273" lon="2.25157">
        <ele>200.99</ele>
        <time>2020-02-08T10:15:11.999Z</time>
      </trkpt>
      <trkpt lat="48.76276" lon="2.25144">
        <ele>201.01</ele>
        <time>2020-02-08T10:15:16.999Z</time>
      </trkpt>
      <trkpt lat="48.76271" lon="2.2513">
        <ele>201.22</ele>
        <time>2020-02-08T10:15:47.999Z</time>
      </trkpt>
      <trkpt lat="48.76263" lon="2.25118">
        <ele>201.37</ele>
        <time>2020-02-08T10:15:59.999Z</time>
      </trkpt>
      <trkpt lat="48.76255" lon="2.25107">
        <ele>201.45</ele>
        <time>2020-02-08T10:16:07.999Z</time>
      </trkpt>
      <trkpt lat="48.76253" lon="2.25093">
        <ele>201.61</ele>
        <time>2020-02-08T10:16:25.999Z</time>
      </trkpt>
      <trkpt lat="48.76247" lon="2.25082">
        <ele>201.73</ele>
        <time>2020-02-08T10:16:40.999Z</time>
      </trkpt>
      <trkpt lat="48.76241" lon="2.25072">
        <ele>201.81</ele>
        <time>2020-02-08T10:16:57.999Z</time>
      </trkpt>
      <trkpt lat="48.7625" lon="2.25075">
        <ele>202.03</ele>
        <time>2020-02-08T10:17:29.999Z</time>
      </trkpt>
      <trkpt lat="48.76259" lon="2.25066">
        <ele>202.23</ele>
        <time>2020-02-08T10:17:55.999Z</time>
      </trkpt>
      <trkpt lat="48.76268" lon="2.25064">
        <ele>202.42</ele>
        <time>2020-02-08T10:18:14.999Z</time>
      </trkpt>
      <trkpt lat="48.76259" lon="2.2506">
        <ele>202.69</ele>
        <time>2020-02-08T10:18:55.999Z</time>
      </trkpt>
      <trkpt lat="48.76252" lon="2.25051">
        <ele>202.9</ele>
        <time>2020-02-08T10:19:37.999Z</time>
      </trkpt>
      <trkpt lat="48.76249" lon="2.25038">
        <ele>203.02</ele>
        <time>2020-02-08T10:19:52.999Z</time>
      </trkpt>
      <trkpt lat="48.76248" lon="2.25022">
        <ele>203.17</ele>
        <time>2020-02-08T10:20:09.999Z</time>
      </trkpt>
      <trkpt lat="48.76247" lon="2.25008">
        <ele>203.37</ele>
        <time>2020-02-08T10:20:29.999Z</time>
      </trkpt>
      <trkpt lat="48.76247" lon="2.24994">
        <ele>204.06</ele>
        <time>2020-02-08T10:21:40.999Z</time>
      </trkpt>
      <trkpt lat="48.76243" lon="2.24982">
        <ele>204.25</ele>
        <time>2020-02-08T10:22:03.999Z</time>
      </trkpt>
      <trkpt lat="48.76242" lon="2.24967">
        <ele>204.42</ele>
        <time>2020-02-08T10:22:28.999Z</time>
      </trkpt>
      <trkpt lat="48.76247" lon="2.24956">
        <ele>204.56</ele>
        <time>2020-02-08T10:22:49.999Z</time>
      </trkpt>
      <trkpt lat="48.76254" lon="2.24947">
        <ele>204.73</ele>
        <time>2020-02-08T10:23:16.999Z</time>
      </trkpt>
      <trkpt lat="48.76261" lon="2.24938">
        <ele>204.85</ele>
        <time>2020-02-08T10:23:35.999Z</time>
      </trkpt>
      <trkpt lat="48.7627" lon="2.24934">
        <ele>204.91</ele>
        <time>2020-02-08T10:23:47.999Z</time>
      </trkpt>
      <trkpt lat="48.76279" lon="2.24929">
        <ele>204.95</ele>
        <time>2020-02-08T10:23:56.999Z</time>
      </trkpt>
      <trkpt lat="48.76285" lon="2.24919">
        <ele>205.01</ele>
        <time>2020-02-08T10:24:43.000Z</time>
      </trkpt>
      <trkpt lat="48.76294" lon="2.24911">
        <ele>205.02</ele>
        <time>2020-02-08T10:25:05.000Z</time>
      </trkpt>
      <trkpt lat="48.76303" lon="2.24906">
        <ele>205.07</ele>
        <time>2020-02-08T10:25:17.000Z</time>
      </trkpt>
      <trkpt lat="48.76313" lon="2.24903">
        <ele>205.12</ele>
        <time>2020-02-08T10:25:26.000Z</time>
      </trkpt>
      <trkpt lat="48.76321" lon="2.24898">
        <ele>205.22</ele>
        <time>2020-02-08T10:25:42.000Z</time>
      </trkpt>
      <trkpt lat="48.76329" lon="2.2489">
        <ele>205.3</ele>
        <time>2020-02-08T10:25:53.000Z</time>
      </trkpt>
      <trkpt lat="48.76339" lon="2.24888">
        <ele>205.48</ele>
        <time>2020-02-08T10:26:23.000Z</time>
      </trkpt>
      <trkpt lat="48.76349" lon="2.24886">
        <ele>205.67</ele>
        <time>2020-02-08T10:26:41.000Z</time>
      </trkpt>
      <trkpt lat="48.76354" lon="2.24875">
        <ele>205.76</ele>
        <time>2020-02-08T10:26:51.000Z</time>
      </trkpt>
      <trkpt lat="48.76358" lon="2.24862">
        <ele>205.82</ele>
        <time>2020-02-08T10:26:59.000Z</time>
      </trkpt>
      <trkpt lat="48.76358" lon="2.24847">
        <ele>205.94</ele>
        <time>2020-02-08T10:27:21.000Z</time>
      </trkpt>
      <trkpt lat="48.7635" lon="2.24839">
        <ele>206.15</ele>
        <time>2020-02-08T10:28:05.000Z</time>
      </trkpt>
      <trkpt lat="48.76346" lon="2.24827">
        <ele>206.22</ele>
        <time>2020-02-08T10:28:17.000Z</time>
      </trkpt>
      <trkpt lat="48.76343" lon="2.24813">
        <ele>206.25</ele>
        <time>2020-02-08T10:28:23.000Z</time>
      </trkpt>
      <trkpt lat="48.7634" lon="2.24799">
        <ele>206.32</ele>
        <time>2020-02-08T10:28:31.000Z</time>
      </trkpt>
      <trkpt lat="48.76338" lon="2.24785">
        <ele>206.45</ele>
        <time>2020-02-08T10:28:45.000Z</time>
      </trkpt>
      <trkpt lat="48.76332" lon="2.24771">
        <ele>206.54</ele>
        <time>2020-02-08T10:28:54.000Z</time>
      </trkpt>
      <trkpt lat="48.76328" lon="2.24758">
        <ele>206.69</ele>
        <time>2020-02-08T10:29:07.000Z</time>
      </trkpt>
      <trkpt lat="48.76324" lon="2.24745">
        <ele>207.09</ele>
        <time>2020-02-08T10:29:29.000Z</time>
      </trkpt>
      <trkpt lat="48.76318" lon="2.2473">
        <ele>207.14</ele>
        <time>2020-02-08T10:29:37.000Z</time>
      </trkpt>
      <trkpt lat="48.76314" lon="2.24717">
        <ele>207.26</ele>
        <time>2020-02-08T10:29:44.000Z</time>
      </trkpt>
      <trkpt lat="48.76309" lon="2.24705">
        <ele>207.46</ele>
        <time>2020-02-08T10:29:53.000Z</time>
      </trkpt>
      <trkpt lat="48.76308" lon="2.24692">
        <ele>207.6</ele>
        <time>2020-02-08T10:30:01.000Z</time>
      </trkpt>
      <trkpt lat="48.76301" lon="2.24681">
        <ele>207.77</ele>
        <time>2020-02-08T10:30:15.000Z</time>
      </trkpt>
      <trkpt lat="48.76301" lon="2.24665">
        <ele>207.79</ele>
        <time>2020-02-08T10:30:19.000Z</time>
      </trkpt>
      <trkpt lat="48.76297" lon="2.24651">
        <ele>207.82</ele>
        <time>2020-02-08T10:30:29.000Z</time>
      </trkpt>
      <trkpt lat="48.76291" lon="2.2464">
        <ele>207.84</ele>
        <time>2020-02-08T10:30:33.000Z</time>
      </trkpt>
      <trkpt lat="48.76285" lon="2.24629">
        <ele>207.9</ele>
        <time>2020-02-08T10:30:43.000Z</time>
      </trkpt>
      <trkpt lat="48.7628" lon="2.24618">
        <ele>207.92</ele>
        <time>2020-02-08T10:30:55.000Z</time>
      </trkpt>
      <trkpt lat="48.76276" lon="2.24603">
        <ele>207.92</ele>
        <time>2020-02-08T10:31:05.000Z</time>
      </trkpt>
      <trkpt lat="48.76271" lon="2.2459">
        <ele>207.93</ele>
        <time>2020-02-08T10:31:15.000Z</time>
      </trkpt>
      <trkpt lat="48.7627" lon="2.24574">
        <ele>207.92</ele>
        <time>2020-02-08T10:31:26.000Z</time>
      </trkpt>
      <trkpt lat="48.76267" lon="2.24558">
        <ele>207.91</ele>
        <time>2020-02-08T10:31:34.000Z</time>
      </trkpt>
      <trkpt lat="48.76266" lon="2.24545">
        <ele>207.76</ele>
        <time>2020-02-08T10:32:20.000Z</time>
      </trkpt>
      <trkpt lat="48.76266" lon="2.24531">
        <ele>207.59</ele>
        <time>2020-02-08T10:32:29.000Z</time>
      </trkpt>
      <trkpt lat="48.76256" lon="2.24535">
        <ele>207.33</ele>
        <time>2020-02-08T10:32:58.000Z</time>
      </trkpt>
      <trkpt lat="48.76247" lon="2.24539">
        <ele>207.23</ele>
        <time>2020-02-08T10:33:16.000Z</time>
      </trkpt>
      <trkpt lat="48.76236" lon="2.24548">
        <ele>207.23</ele>
        <time>2020-02-08T10:33:21.000Z</time>
      </trkpt>
      <trkpt lat="48.76229" lon="2.24557">
        <ele>207.25</ele>
        <time>2020-02-08T10:33:25.000Z</time>
      </trkpt>
      <trkpt lat="48.76221" lon="2.24564">
        <ele>207.29</ele>
        <time>2020-02-08T10:33:29.000Z</time>
      </trkpt>
      <trkpt lat="48.76215" lon="2.24575">
        <ele>207.37</ele>
        <time>2020-02-08T10:33:35.000Z</time>
      </trkpt>
      <trkpt lat="48.76208" lon="2.24585">
        <ele>207.53</ele>
        <time>2020-02-08T10:33:44.000Z</time>
      </trkpt>
      <trkpt lat="48.76198" lon="2.24591">
        <ele>207.79</ele>
        <time>2020-02-08T10:33:56.000Z</time>
      </trkpt>
      <trkpt lat="48.7619" lon="2.24599">
        <ele>208.01</ele>
        <time>2020-02-08T10:34:05.000Z</time>
      </trkpt>
      <trkpt lat="48.76185" lon="2.2461">
        <ele>208.16</ele>
        <time>2020-02-08T10:34:10.000Z</time>
      </trkpt>
      <trkpt lat="48.76177" lon="2.24617">
        <ele>208.39</ele>
        <time>2020-02-08T10:34:18.000Z</time>
      </trkpt>
      <trkpt lat="48.76168" lon="2.24624">
        <ele>208.67</ele>
        <time>2020-02-08T10:34:26.000Z</time>
      </trkpt>
      <trkpt lat="48.76159" lon="2.24631">
        <ele>209.13</ele>
        <time>2020-02-08T10:34:39.000Z</time>
      </trkpt>
      <trkpt lat="48.76152" lon="2.2464">
        <ele>209.33</ele>
        <time>2020-02-08T10:34:45.000Z</time>
      </trkpt>
      <trkpt lat="48.76144" lon="2.24649">
        <ele>209.67</ele>
        <time>2020-02-08T10:34:58.000Z</time>
      </trkpt>
      <trkpt lat="48.76135" lon="2.24655">
        <ele>210</ele>
        <time>2020-02-08T10:35:09.000Z</time>
      </trkpt>
      <trkpt lat="48.76128" lon="2.24665">
        <ele>210.17</ele>
        <time>2020-02-08T10:35:15.000Z</time>
      </trkpt>
      <trkpt lat="48.76122" lon="2.24675">
        <ele>210.37</ele>
        <time>2020-02-08T10:35:23.000Z</time>
      </trkpt>
      <trkpt lat="48.76113" lon="2.24677">
        <ele>210.57</ele>
        <time>2020-02-08T10:35:32.000Z</time>
      </trkpt>
      <trkpt lat="48.76107" lon="2.24691">
        <ele>210.72</ele>
        <time>2020-02-08T10:35:39.000Z</time>
      </trkpt>
      <trkpt lat="48.76098" lon="2.24697">
        <ele>210.86</ele>
        <time>2020-02-08T10:35:45.000Z</time>
      </trkpt>
      <trkpt lat="48.7609" lon="2.24706">
        <ele>211.04</ele>
        <time>2020-02-08T10:35:52.000Z</time>
      </trkpt>
      <trkpt lat="48.7608" lon="2.24703">
        <ele>211.12</ele>
        <time>2020-02-08T10:35:55.000Z</time>
      </trkpt>
      <trkpt lat="48.7607" lon="2.24707">
        <ele>211.29</ele>
        <time>2020-02-08T10:36:01.000Z</time>
      </trkpt>
      <trkpt lat="48.76061" lon="2.24709">
        <ele>211.53</ele>
        <time>2020-02-08T10:36:09.000Z</time>
      </trkpt>
      <trkpt lat="48.76053" lon="2.24715">
        <ele>211.77</ele>
        <time>2020-02-08T10:36:19.000Z</time>
      </trkpt>
      <trkpt lat="48.76045" lon="2.24721">
        <ele>212.02</ele>
        <time>2020-02-08T10:36:27.000Z</time>
      </trkpt>
      <trkpt lat="48.76035" lon="2.24726">
        <ele>212.28</ele>
        <time>2020-02-08T10:36:35.000Z</time>
      </trkpt>
      <trkpt lat="48.76026" lon="2.24727">
        <ele>212.59</ele>
        <time>2020-02-08T10:36:46.000Z</time>
      </trkpt>
      <trkpt lat="48.7602" lon="2.24737">
        <ele>212.87</ele>
        <time>2020-02-08T10:36:58.000Z</time>
      </trkpt>
      <trkpt lat="48.76012" lon="2.24747">
        <ele>213.08</ele>
        <time>2020-02-08T10:37:04.000Z</time>
      </trkpt>
      <trkpt lat="48.75999" lon="2.24748">
        <ele>213.19</ele>
        <time>2020-02-08T10:37:07.000Z</time>
      </trkpt>
      <trkpt lat="48.75989" lon="2.24748">
        <ele>213.37</ele>
        <time>2020-02-08T10:37:13.000Z</time>
      </trkpt>
      <trkpt lat="48.7598" lon="2.24754">
        <ele>213.61</ele>
        <time>2020-02-08T10:37:20.000Z</time>
      </trkpt>
      <trkpt lat="48.75971" lon="2.24761">
        <ele>213.84</ele>
        <time>2020-02-08T10:37:29.000Z</time>
      </trkpt>
      <trkpt lat="48.75962" lon="2.24768">
        <ele>214.31</ele>
        <time>2020-02-08T10:37:42.000Z</time>
      </trkpt>
      <trkpt lat="48.75954" lon="2.24775">
        <ele>214.62</ele>
        <time>2020-02-08T10:37:51.000Z</time>
      </trkpt>
      <trkpt lat="48.75944" lon="2.24781">
        <ele>214.91</ele>
        <time>2020-02-08T10:38:00.000Z</time>
      </trkpt>
      <trkpt lat="48.75932" lon="2.24783">
        <ele>215.11</ele>
        <time>2020-02-08T10:38:07.000Z</time>
      </trkpt>
      <trkpt lat="48.75923" lon="2.24787">
        <ele>215.37</ele>
        <time>2020-02-08T10:38:16.000Z</time>
      </trkpt>
      <trkpt lat="48.75918" lon="2.24798">
        <ele>215.56</ele>
        <time>2020-02-08T10:38:22.000Z</time>
      </trkpt>
      <trkpt lat="48.75908" lon="2.24802">
        <ele>215.71</ele>
        <time>2020-02-08T10:38:27.000Z</time>
      </trkpt>
      <trkpt lat="48.75899" lon="2.24805">
        <ele>215.96</ele>
        <time>2020-02-08T10:38:36.999Z</time>
      </trkpt>
      <trkpt lat="48.7589" lon="2.24812">
        <ele>216.22</ele>
        <time>2020-02-08T10:38:44.999Z</time>
      </trkpt>
      <trkpt lat="48.75886" lon="2.24824">
        <ele>216.39</ele>
        <time>2020-02-08T10:38:49.999Z</time>
      </trkpt>
      <trkpt lat="48.75884" lon="2.2484">
        <ele>216.63</ele>
        <time>2020-02-08T10:38:56.999Z</time>
      </trkpt>
      <trkpt lat="48.75883" lon="2.24855">
        <ele>216.94</ele>
        <time>2020-02-08T10:39:06.999Z</time>
      </trkpt>
      <trkpt lat="48.75884" lon="2.24869">
        <ele>217.55</ele>
        <time>2020-02-08T10:39:25.999Z</time>
      </trkpt>
      <trkpt lat="48.75885" lon="2.24887">
        <ele>217.83</ele>
        <time>2020-02-08T10:39:35.999Z</time>
      </trkpt>
      <trkpt lat="48.75884" lon="2.24902">
        <ele>218.05</ele>
        <time>2020-02-08T10:39:43.999Z</time>
      </trkpt>
      <trkpt lat="48.75883" lon="2.24916">
        <ele>218.18</ele>
        <time>2020-02-08T10:39:47.999Z</time>
      </trkpt>
      <trkpt lat="48.75881" lon="2.24931">
        <ele>218.38</ele>
        <time>2020-02-08T10:39:52.999Z</time>
      </trkpt>
      <trkpt lat="48.75876" lon="2.24944">
        <ele>218.84</ele>
        <time>2020-02-08T10:40:04.999Z</time>
      </trkpt>
      <trkpt lat="48.75875" lon="2.24958">
        <ele>219.42</ele>
        <time>2020-02-08T10:40:18.999Z</time>
      </trkpt>
      <trkpt lat="48.75874" lon="2.24971">
        <ele>219.81</ele>
        <time>2020-02-08T10:40:27.999Z</time>
      </trkpt>
      <trkpt lat="48.7587" lon="2.24984">
        <ele>220.11</ele>
        <time>2020-02-08T10:40:37.999Z</time>
      </trkpt>
      <trkpt lat="48.75868" lon="2.24998">
        <ele>220.27</ele>
        <time>2020-02-08T10:40:41.999Z</time>
      </trkpt>
      <trkpt lat="48.75862" lon="2.2501">
        <ele>220.55</ele>
        <time>2020-02-08T10:40:48.999Z</time>
      </trkpt>
      <trkpt lat="48.75859" lon="2.25023">
        <ele>220.78</ele>
        <time>2020-02-08T10:40:57.999Z</time>
      </trkpt>
      <trkpt lat="48.75854" lon="2.25035">
        <ele>221.03</ele>
        <time>2020-02-08T10:41:04.999Z</time>
      </trkpt>
      <trkpt lat="48.75855" lon="2.2505">
        <ele>221.41</ele>
        <time>2020-02-08T10:41:19.999Z</time>
      </trkpt>
      <trkpt lat="48.75853" lon="2.25065">
        <ele>221.66</ele>
        <time>2020-02-08T10:41:27.999Z</time>
      </trkpt>
      <trkpt lat="48.75849" lon="2.25078">
        <ele>222.04</ele>
        <time>2020-02-08T10:41:41.999Z</time>
      </trkpt>
      <trkpt lat="48.75849" lon="2.25092">
        <ele>222.2</ele>
        <time>2020-02-08T10:41:47.999Z</time>
      </trkpt>
      <trkpt lat="48.75848" lon="2.25109">
        <ele>222.33</ele>
        <time>2020-02-08T10:41:51.999Z</time>
      </trkpt>
      <trkpt lat="48.75842" lon="2.25122">
        <ele>222.59</ele>
        <time>2020-02-08T10:42:00.999Z</time>
      </trkpt>
      <trkpt lat="48.75837" lon="2.25133">
        <ele>222.71</ele>
        <time>2020-02-08T10:42:04.999Z</time>
      </trkpt>
      <trkpt lat="48.75835" lon="2.25148">
        <ele>222.87</ele>
        <time>2020-02-08T10:42:10.999Z</time>
      </trkpt>
      <trkpt lat="48.75831" lon="2.25161">
        <ele>223.14</ele>
        <time>2020-02-08T10:42:21.999Z</time>
      </trkpt>
      <trkpt lat="48.75823" lon="2.25166">
        <ele>223.31</ele>
        <time>2020-02-08T10:42:29.999Z</time>
      </trkpt>
      <trkpt lat="48.75815" lon="2.25175">
        <ele>223.49</ele>
        <time>2020-02-08T10:42:38.999Z</time>
      </trkpt>
      <trkpt lat="48.75811" lon="2.25189">
        <ele>223.69</ele>
        <time>2020-02-08T10:42:48.999Z</time>
      </trkpt>
      <trkpt lat="48.7581" lon="2.25205">
        <ele>223.87</ele>
        <time>2020-02-08T10:42:56.999Z</time>
      </trkpt>
      <trkpt lat="48.75811" lon="2.25218">
        <ele>223.99</ele>
        <time>2020-02-08T10:43:01.999Z</time>
      </trkpt>
      <trkpt lat="48.75815" lon="2.25232">
        <ele>224.22</ele>
        <time>2020-02-08T10:43:10.999Z</time>
      </trkpt>
      <trkpt lat="48.75815" lon="2.25246">
        <ele>224.53</ele>
        <time>2020-02-08T10:43:26.999Z</time>
      </trkpt>
      <trkpt lat="48.75812" lon="2.25261">
        <ele>224.76</ele>
        <time>2020-02-08T10:43:36.999Z</time>
      </trkpt>
      <trkpt lat="48.75814" lon="2.25275">
        <ele>224.98</ele>
        <time>2020-02-08T10:43:45.999Z</time>
      </trkpt>
      <trkpt lat="48.75811" lon="2.25292">
        <ele>225.15</ele>
        <time>2020-02-08T10:43:55.999Z</time>
      </trkpt>
      <trkpt lat="48.75811" lon="2.25306">
        <ele>225.34</ele>
        <time>2020-02-08T10:44:04.999Z</time>
      </trkpt>
      <trkpt lat="48.75808" lon="2.25321">
        <ele>225.45</ele>
        <time>2020-02-08T10:44:09.999Z</time>
      </trkpt>
      <trkpt lat="48.75808" lon="2.25335">
        <ele>225.67</ele>
        <time>2020-02-08T10:44:23.999Z</time>
      </trkpt>
      <trkpt lat="48.75804" lon="2.25349">
        <ele>225.85</ele>
        <time>2020-02-08T10:44:32.999Z</time>
      </trkpt>
      <trkpt lat="48.75802" lon="2.25363">
        <ele>226.02</ele>
        <time>2020-02-08T10:44:42.999Z</time>
      </trkpt>
      <trkpt lat="48.758" lon="2.25378">
        <ele>226.12</ele>
        <time>2020-02-08T10:44:47.999Z</time>
      </trkpt>
      <trkpt lat="48.75797" lon="2.25393">
        <ele>226.21</ele>
        <time>2020-02-08T10:44:54.999Z</time>
      </trkpt>
      <trkpt lat="48.75795" lon="2.25408">
        <ele>226.35</ele>
        <time>2020-02-08T10:45:03.999Z</time>
      </trkpt>
      <trkpt lat="48.75791" lon="2.25422">
        <ele>226.52</ele>
        <time>2020-02-08T10:45:12.999Z</time>
      </trkpt>
      <trkpt lat="48.75786" lon="2.25434">
        <ele>226.6</ele>
        <time>2020-02-08T10:45:17.999Z</time>
      </trkpt>
      <trkpt lat="48.75784" lon="2.25451">
        <ele>226.73</ele>
        <time>2020-02-08T10:45:26.999Z</time>
      </trkpt>
      <trkpt lat="48.75783" lon="2.25466">
        <ele>226.84</ele>
        <time>2020-02-08T10:45:33.999Z</time>
      </trkpt>
      <trkpt lat="48.75783" lon="2.25482">
        <ele>226.99</ele>
        <time>2020-02-08T10:45:42.999Z</time>
      </trkpt>
      <trkpt lat="48.75777" lon="2.25495">
        <ele>227.12</ele>
        <time>2020-02-08T10:45:49.999Z</time>
      </trkpt>
      <trkpt lat="48.75773" lon="2.25508">
        <ele>227.28</ele>
        <time>2020-02-08T10:46:00.999Z</time>
      </trkpt>
      <trkpt lat="48.75771" lon="2.25524">
        <ele>227.46</ele>
        <time>2020-02-08T10:46:11.999Z</time>
      </trkpt>
      <trkpt lat="48.7577" lon="2.25542">
        <ele>227.6</ele>
        <time>2020-02-08T10:46:20.999Z</time>
      </trkpt>
      <trkpt lat="48.75767" lon="2.25555">
        <ele>227.73</ele>
        <time>2020-02-08T10:46:27.999Z</time>
      </trkpt>
      <trkpt lat="48.75766" lon="2.2557">
        <ele>227.87</ele>
        <time>2020-02-08T10:46:36.999Z</time>
      </trkpt>
      <trkpt lat="48.75765" lon="2.25585">
        <ele>227.95</ele>
        <time>2020-02-08T10:46:41.999Z</time>
      </trkpt>
      <trkpt lat="48.75763" lon="2.25599">
        <ele>228.07</ele>
        <time>2020-02-08T10:46:49.999Z</time>
      </trkpt>
      <trkpt lat="48.75758" lon="2.2561">
        <ele>228.21</ele>
        <time>2020-02-08T10:46:57.999Z</time>
      </trkpt>
      <trkpt lat="48.75758" lon="2.25625">
        <ele>228.36</ele>
        <time>2020-02-08T10:47:07.999Z</time>
      </trkpt>
      <trkpt lat="48.75755" lon="2.25638">
        <ele>228.47</ele>
        <time>2020-02-08T10:47:19.999Z</time>
      </trkpt>
      <trkpt lat="48.75751" lon="2.25653">
        <ele>228.56</ele>
        <time>2020-02-08T10:47:26.999Z</time>
      </trkpt>
      <trkpt lat="48.75751" lon="2.25669">
        <ele>228.61</ele>
        <time>2020-02-08T10:47:30.999Z</time>
      </trkpt>
      <trkpt lat="48.75753" lon="2.25685">
        <ele>228.73</ele>
        <time>2020-02-08T10:47:41.999Z</time>
      </trkpt>
      <trkpt lat="48.75761" lon="2.25698">
        <ele>228.79</ele>
        <time>2020-02-08T10:47:46.999Z</time>
      </trkpt>
      <trkpt lat="48.75763" lon="2.25712">
        <ele>228.92</ele>
        <time>2020-02-08T10:47:57.999Z</time>
      </trkpt>
      <trkpt lat="48.75767" lon="2.25725">
        <ele>229.03</ele>
        <time>2020-02-08T10:48:05.999Z</time>
      </trkpt>
      <trkpt lat="48.75771" lon="2.25738">
        <ele>229.11</ele>
        <time>2020-02-08T10:48:12.999Z</time>
      </trkpt>
      <trkpt lat="48.75772" lon="2.25752">
        <ele>229.23</ele>
        <time>2020-02-08T10:48:21.999Z</time>
      </trkpt>
      <trkpt lat="48.75777" lon="2.25765">
        <ele>229.31</ele>
        <time>2020-02-08T10:48:30.999Z</time>
      </trkpt>
      <trkpt lat="48.75782" lon="2.25778">
        <ele>229.39</ele>
        <time>2020-02-08T10:48:38.999Z</time>
      </trkpt>
      <trkpt lat="48.75782" lon="2.25792">
        <ele>229.49</ele>
        <time>2020-02-08T10:48:49.999Z</time>
      </trkpt>
      <trkpt lat="48.75788" lon="2.25806">
        <ele>229.54</ele>
        <time>2020-02-08T10:48:57.999Z</time>
      </trkpt>
      <trkpt lat="48.7579" lon="2.25822">
        <ele>229.57</ele>
        <time>2020-02-08T10:49:02.999Z</time>
      </trkpt>
      <trkpt lat="48.75794" lon="2.25836">
        <ele>229.62</ele>
        <time>2020-02-08T10:49:09.999Z</time>
      </trkpt>
      <trkpt lat="48.75801" lon="2.2585">
        <ele>229.7</ele>
        <time>2020-02-08T10:49:20.999Z</time>
      </trkpt>
      <trkpt lat="48.75807" lon="2.25864">
        <ele>229.76</ele>
        <time>2020-02-08T10:49:28.999Z</time>
      </trkpt>
      <trkpt lat="48.75811" lon="2.25876">
        <ele>229.83</ele>
        <time>2020-02-08T10:49:36.999Z</time>
      </trkpt>
      <trkpt lat="48.75813" lon="2.2589">
        <ele>229.9</ele>
        <time>2020-02-08T10:49:44.999Z</time>
      </trkpt>
      <trkpt lat="48.75819" lon="2.25902">
        <ele>230</ele>
        <time>2020-02-08T10:49:56.999Z</time>
      </trkpt>
      <trkpt lat="48.75823" lon="2.25914">
        <ele>230.09</ele>
        <time>2020-02-08T10:50:07.999Z</time>
      </trkpt>
      <trkpt lat="48.75825" lon="2.25928">
        <ele>230.14</ele>
        <time>2020-02-08T10:50:16.999Z</time>
      </trkpt>
      <trkpt lat="48.75828" lon="2.25941">
        <ele>230.18</ele>
        <time>2020-02-08T10:50:26.999Z</time>
      </trkpt>
      <trkpt lat="48.75831" lon="2.25955">
        <ele>230.2</ele>
        <time>2020-02-08T10:50:32.999Z</time>
      </trkpt>
      <trkpt lat="48.75836" lon="2.25968">
        <ele>230.23</ele>
        <time>2020-02-08T10:50:39.999Z</time>
      </trkpt>
      <trkpt lat="48.75839" lon="2.25982">
        <ele>230.26</ele>
        <time>2020-02-08T10:50:45.999Z</time>
      </trkpt>
      <trkpt lat="48.7584" lon="2.25996">
        <ele>230.31</ele>
        <time>2020-02-08T10:50:54.999Z</time>
      </trkpt>
      <trkpt lat="48.75846" lon="2.26006">
        <ele>230.34</ele>
        <time>2020-02-08T10:51:04.999Z</time>
      </trkpt>
      <trkpt lat="48.75852" lon="2.26019">
        <ele>230.35</ele>
        <time>2020-02-08T10:51:14.999Z</time>
      </trkpt>
      <trkpt lat="48.75859" lon="2.26027">
        <ele>230.33</ele>
        <time>2020-02-08T10:51:22.999Z</time>
      </trkpt>
      <trkpt lat="48.75868" lon="2.26032">
        <ele>230.32</ele>
        <time>2020-02-08T10:51:29.999Z</time>
      </trkpt>
      <trkpt lat="48.75875" lon="2.2604">
        <ele>230.29</ele>
        <time>2020-02-08T10:51:38.999Z</time>
      </trkpt>
      <trkpt lat="48.75885" lon="2.26044">
        <ele>230.28</ele>
        <time>2020-02-08T10:51:56.999Z</time>
      </trkpt>
      <trkpt lat="48.75891" lon="2.26055">
        <ele>230.3</ele>
        <time>2020-02-08T10:52:51.000Z</time>
      </trkpt>
      <trkpt lat="48.75899" lon="2.26063">
        <ele>230.26</ele>
        <time>2020-02-08T10:52:59.000Z</time>
      </trkpt>
      <trkpt lat="48.75907" lon="2.26072">
        <ele>230.23</ele>
        <time>2020-02-08T10:53:06.000Z</time>
      </trkpt>
      <trkpt lat="48.75912" lon="2.26083">
        <ele>230.19</ele>
        <time>2020-02-08T10:53:16.000Z</time>
      </trkpt>
      <trkpt lat="48.75918" lon="2.26094">
        <ele>230.16</ele>
        <time>2020-02-08T10:53:25.000Z</time>
      </trkpt>
      <trkpt lat="48.75918" lon="2.2611">
        <ele>230.13</ele>
        <time>2020-02-08T10:53:34.000Z</time>
      </trkpt>
      <trkpt lat="48.75916" lon="2.26123">
        <ele>230.11</ele>
        <time>2020-02-08T10:53:43.000Z</time>
      </trkpt>
      <trkpt lat="48.75913" lon="2.26138">
        <ele>230.14</ele>
        <time>2020-02-08T10:53:52.000Z</time>
      </trkpt>
      <trkpt lat="48.75908" lon="2.26153">
        <ele>230.2</ele>
        <time>2020-02-08T10:54:01.000Z</time>
      </trkpt>
      <trkpt lat="48.75905" lon="2.26167">
        <ele>230.24</ele>
        <time>2020-02-08T10:54:06.000Z</time>
      </trkpt>
      <trkpt lat="48.75902" lon="2.2618">
        <ele>230.32</ele>
        <time>2020-02-08T10:54:15.000Z</time>
      </trkpt>
      <trkpt lat="48.75902" lon="2.26194">
        <ele>230.4</ele>
        <time>2020-02-08T10:54:23.000Z</time>
      </trkpt>
      <trkpt lat="48.759" lon="2.2621">
        <ele>230.52</ele>
        <time>2020-02-08T10:54:35.000Z</time>
      </trkpt>
      <trkpt lat="48.75901" lon="2.26224">
        <ele>230.6</ele>
        <time>2020-02-08T10:54:45.000Z</time>
      </trkpt>
      <trkpt lat="48.75903" lon="2.26238">
        <ele>230.66</ele>
        <time>2020-02-08T10:54:53.000Z</time>
      </trkpt>
      <trkpt lat="48.75901" lon="2.26252">
        <ele>230.7</ele>
        <time>2020-02-08T10:55:02.000Z</time>
      </trkpt>
      <trkpt lat="48.75901" lon="2.26266">
        <ele>230.7</ele>
        <time>2020-02-08T10:55:07.000Z</time>
      </trkpt>
      <trkpt lat="48.75899" lon="2.26281">
        <ele>230.71</ele>
        <time>2020-02-08T10:55:13.000Z</time>
      </trkpt>
      <trkpt lat="48.75892" lon="2.26292">
        <ele>230.73</ele>
        <time>2020-02-08T10:55:23.000Z</time>
      </trkpt>
      <trkpt lat="48.75882" lon="2.26295">
        <ele>230.74</ele>
        <time>2020-02-08T10:55:29.000Z</time>
      </trkpt>
      <trkpt lat="48.75874" lon="2.26304">
        <ele>230.75</ele>
        <time>2020-02-08T10:55:36.000Z</time>
      </trkpt>
      <trkpt lat="48.75865" lon="2.2631">
        <ele>230.75</ele>
        <time>2020-02-08T10:55:45.000Z</time>
      </trkpt>
      <trkpt lat="48.75855" lon="2.26312">
        <ele>230.75</ele>
        <time>2020-02-08T10:55:52.000Z</time>
      </trkpt>
      <trkpt lat="48.75845" lon="2.2631">
        <ele>230.74</ele>
        <time>2020-02-08T10:55:59.000Z</time>
      </trkpt>
      <trkpt lat="48.75836" lon="2.26305">
        <ele>230.73</ele>
        <time>2020-02-08T10:56:06.000Z</time>
      </trkpt>
      <trkpt lat="48.75827" lon="2.26303">
        <ele>230.71</ele>
        <time>2020-02-08T10:56:13.000Z</time>
      </trkpt>
      <trkpt lat="48.75819" lon="2.26296">
        <ele>230.69</ele>
        <time>2020-02-08T10:56:21.000Z</time>
      </trkpt>
      <trkpt lat="48.75814" lon="2.2628">
        <ele>230.67</ele>
        <time>2020-02-08T10:56:28.000Z</time>
      </trkpt>
      <trkpt lat="48.7581" lon="2.26267">
        <ele>230.63</ele>
        <time>2020-02-08T10:56:38.000Z</time>
      </trkpt>
      <trkpt lat="48.75806" lon="2.26254">
        <ele>230.57</ele>
        <time>2020-02-08T10:56:48.000Z</time>
      </trkpt>
      <trkpt lat="48.75798" lon="2.26243">
        <ele>230.51</ele>
        <time>2020-02-08T10:56:56.000Z</time>
      </trkpt>
      <trkpt lat="48.7579" lon="2.26229">
        <ele>230.44</ele>
        <time>2020-02-08T10:57:07.000Z</time>
      </trkpt>
      <trkpt lat="48.75786" lon="2.26217">
        <ele>230.37</ele>
        <time>2020-02-08T10:57:17.000Z</time>
      </trkpt>
      <trkpt lat="48.7578" lon="2.26206">
        <ele>230.28</ele>
        <time>2020-02-08T10:57:32.000Z</time>
      </trkpt>
      <trkpt lat="48.75779" lon="2.2619">
        <ele>230.24</ele>
        <time>2020-02-08T10:57:39.000Z</time>
      </trkpt>
      <trkpt lat="48.75773" lon="2.26176">
        <ele>230.19</ele>
        <time>2020-02-08T10:57:45.000Z</time>
      </trkpt>
      <trkpt lat="48.75769" lon="2.26163">
        <ele>230.14</ele>
        <time>2020-02-08T10:57:51.000Z</time>
      </trkpt>
      <trkpt lat="48.7576" lon="2.26156">
        <ele>230</ele>
        <time>2020-02-08T10:58:09.000Z</time>
      </trkpt>
      <trkpt lat="48.75751" lon="2.26152">
        <ele>229.93</ele>
        <time>2020-02-08T10:58:18.000Z</time>
      </trkpt>
      <trkpt lat="48.75741" lon="2.26155">
        <ele>229.89</ele>
        <time>2020-02-08T10:58:25.000Z</time>
      </trkpt>
      <trkpt lat="48.75732" lon="2.26159">
        <ele>229.85</ele>
        <time>2020-02-08T10:58:32.000Z</time>
      </trkpt>
      <trkpt lat="48.75724" lon="2.26166">
        <ele>229.78</ele>
        <time>2020-02-08T10:58:43.000Z</time>
      </trkpt>
      <trkpt lat="48.75716" lon="2.26175">
        <ele>229.7</ele>
        <time>2020-02-08T10:58:54.000Z</time>
      </trkpt>
      <trkpt lat="48.75712" lon="2.26188">
        <ele>229.65</ele>
        <time>2020-02-08T10:59:00.000Z</time>
      </trkpt>
      <trkpt lat="48.75708" lon="2.26202">
        <ele>229.57</ele>
        <time>2020-02-08T10:59:07.000Z</time>
      </trkpt>
      <trkpt lat="48.75705" lon="2.26216">
        <ele>229.49</ele>
        <time>2020-02-08T10:59:14.000Z</time>
      </trkpt>
      <trkpt lat="48.75704" lon="2.2623">
        <ele>229.34</ele>
        <time>2020-02-08T10:59:23.000Z</time>
      </trkpt>
      <trkpt lat="48.75705" lon="2.26244">
        <ele>229.21</ele>
        <time>2020-02-08T10:59:29.000Z</time>
      </trkpt>
      <trkpt lat="48.75709" lon="2.26258">
        <ele>229.04</ele>
        <time>2020-02-08T10:59:36.000Z</time>
      </trkpt>
      <trkpt lat="48.75711" lon="2.26271">
        <ele>228.86</ele>
        <time>2020-02-08T10:59:44.000Z</time>
      </trkpt>
      <trkpt lat="48.75715" lon="2.26285">
        <ele>228.55</ele>
        <time>2020-02-08T10:59:55.000Z</time>
      </trkpt>
      <trkpt lat="48.7572" lon="2.26298">
        <ele>228.26</ele>
        <time>2020-02-08T11:00:06.000Z</time>
      </trkpt>
      <trkpt lat="48.75724" lon="2.26311">
        <ele>228.06</ele>
        <time>2020-02-08T11:00:12.000Z</time>
      </trkpt>
      <trkpt lat="48.75729" lon="2.26324">
        <ele>227.84</ele>
        <time>2020-02-08T11:00:19.000Z</time>
      </trkpt>
      <trkpt lat="48.75736" lon="2.26333">
        <ele>227.6</ele>
        <time>2020-02-08T11:00:28.000Z</time>
      </trkpt>
      <trkpt lat="48.75742" lon="2.26344">
        <ele>227.37</ele>
        <time>2020-02-08T11:00:36.000Z</time>
      </trkpt>
      <trkpt lat="48.75748" lon="2.26354">
        <ele>227.14</ele>
        <time>2020-02-08T11:00:45.000Z</time>
      </trkpt>
      <trkpt lat="48.75755" lon="2.26364">
        <ele>226.87</ele>
        <time>2020-02-08T11:00:55.000Z</time>
      </trkpt>
      <trkpt lat="48.7576" lon="2.26376">
        <ele>226.55</ele>
        <time>2020-02-08T11:01:04.000Z</time>
      </trkpt>
      <trkpt lat="48.75761" lon="2.26391">
        <ele>226.34</ele>
        <time>2020-02-08T11:01:10.000Z</time>
      </trkpt>
      <trkpt lat="48.75769" lon="2.26399">
        <ele>226.1</ele>
        <time>2020-02-08T11:01:18.000Z</time>
      </trkpt>
      <trkpt lat="48.75774" lon="2.26412">
        <ele>225.79</ele>
        <time>2020-02-08T11:01:27.000Z</time>
      </trkpt>
      <trkpt lat="48.75782" lon="2.2642">
        <ele>225.68</ele>
        <time>2020-02-08T11:01:33.000Z</time>
      </trkpt>
      <trkpt lat="48.7579" lon="2.26429">
        <ele>225.43</ele>
        <time>2020-02-08T11:01:41.000Z</time>
      </trkpt>
      <trkpt lat="48.75795" lon="2.26444">
        <ele>225.2</ele>
        <time>2020-02-08T11:01:47.000Z</time>
      </trkpt>
      <trkpt lat="48.75794" lon="2.2646">
        <ele>225.02</ele>
        <time>2020-02-08T11:01:53.000Z</time>
      </trkpt>
      <trkpt lat="48.75794" lon="2.26474">
        <ele>224.5</ele>
        <time>2020-02-08T11:02:09.000Z</time>
      </trkpt>
      <trkpt lat="48.75803" lon="2.26473">
        <ele>224.12</ele>
        <time>2020-02-08T11:02:23.000Z</time>
      </trkpt>
      <trkpt lat="48.7581" lon="2.26482">
        <ele>223.52</ele>
        <time>2020-02-08T11:02:42.000Z</time>
      </trkpt>
      <trkpt lat="48.75815" lon="2.26496">
        <ele>223.1</ele>
        <time>2020-02-08T11:02:55.000Z</time>
      </trkpt>
      <trkpt lat="48.75818" lon="2.26509">
        <ele>222.78</ele>
        <time>2020-02-08T11:03:05.000Z</time>
      </trkpt>
      <trkpt lat="48.75826" lon="2.26519">
        <ele>222.32</ele>
        <time>2020-02-08T11:03:17.000Z</time>
      </trkpt>
      <trkpt lat="48.75835" lon="2.26524">
        <ele>221.6</ele>
        <time>2020-02-08T11:03:51.000Z</time>
      </trkpt>
      <trkpt lat="48.75829" lon="2.26512">
        <ele>219.44</ele>
        <time>2020-02-08T11:05:25.000Z</time>
      </trkpt>
      <trkpt lat="48.75834" lon="2.265">
        <ele>217.27</ele>
        <time>2020-02-08T11:07:04.999Z</time>
      </trkpt>
      <trkpt lat="48.75825" lon="2.26496">
        <ele>215.19</ele>
        <time>2020-02-08T11:10:23.999Z</time>
      </trkpt>
      <trkpt lat="48.75834" lon="2.26503">
        <ele>213.62</ele>
        <time>2020-02-08T11:12:34.999Z</time>
      </trkpt>
      <trkpt lat="48.75837" lon="2.2649">
        <ele>209.65</ele>
        <time>2020-02-08T11:16:43.999Z</time>
      </trkpt>
      <trkpt lat="48.75837" lon="2.26504">
        <ele>209.05</ele>
        <time>2020-02-08T11:16:59.999Z</time>
      </trkpt>
      <trkpt lat="48.75829" lon="2.26498">
        <ele>204.75</ele>
        <time>2020-02-08T11:23:19.000Z</time>
      </trkpt>
      <trkpt lat="48.75838" lon="2.26501">
        <ele>200.99</ele>
        <time>2020-02-08T11:25:01.000Z</time>
      </trkpt>
      <trkpt lat="48.75829" lon="2.26502">
        <ele>194.38</ele>
        <time>2020-02-08T11:33:01.999Z</time>
      </trkpt>
      <trkpt lat="48.75828" lon="2.26517">
        <ele>191.59</ele>
        <time>2020-02-08T11:39:20.999Z</time>
      </trkpt>
      <trkpt lat="48.75832" lon="2.26529">
        <ele>191.38</ele>
        <time>2020-02-08T11:39:31.999Z</time>
      </trkpt>
      <trkpt lat="48.75837" lon="2.26541">
        <ele>191.25</ele>
        <time>2020-02-08T11:39:38.999Z</time>
      </trkpt>
      <trkpt lat="48.75843" lon="2.26553">
        <ele>191.03</ele>
        <time>2020-02-08T11:39:54.999Z</time>
      </trkpt>
      <trkpt lat="48.75847" lon="2.26566">
        <ele>190.73</ele>
        <time>2020-02-08T11:40:20.999Z</time>
      </trkpt>
      <trkpt lat="48.75843" lon="2.26579">
        <ele>190.37</ele>
        <time>2020-02-08T11:41:11.999Z</time>
      </trkpt>
      <trkpt lat="48.75836" lon="2.26589">
        <ele>190.13</ele>
        <time>2020-02-08T11:41:31.999Z</time>
      </trkpt>
      <trkpt lat="48.75828" lon="2.26596">
        <ele>190.04</ele>
        <time>2020-02-08T11:41:38.999Z</time>
      </trkpt>
      <trkpt lat="48.75823" lon="2.26609">
        <ele>189.81</ele>
        <time>2020-02-08T11:41:58.999Z</time>
      </trkpt>
      <trkpt lat="48.75819" lon="2.26621">
        <ele>189.69</ele>
        <time>2020-02-08T11:42:06.999Z</time>
      </trkpt>
      <trkpt lat="48.75818" lon="2.26635">
        <ele>189.47</ele>
        <time>2020-02-08T11:42:21.999Z</time>
      </trkpt>
      <trkpt lat="48.75818" lon="2.26649">
        <ele>189.27</ele>
        <time>2020-02-08T11:42:38.999Z</time>
      </trkpt>
      <trkpt lat="48.7582" lon="2.26664">
        <ele>189.05</ele>
        <time>2020-02-08T11:43:05.999Z</time>
      </trkpt>
      <trkpt lat="48.75829" lon="2.26658">
        <ele>188.64</ele>
        <time>2020-02-08T11:43:46.999Z</time>
      </trkpt>
      <trkpt lat="48.75832" lon="2.26673">
        <ele>188.24</ele>
        <time>2020-02-08T11:44:24.999Z</time>
      </trkpt>
      <trkpt lat="48.75832" lon="2.26687">
        <ele>188.16</ele>
        <time>2020-02-08T11:44:29.999Z</time>
      </trkpt>
      <trkpt lat="48.7583" lon="2.26701">
        <ele>188.08</ele>
        <time>2020-02-08T11:44:34.999Z</time>
      </trkpt>
      <trkpt lat="48.75826" lon="2.26715">
        <ele>187.97</ele>
        <time>2020-02-08T11:44:41.999Z</time>
      </trkpt>
      <trkpt lat="48.75823" lon="2.26732">
        <ele>187.87</ele>
        <time>2020-02-08T11:44:48.999Z</time>
      </trkpt>
      <trkpt lat="48.7582" lon="2.26744">
        <ele>187.76</ele>
        <time>2020-02-08T11:44:55.999Z</time>
      </trkpt>
      <trkpt lat="48.75818" lon="2.26759">
        <ele>187.67</ele>
        <time>2020-02-08T11:45:01.999Z</time>
      </trkpt>
      <trkpt lat="48.75815" lon="2.26772">
        <ele>187.58</ele>
        <time>2020-02-08T11:45:07.999Z</time>
      </trkpt>
      <trkpt lat="48.75813" lon="2.26787">
        <ele>187.4</ele>
        <time>2020-02-08T11:45:21.999Z</time>
      </trkpt>
      <trkpt lat="48.75816" lon="2.26802">
        <ele>187.22</ele>
        <time>2020-02-08T11:45:31.999Z</time>
      </trkpt>
      <trkpt lat="48.75813" lon="2.26815">
        <ele>187.11</ele>
        <time>2020-02-08T11:45:37.999Z</time>
      </trkpt>
      <trkpt lat="48.75809" lon="2.26828">
        <ele>186.98</ele>
        <time>2020-02-08T11:45:44.999Z</time>
      </trkpt>
      <trkpt lat="48.75806" lon="2.26841">
        <ele>186.82</ele>
        <time>2020-02-08T11:45:52.999Z</time>
      </trkpt>
      <trkpt lat="48.75801" lon="2.26853">
        <ele>186.64</ele>
        <time>2020-02-08T11:46:01.999Z</time>
      </trkpt>
      <trkpt lat="48.75797" lon="2.26867">
        <ele>186.49</ele>
        <time>2020-02-08T11:46:08.999Z</time>
      </trkpt>
      <trkpt lat="48.75792" lon="2.26881">
        <ele>186.31</ele>
        <time>2020-02-08T11:46:16.999Z</time>
      </trkpt>
      <trkpt lat="48.75787" lon="2.26893">
        <ele>186.1</ele>
        <time>2020-02-08T11:46:26.000Z</time>
      </trkpt>
      <trkpt lat="48.75784" lon="2.26908">
        <ele>185.83</ele>
        <time>2020-02-08T11:46:36.000Z</time>
      </trkpt>
      <trkpt lat="48.75781" lon="2.26923">
        <ele>185.58</ele>
        <time>2020-02-08T11:46:45.000Z</time>
      </trkpt>
      <trkpt lat="48.75776" lon="2.26936">
        <ele>185.33</ele>
        <time>2020-02-08T11:46:54.000Z</time>
      </trkpt>
      <trkpt lat="48.75767" lon="2.26941">
        <ele>185.06</ele>
        <time>2020-02-08T11:47:04.000Z</time>
      </trkpt>
      <trkpt lat="48.75757" lon="2.2694">
        <ele>184.91</ele>
        <time>2020-02-08T11:47:09.000Z</time>
      </trkpt>
      <trkpt lat="48.75747" lon="2.26941">
        <ele>184.69</ele>
        <time>2020-02-08T11:47:16.000Z</time>
      </trkpt>
      <trkpt lat="48.75738" lon="2.26949">
        <ele>184.4</ele>
        <time>2020-02-08T11:47:25.000Z</time>
      </trkpt>
      <trkpt lat="48.75734" lon="2.26962">
        <ele>184.04</ele>
        <time>2020-02-08T11:47:38.000Z</time>
      </trkpt>
      <trkpt lat="48.75725" lon="2.26968">
        <ele>183.53</ele>
        <time>2020-02-08T11:48:00.000Z</time>
      </trkpt>
      <trkpt lat="48.75719" lon="2.26979">
        <ele>183.29</ele>
        <time>2020-02-08T11:48:09.000Z</time>
      </trkpt>
      <trkpt lat="48.75715" lon="2.26993">
        <ele>183.11</ele>
        <time>2020-02-08T11:48:16.000Z</time>
      </trkpt>
      <trkpt lat="48.75711" lon="2.27007">
        <ele>182.94</ele>
        <time>2020-02-08T11:48:23.000Z</time>
      </trkpt>
      <trkpt lat="48.75707" lon="2.27021">
        <ele>182.74</ele>
        <time>2020-02-08T11:48:31.000Z</time>
      </trkpt>
      <trkpt lat="48.75704" lon="2.27036">
        <ele>182.58</ele>
        <time>2020-02-08T11:48:38.000Z</time>
      </trkpt>
      <trkpt lat="48.75699" lon="2.27049">
        <ele>182.37</ele>
        <time>2020-02-08T11:48:47.000Z</time>
      </trkpt>
      <trkpt lat="48.75695" lon="2.27061">
        <ele>182.21</ele>
        <time>2020-02-08T11:48:54.000Z</time>
      </trkpt>
      <trkpt lat="48.7569" lon="2.27074">
        <ele>182.06</ele>
        <time>2020-02-08T11:49:01.000Z</time>
      </trkpt>
      <trkpt lat="48.75683" lon="2.27085">
        <ele>181.91</ele>
        <time>2020-02-08T11:49:08.000Z</time>
      </trkpt>
      <trkpt lat="48.75676" lon="2.27093">
        <ele>181.73</ele>
        <time>2020-02-08T11:49:16.000Z</time>
      </trkpt>
      <trkpt lat="48.75669" lon="2.27102">
        <ele>181.59</ele>
        <time>2020-02-08T11:49:23.000Z</time>
      </trkpt>
      <trkpt lat="48.75662" lon="2.27111">
        <ele>181.42</ele>
        <time>2020-02-08T11:49:31.000Z</time>
      </trkpt>
      <trkpt lat="48.75656" lon="2.27124">
        <ele>181.21</ele>
        <time>2020-02-08T11:49:41.000Z</time>
      </trkpt>
      <trkpt lat="48.75652" lon="2.27136">
        <ele>181.07</ele>
        <time>2020-02-08T11:49:47.000Z</time>
      </trkpt>
      <trkpt lat="48.75644" lon="2.27143">
        <ele>180.89</ele>
        <time>2020-02-08T11:49:55.000Z</time>
      </trkpt>
      <trkpt lat="48.75636" lon="2.27151">
        <ele>180.65</ele>
        <time>2020-02-08T11:50:06.000Z</time>
      </trkpt>
      <trkpt lat="48.75634" lon="2.27164">
        <ele>180.28</ele>
        <time>2020-02-08T11:50:20.000Z</time>
      </trkpt>
      <trkpt lat="48.7563" lon="2.27177">
        <ele>180.07</ele>
        <time>2020-02-08T11:50:27.000Z</time>
      </trkpt>
      <trkpt lat="48.75623" lon="2.27188">
        <ele>179.87</ele>
        <time>2020-02-08T11:50:34.000Z</time>
      </trkpt>
      <trkpt lat="48.75614" lon="2.27197">
        <ele>179.62</ele>
        <time>2020-02-08T11:50:42.000Z</time>
      </trkpt>
      <trkpt lat="48.75607" lon="2.27207">
        <ele>179.44</ele>
        <time>2020-02-08T11:50:48.000Z</time>
      </trkpt>
      <trkpt lat="48.756" lon="2.27217">
        <ele>179.2</ele>
        <time>2020-02-08T11:50:56.000Z</time>
      </trkpt>
      <trkpt lat="48.75594" lon="2.27229">
        <ele>179.02</ele>
        <time>2020-02-08T11:51:02.000Z</time>
      </trkpt>
      <trkpt lat="48.7559" lon="2.27244">
        <ele>178.85</ele>
        <time>2020-02-08T11:51:08.000Z</time>
      </trkpt>
      <trkpt lat="48.75585" lon="2.27256">
        <ele>178.66</ele>
        <time>2020-02-08T11:51:15.000Z</time>
      </trkpt>
      <trkpt lat="48.75581" lon="2.27269">
        <ele>178.48</ele>
        <time>2020-02-08T11:51:22.000Z</time>
      </trkpt>
      <trkpt lat="48.75574" lon="2.27278">
        <ele>178.23</ele>
        <time>2020-02-08T11:51:32.000Z</time>
      </trkpt>
      <trkpt lat="48.75566" lon="2.27287">
        <ele>177.9</ele>
        <time>2020-02-08T11:51:45.000Z</time>
      </trkpt>
      <trkpt lat="48.75559" lon="2.27298">
        <ele>177.7</ele>
        <time>2020-02-08T11:51:52.000Z</time>
      </trkpt>
      <trkpt lat="48.75552" lon="2.27308">
        <ele>177.48</ele>
        <time>2020-02-08T11:52:00.000Z</time>
      </trkpt>
      <trkpt lat="48.75545" lon="2.27315">
        <ele>177.26</ele>
        <time>2020-02-08T11:52:08.000Z</time>
      </trkpt>
      <trkpt lat="48.75538" lon="2.27326">
        <ele>176.95</ele>
        <time>2020-02-08T11:52:19.000Z</time>
      </trkpt>
      <trkpt lat="48.75535" lon="2.27339">
        <ele>176.74</ele>
        <time>2020-02-08T11:52:26.000Z</time>
      </trkpt>
      <trkpt lat="48.75529" lon="2.27349">
        <ele>176.47</ele>
        <time>2020-02-08T11:52:34.000Z</time>
      </trkpt>
      <trkpt lat="48.75522" lon="2.2736">
        <ele>176.24</ele>
        <time>2020-02-08T11:52:41.000Z</time>
      </trkpt>
      <trkpt lat="48.75513" lon="2.27366">
        <ele>175.96</ele>
        <time>2020-02-08T11:52:49.000Z</time>
      </trkpt>
      <trkpt lat="48.75505" lon="2.27375">
        <ele>175.7</ele>
        <time>2020-02-08T11:52:56.000Z</time>
      </trkpt>
      <trkpt lat="48.75498" lon="2.27384">
        <ele>175.4</ele>
        <time>2020-02-08T11:53:04.000Z</time>
      </trkpt>
      <trkpt lat="48.75493" lon="2.27396">
        <ele>175.13</ele>
        <time>2020-02-08T11:53:11.000Z</time>
      </trkpt>
      <trkpt lat="48.75485" lon="2.27407">
        <ele>174.91</ele>
        <time>2020-02-08T11:53:17.000Z</time>
      </trkpt>
      <trkpt lat="48.75478" lon="2.27418">
        <ele>174.62</ele>
        <time>2020-02-08T11:53:25.000Z</time>
      </trkpt>
      <trkpt lat="48.75473" lon="2.27431">
        <ele>174.3</ele>
        <time>2020-02-08T11:53:34.000Z</time>
      </trkpt>
      <trkpt lat="48.75475" lon="2.27445">
        <ele>173.82</ele>
        <time>2020-02-08T11:53:48.000Z</time>
      </trkpt>
      <trkpt lat="48.75475" lon="2.27458">
        <ele>173.13</ele>
        <time>2020-02-08T11:54:24.000Z</time>
      </trkpt>
      <trkpt lat="48.75471" lon="2.27473">
        <ele>172.81</ele>
        <time>2020-02-08T11:54:38.000Z</time>
      </trkpt>
      <trkpt lat="48.75468" lon="2.27487">
        <ele>172.44</ele>
        <time>2020-02-08T11:54:51.000Z</time>
      </trkpt>
      <trkpt lat="48.75467" lon="2.27501">
        <ele>172.15</ele>
        <time>2020-02-08T11:55:01.000Z</time>
      </trkpt>
      <trkpt lat="48.75474" lon="2.27511">
        <ele>171.77</ele>
        <time>2020-02-08T11:55:14.000Z</time>
      </trkpt>
      <trkpt lat="48.75478" lon="2.27523">
        <ele>171.46</ele>
        <time>2020-02-08T11:55:27.000Z</time>
      </trkpt>
      <trkpt lat="48.75479" lon="2.2754">
        <ele>171.04</ele>
        <time>2020-02-08T11:55:50.000Z</time>
      </trkpt>
      <trkpt lat="48.7547" lon="2.27548">
        <ele>170.79</ele>
        <time>2020-02-08T11:56:03.000Z</time>
      </trkpt>
      <trkpt lat="48.75464" lon="2.27567">
        <ele>170.68</ele>
        <time>2020-02-08T11:56:10.000Z</time>
      </trkpt>
      <trkpt lat="48.75458" lon="2.27579">
        <ele>170.64</ele>
        <time>2020-02-08T11:56:12.000Z</time>
      </trkpt>
      <trkpt lat="48.7545" lon="2.27592">
        <ele>170.57</ele>
        <time>2020-02-08T11:56:15.000Z</time>
      </trkpt>
      <trkpt lat="48.75445" lon="2.27604">
        <ele>170.53</ele>
        <time>2020-02-08T11:56:17.000Z</time>
      </trkpt>
      <trkpt lat="48.7544" lon="2.27619">
        <ele>170.43</ele>
        <time>2020-02-08T11:56:21.000Z</time>
      </trkpt>
      <trkpt lat="48.75434" lon="2.27633">
        <ele>170.34</ele>
        <time>2020-02-08T11:56:25.000Z</time>
      </trkpt>
      <trkpt lat="48.75432" lon="2.27646">
        <ele>170.18</ele>
        <time>2020-02-08T11:56:33.000Z</time>
      </trkpt>
      <trkpt lat="48.7543" lon="2.27659">
        <ele>170.05</ele>
        <time>2020-02-08T11:56:38.000Z</time>
      </trkpt>
      <trkpt lat="48.7543" lon="2.27673">
        <ele>169.83</ele>
        <time>2020-02-08T11:56:49.000Z</time>
      </trkpt>
      <trkpt lat="48.75435" lon="2.27685">
        <ele>169.6</ele>
        <time>2020-02-08T11:57:00.000Z</time>
      </trkpt>
      <trkpt lat="48.75444" lon="2.27689">
        <ele>169.45</ele>
        <time>2020-02-08T11:57:08.000Z</time>
      </trkpt>
      <trkpt lat="48.75447" lon="2.27703">
        <ele>169.32</ele>
        <time>2020-02-08T11:57:15.000Z</time>
      </trkpt>
      <trkpt lat="48.75446" lon="2.2772">
        <ele>169.15</ele>
        <time>2020-02-08T11:57:27.000Z</time>
      </trkpt>
      <trkpt lat="48.7544" lon="2.2773">
        <ele>169.01</ele>
        <time>2020-02-08T11:57:35.000Z</time>
      </trkpt>
      <trkpt lat="48.75434" lon="2.27741">
        <ele>168.78</ele>
        <time>2020-02-08T11:57:45.000Z</time>
      </trkpt>
      <trkpt lat="48.75428" lon="2.27756">
        <ele>168.54</ele>
        <time>2020-02-08T11:57:56.000Z</time>
      </trkpt>
      <trkpt lat="48.75422" lon="2.27767">
        <ele>168.47</ele>
        <time>2020-02-08T11:57:59.000Z</time>
      </trkpt>
      <trkpt lat="48.75421" lon="2.27781">
        <ele>168.3</ele>
        <time>2020-02-08T11:58:07.000Z</time>
      </trkpt>
      <trkpt lat="48.75415" lon="2.27792">
        <ele>167.8</ele>
        <time>2020-02-08T11:58:32.000Z</time>
      </trkpt>
      <trkpt lat="48.75409" lon="2.27803">
        <ele>167.66</ele>
        <time>2020-02-08T11:58:38.000Z</time>
      </trkpt>
      <trkpt lat="48.7541" lon="2.27817">
        <ele>167.34</ele>
        <time>2020-02-08T11:58:51.000Z</time>
      </trkpt>
      <trkpt lat="48.75407" lon="2.27832">
        <ele>167.13</ele>
        <time>2020-02-08T11:58:59.000Z</time>
      </trkpt>
      <trkpt lat="48.75405" lon="2.27847">
        <ele>167</ele>
        <time>2020-02-08T11:59:04.000Z</time>
      </trkpt>
      <trkpt lat="48.75401" lon="2.2786">
        <ele>166.77</ele>
        <time>2020-02-08T11:59:13.000Z</time>
      </trkpt>
      <trkpt lat="48.75398" lon="2.27875">
        <ele>166.58</ele>
        <time>2020-02-08T11:59:21.000Z</time>
      </trkpt>
      <trkpt lat="48.75393" lon="2.27888">
        <ele>166.37</ele>
        <time>2020-02-08T11:59:29.000Z</time>
      </trkpt>
      <trkpt lat="48.7539" lon="2.27902">
        <ele>166.03</ele>
        <time>2020-02-08T11:59:41.000Z</time>
      </trkpt>
      <trkpt lat="48.75385" lon="2.27914">
        <ele>165.86</ele>
        <time>2020-02-08T11:59:47.000Z</time>
      </trkpt>
      <trkpt lat="48.75379" lon="2.27925">
        <ele>165.72</ele>
        <time>2020-02-08T11:59:52.000Z</time>
      </trkpt>
      <trkpt lat="48.75373" lon="2.27937">
        <ele>165.41</ele>
        <time>2020-02-08T12:00:02.000Z</time>
      </trkpt>
      <trkpt lat="48.75367" lon="2.27946">
        <ele>165.16</ele>
        <time>2020-02-08T12:00:11.000Z</time>
      </trkpt>
      <trkpt lat="48.75361" lon="2.27957">
        <ele>164.96</ele>
        <time>2020-02-08T12:00:16.999Z</time>
      </trkpt>
      <trkpt lat="48.75356" lon="2.2797">
        <ele>164.67</ele>
        <time>2020-02-08T12:00:24.999Z</time>
      </trkpt>
      <trkpt lat="48.7535" lon="2.27981">
        <ele>164.3</ele>
        <time>2020-02-08T12:00:34.999Z</time>
      </trkpt>
      <trkpt lat="48.75345" lon="2.27993">
        <ele>163.94</ele>
        <time>2020-02-08T12:00:43.999Z</time>
      </trkpt>
      <trkpt lat="48.75338" lon="2.28003">
        <ele>163.64</ele>
        <time>2020-02-08T12:00:50.999Z</time>
      </trkpt>
      <trkpt lat="48.75332" lon="2.28013">
        <ele>163.32</ele>
        <time>2020-02-08T12:00:58.999Z</time>
      </trkpt>
      <trkpt lat="48.75326" lon="2.28025">
        <ele>162.79</ele>
        <time>2020-02-08T12:01:11.999Z</time>
      </trkpt>
      <trkpt lat="48.75318" lon="2.28034">
        <ele>162.52</ele>
        <time>2020-02-08T12:01:18.999Z</time>
      </trkpt>
      <trkpt lat="48.75311" lon="2.28043">
        <ele>162.22</ele>
        <time>2020-02-08T12:01:26.999Z</time>
      </trkpt>
      <trkpt lat="48.75302" lon="2.28051">
        <ele>162.06</ele>
        <time>2020-02-08T12:01:31.999Z</time>
      </trkpt>
      <trkpt lat="48.75294" lon="2.2806">
        <ele>161.83</ele>
        <time>2020-02-08T12:01:38.999Z</time>
      </trkpt>
      <trkpt lat="48.75287" lon="2.28071">
        <ele>161.58</ele>
        <time>2020-02-08T12:01:46.999Z</time>
      </trkpt>
      <trkpt lat="48.75279" lon="2.28079">
        <ele>161.18</ele>
        <time>2020-02-08T12:01:59.999Z</time>
      </trkpt>
      <trkpt lat="48.75272" lon="2.28087">
        <ele>160.95</ele>
        <time>2020-02-08T12:02:07.999Z</time>
      </trkpt>
      <trkpt lat="48.75265" lon="2.28096">
        <ele>160.84</ele>
        <time>2020-02-08T12:02:11.999Z</time>
      </trkpt>
      <trkpt lat="48.75258" lon="2.28108">
        <ele>160.62</ele>
        <time>2020-02-08T12:02:19.999Z</time>
      </trkpt>
      <trkpt lat="48.75252" lon="2.28119">
        <ele>160.35</ele>
        <time>2020-02-08T12:02:29.999Z</time>
      </trkpt>
      <trkpt lat="48.75246" lon="2.28129">
        <ele>160.16</ele>
        <time>2020-02-08T12:02:36.999Z</time>
      </trkpt>
      <trkpt lat="48.7524" lon="2.28139">
        <ele>159.91</ele>
        <time>2020-02-08T12:02:46.999Z</time>
      </trkpt>
      <trkpt lat="48.75232" lon="2.28148">
        <ele>159.71</ele>
        <time>2020-02-08T12:02:55.999Z</time>
      </trkpt>
      <trkpt lat="48.75224" lon="2.28156">
        <ele>159.44</ele>
        <time>2020-02-08T12:03:07.999Z</time>
      </trkpt>
      <trkpt lat="48.75217" lon="2.28168">
        <ele>159.3</ele>
        <time>2020-02-08T12:03:14.999Z</time>
      </trkpt>
      <trkpt lat="48.75212" lon="2.28179">
        <ele>159.17</ele>
        <time>2020-02-08T12:03:20.999Z</time>
      </trkpt>
      <trkpt lat="48.75203" lon="2.28177">
        <ele>158.69</ele>
        <time>2020-02-08T12:03:48.999Z</time>
      </trkpt>
      <trkpt lat="48.75196" lon="2.28187">
        <ele>156.98</ele>
        <time>2020-02-08T12:06:34.999Z</time>
      </trkpt>
      <trkpt lat="48.75204" lon="2.28196">
        <ele>156.47</ele>
        <time>2020-02-08T12:06:44.999Z</time>
      </trkpt>
      <trkpt lat="48.75202" lon="2.2821">
        <ele>156.11</ele>
        <time>2020-02-08T12:06:52.999Z</time>
      </trkpt>
      <trkpt lat="48.75207" lon="2.28222">
        <ele>155.81</ele>
        <time>2020-02-08T12:07:00.999Z</time>
      </trkpt>
      <trkpt lat="48.7521" lon="2.28238">
        <ele>155.62</ele>
        <time>2020-02-08T12:07:06.999Z</time>
      </trkpt>
      <trkpt lat="48.75217" lon="2.28248">
        <ele>155.37</ele>
        <time>2020-02-08T12:07:19.999Z</time>
      </trkpt>
      <trkpt lat="48.75224" lon="2.28258">
        <ele>155.27</ele>
        <time>2020-02-08T12:07:28.999Z</time>
      </trkpt>
      <trkpt lat="48.75233" lon="2.28264">
        <ele>155.19</ele>
        <time>2020-02-08T12:07:37.999Z</time>
      </trkpt>
      <trkpt lat="48.75242" lon="2.28259">
        <ele>155.08</ele>
        <time>2020-02-08T12:07:48.999Z</time>
      </trkpt>
      <trkpt lat="48.75252" lon="2.2826">
        <ele>154.96</ele>
        <time>2020-02-08T12:07:57.999Z</time>
      </trkpt>
      <trkpt lat="48.75262" lon="2.28257">
        <ele>154.69</ele>
        <time>2020-02-08T12:08:11.999Z</time>
      </trkpt>
      <trkpt lat="48.75274" lon="2.28262">
        <ele>154.58</ele>
        <time>2020-02-08T12:08:18.999Z</time>
      </trkpt>
      <trkpt lat="48.75284" lon="2.28264">
        <ele>154.5</ele>
        <time>2020-02-08T12:08:22.999Z</time>
      </trkpt>
      <trkpt lat="48.75293" lon="2.28268">
        <ele>154.4</ele>
        <time>2020-02-08T12:08:29.999Z</time>
      </trkpt>
      <trkpt lat="48.75302" lon="2.28269">
        <ele>154.29</ele>
        <time>2020-02-08T12:08:35.999Z</time>
      </trkpt>
      <trkpt lat="48.75311" lon="2.28275">
        <ele>154.09</ele>
        <time>2020-02-08T12:08:46.999Z</time>
      </trkpt>
      <trkpt lat="48.7532" lon="2.2828">
        <ele>153.9</ele>
        <time>2020-02-08T12:08:57.999Z</time>
      </trkpt>
      <trkpt lat="48.75328" lon="2.28288">
        <ele>153.73</ele>
        <time>2020-02-08T12:09:07.999Z</time>
      </trkpt>
      <trkpt lat="48.75337" lon="2.28289">
        <ele>153.64</ele>
        <time>2020-02-08T12:09:13.999Z</time>
      </trkpt>
      <trkpt lat="48.75348" lon="2.28292">
        <ele>153.54</ele>
        <time>2020-02-08T12:09:19.999Z</time>
      </trkpt>
      <trkpt lat="48.75358" lon="2.28297">
        <ele>153.46</ele>
        <time>2020-02-08T12:09:24.999Z</time>
      </trkpt>
      <trkpt lat="48.75368" lon="2.28301">
        <ele>153.36</ele>
        <time>2020-02-08T12:09:29.999Z</time>
      </trkpt>
      <trkpt lat="48.75377" lon="2.28303">
        <ele>153.18</ele>
        <time>2020-02-08T12:09:39.999Z</time>
      </trkpt>
      <trkpt lat="48.75385" lon="2.28309">
        <ele>153.07</ele>
        <time>2020-02-08T12:09:45.999Z</time>
      </trkpt>
      <trkpt lat="48.75395" lon="2.28313">
        <ele>152.96</ele>
        <time>2020-02-08T12:09:51.999Z</time>
      </trkpt>
      <trkpt lat="48.75405" lon="2.28315">
        <ele>152.87</ele>
        <time>2020-02-08T12:09:56.999Z</time>
      </trkpt>
      <trkpt lat="48.75414" lon="2.28318">
        <ele>152.77</ele>
        <time>2020-02-08T12:10:03.999Z</time>
      </trkpt>
      <trkpt lat="48.75423" lon="2.2832">
        <ele>152.66</ele>
        <time>2020-02-08T12:10:12.999Z</time>
      </trkpt>
      <trkpt lat="48.75431" lon="2.28325">
        <ele>152.57</ele>
        <time>2020-02-08T12:10:20.999Z</time>
      </trkpt>
      <trkpt lat="48.7544" lon="2.28334">
        <ele>152.47</ele>
        <time>2020-02-08T12:10:30.999Z</time>
      </trkpt>
      <trkpt lat="48.75449" lon="2.28342">
        <ele>152.41</ele>
        <time>2020-02-08T12:10:37.999Z</time>
      </trkpt>
      <trkpt lat="48.75459" lon="2.28345">
        <ele>152.31</ele>
        <time>2020-02-08T12:10:51.999Z</time>
      </trkpt>
      <trkpt lat="48.75467" lon="2.28349">
        <ele>152.25</ele>
        <time>2020-02-08T12:10:59.999Z</time>
      </trkpt>
      <trkpt lat="48.75478" lon="2.28348">
        <ele>152.16</ele>
        <time>2020-02-08T12:11:13.999Z</time>
      </trkpt>
      <trkpt lat="48.75488" lon="2.28344">
        <ele>152.13</ele>
        <time>2020-02-08T12:11:18.999Z</time>
      </trkpt>
      <trkpt lat="48.75496" lon="2.28352">
        <ele>152.09</ele>
        <time>2020-02-08T12:11:28.999Z</time>
      </trkpt>
      <trkpt lat="48.75504" lon="2.28358">
        <ele>152.06</ele>
        <time>2020-02-08T12:11:35.999Z</time>
      </trkpt>
      <trkpt lat="48.75513" lon="2.28358">
        <ele>152.03</ele>
        <time>2020-02-08T12:11:47.999Z</time>
      </trkpt>
      <trkpt lat="48.75522" lon="2.28363">
        <ele>151.99</ele>
        <time>2020-02-08T12:11:53.999Z</time>
      </trkpt>
      <trkpt lat="48.75525" lon="2.28378">
        <ele>151.96</ele>
        <time>2020-02-08T12:12:09.999Z</time>
      </trkpt>
      <trkpt lat="48.75533" lon="2.28386">
        <ele>151.97</ele>
        <time>2020-02-08T12:12:17.999Z</time>
      </trkpt>
      <trkpt lat="48.75541" lon="2.28394">
        <ele>151.99</ele>
        <time>2020-02-08T12:12:25.999Z</time>
      </trkpt>
      <trkpt lat="48.75549" lon="2.28402">
        <ele>152</ele>
        <time>2020-02-08T12:12:36.999Z</time>
      </trkpt>
      <trkpt lat="48.75556" lon="2.2841">
        <ele>152</ele>
        <time>2020-02-08T12:12:44.999Z</time>
      </trkpt>
      <trkpt lat="48.75566" lon="2.28411">
        <ele>151.98</ele>
        <time>2020-02-08T12:12:58.999Z</time>
      </trkpt>
      <trkpt lat="48.75571" lon="2.28399">
        <ele>151.92</ele>
        <time>2020-02-08T12:13:10.999Z</time>
      </trkpt>
      <trkpt lat="48.75584" lon="2.28396">
        <ele>151.84</ele>
        <time>2020-02-08T12:13:17.999Z</time>
      </trkpt>
      <trkpt lat="48.75594" lon="2.28398">
        <ele>151.79</ele>
        <time>2020-02-08T12:13:22.999Z</time>
      </trkpt>
      <trkpt lat="48.75602" lon="2.28403">
        <ele>151.74</ele>
        <time>2020-02-08T12:13:28.999Z</time>
      </trkpt>
      <trkpt lat="48.75611" lon="2.28409">
        <ele>151.69</ele>
        <time>2020-02-08T12:13:35.999Z</time>
      </trkpt>
      <trkpt lat="48.7562" lon="2.28409">
        <ele>151.64</ele>
        <time>2020-02-08T12:13:43.999Z</time>
      </trkpt>
      <trkpt lat="48.75629" lon="2.28403">
        <ele>151.57</ele>
        <time>2020-02-08T12:13:52.999Z</time>
      </trkpt>
      <trkpt lat="48.75639" lon="2.28404">
        <ele>151.51</ele>
        <time>2020-02-08T12:14:02.999Z</time>
      </trkpt>
      <trkpt lat="48.75648" lon="2.28405">
        <ele>151.48</ele>
        <time>2020-02-08T12:14:08.999Z</time>
      </trkpt>
      <trkpt lat="48.75659" lon="2.28408">
        <ele>151.4</ele>
        <time>2020-02-08T12:14:20.999Z</time>
      </trkpt>
      <trkpt lat="48.75667" lon="2.28414">
        <ele>151.32</ele>
        <time>2020-02-08T12:14:29.000Z</time>
      </trkpt>
      <trkpt lat="48.75676" lon="2.28422">
        <ele>151.2</ele>
        <time>2020-02-08T12:14:45.000Z</time>
      </trkpt>
      <trkpt lat="48.75685" lon="2.28424">
        <ele>151.16</ele>
        <time>2020-02-08T12:14:51.000Z</time>
      </trkpt>
      <trkpt lat="48.75694" lon="2.28424">
        <ele>151.08</ele>
        <time>2020-02-08T12:15:03.000Z</time>
      </trkpt>
      <trkpt lat="48.75706" lon="2.28428">
        <ele>151.03</ele>
        <time>2020-02-08T12:15:12.000Z</time>
      </trkpt>
      <trkpt lat="48.75716" lon="2.28426">
        <ele>150.97</ele>
        <time>2020-02-08T12:15:24.000Z</time>
      </trkpt>
      <trkpt lat="48.75726" lon="2.28426">
        <ele>150.96</ele>
        <time>2020-02-08T12:15:29.000Z</time>
      </trkpt>
      <trkpt lat="48.75735" lon="2.28431">
        <ele>150.95</ele>
        <time>2020-02-08T12:15:36.000Z</time>
      </trkpt>
      <trkpt lat="48.75745" lon="2.28432">
        <ele>150.93</ele>
        <time>2020-02-08T12:15:41.000Z</time>
      </trkpt>
      <trkpt lat="48.75754" lon="2.28433">
        <ele>150.91</ele>
        <time>2020-02-08T12:15:48.000Z</time>
      </trkpt>
      <trkpt lat="48.75763" lon="2.28434">
        <ele>150.88</ele>
        <time>2020-02-08T12:15:56.000Z</time>
      </trkpt>
      <trkpt lat="48.75773" lon="2.28437">
        <ele>150.84</ele>
        <time>2020-02-08T12:16:08.000Z</time>
      </trkpt>
      <trkpt lat="48.75782" lon="2.28438">
        <ele>150.82</ele>
        <time>2020-02-08T12:16:14.000Z</time>
      </trkpt>
      <trkpt lat="48.75792" lon="2.28442">
        <ele>150.78</ele>
        <time>2020-02-08T12:16:29.000Z</time>
      </trkpt>
      <trkpt lat="48.75801" lon="2.28446">
        <ele>150.75</ele>
        <time>2020-02-08T12:16:34.000Z</time>
      </trkpt>
      <trkpt lat="48.7581" lon="2.28447">
        <ele>150.72</ele>
        <time>2020-02-08T12:16:41.000Z</time>
      </trkpt>
      <trkpt lat="48.75819" lon="2.28448">
        <ele>150.66</ele>
        <time>2020-02-08T12:16:53.000Z</time>
      </trkpt>
      <trkpt lat="48.75828" lon="2.28451">
        <ele>150.63</ele>
        <time>2020-02-08T12:17:06.000Z</time>
      </trkpt>
      <trkpt lat="48.75837" lon="2.28454">
        <ele>150.57</ele>
        <time>2020-02-08T12:17:24.000Z</time>
      </trkpt>
      <trkpt lat="48.75847" lon="2.2846">
        <ele>150.54</ele>
        <time>2020-02-08T12:17:28.000Z</time>
      </trkpt>
      <trkpt lat="48.75858" lon="2.2846">
        <ele>150.49</ele>
        <time>2020-02-08T12:17:36.000Z</time>
      </trkpt>
      <trkpt lat="48.75867" lon="2.28457">
        <ele>150.46</ele>
        <time>2020-02-08T12:17:42.000Z</time>
      </trkpt>
      <trkpt lat="48.75877" lon="2.2846">
        <ele>150.42</ele>
        <time>2020-02-08T12:17:48.000Z</time>
      </trkpt>
      <trkpt lat="48.75887" lon="2.28461">
        <ele>150.38</ele>
        <time>2020-02-08T12:17:55.000Z</time>
      </trkpt>
      <trkpt lat="48.75897" lon="2.28464">
        <ele>150.34</ele>
        <time>2020-02-08T12:18:02.000Z</time>
      </trkpt>
      <trkpt lat="48.75907" lon="2.28462">
        <ele>150.3</ele>
        <time>2020-02-08T12:18:09.000Z</time>
      </trkpt>
      <trkpt lat="48.75917" lon="2.28464">
        <ele>150.27</ele>
        <time>2020-02-08T12:18:15.000Z</time>
      </trkpt>
      <trkpt lat="48.75927" lon="2.28462">
        <ele>150.23</ele>
        <time>2020-02-08T12:18:21.000Z</time>
      </trkpt>
      <trkpt lat="48.75936" lon="2.28458">
        <ele>150.19</ele>
        <time>2020-02-08T12:18:28.000Z</time>
      </trkpt>
      <trkpt lat="48.75947" lon="2.28459">
        <ele>150.17</ele>
        <time>2020-02-08T12:18:34.000Z</time>
      </trkpt>
      <trkpt lat="48.75956" lon="2.28466">
        <ele>150.14</ele>
        <time>2020-02-08T12:18:40.000Z</time>
      </trkpt>
      <trkpt lat="48.75965" lon="2.28467">
        <ele>150.12</ele>
        <time>2020-02-08T12:18:47.000Z</time>
      </trkpt>
      <trkpt lat="48.75974" lon="2.28465">
        <ele>150.08</ele>
        <time>2020-02-08T12:18:56.000Z</time>
      </trkpt>
      <trkpt lat="48.75983" lon="2.2846">
        <ele>150.02</ele>
        <time>2020-02-08T12:19:08.000Z</time>
      </trkpt>
      <trkpt lat="48.75991" lon="2.28455">
        <ele>149.98</ele>
        <time>2020-02-08T12:19:18.000Z</time>
      </trkpt>
      <trkpt lat="48.76002" lon="2.28451">
        <ele>149.95</ele>
        <time>2020-02-08T12:19:27.000Z</time>
      </trkpt>
      <trkpt lat="48.76011" lon="2.28449">
        <ele>149.93</ele>
        <time>2020-02-08T12:19:36.000Z</time>
      </trkpt>
      <trkpt lat="48.76022" lon="2.28451">
        <ele>149.94</ele>
        <time>2020-02-08T12:19:47.000Z</time>
      </trkpt>
      <trkpt lat="48.76028" lon="2.28462">
        <ele>149.95</ele>
        <time>2020-02-08T12:19:56.000Z</time>
      </trkpt>
      <trkpt lat="48.76031" lon="2.28476">
        <ele>149.95</ele>
        <time>2020-02-08T12:20:14.000Z</time>
      </trkpt>
      <trkpt lat="48.76036" lon="2.28487">
        <ele>149.92</ele>
        <time>2020-02-08T12:20:27.000Z</time>
      </trkpt>
      <trkpt lat="48.76043" lon="2.28496">
        <ele>149.9</ele>
        <time>2020-02-08T12:20:35.000Z</time>
      </trkpt>
      <trkpt lat="48.76095" lon="2.28496">
        <ele>149.79</ele>
        <time>2020-02-08T12:21:05.000Z</time>
      </trkpt>
      <trkpt lat="48.76102" lon="2.28486">
        <ele>149.62</ele>
        <time>2020-02-08T12:21:24.000Z</time>
      </trkpt>
      <trkpt lat="48.7611" lon="2.28479">
        <ele>149.04</ele>
        <time>2020-02-08T12:21:37.000Z</time>
      </trkpt>
      <trkpt lat="48.76119" lon="2.28478">
        <ele>148.85</ele>
        <time>2020-02-08T12:21:41.000Z</time>
      </trkpt>
      <trkpt lat="48.76129" lon="2.28478">
        <ele>148.55</ele>
        <time>2020-02-08T12:21:48.000Z</time>
      </trkpt>
      <trkpt lat="48.76139" lon="2.28475">
        <ele>147.98</ele>
        <time>2020-02-08T12:22:01.000Z</time>
      </trkpt>
      <trkpt lat="48.76149" lon="2.28475">
        <ele>147.73</ele>
        <time>2020-02-08T12:22:12.000Z</time>
      </trkpt>
      <trkpt lat="48.76158" lon="2.28475">
        <ele>147.59</ele>
        <time>2020-02-08T12:22:21.000Z</time>
      </trkpt>
      <trkpt lat="48.76168" lon="2.28477">
        <ele>147.57</ele>
        <time>2020-02-08T12:22:27.000Z</time>
      </trkpt>
      <trkpt lat="48.76177" lon="2.2848">
        <ele>147.58</ele>
        <time>2020-02-08T12:22:33.000Z</time>
      </trkpt>
      <trkpt lat="48.76185" lon="2.28486">
        <ele>147.61</ele>
        <time>2020-02-08T12:22:40.000Z</time>
      </trkpt>
      <trkpt lat="48.76193" lon="2.28494">
        <ele>147.67</ele>
        <time>2020-02-08T12:22:49.000Z</time>
      </trkpt>
      <trkpt lat="48.76202" lon="2.28499">
        <ele>147.67</ele>
        <time>2020-02-08T12:22:56.000Z</time>
      </trkpt>
      <trkpt lat="48.76209" lon="2.28507">
        <ele>147.54</ele>
        <time>2020-02-08T12:23:09.000Z</time>
      </trkpt>
      <trkpt lat="48.76241" lon="2.28496">
        <ele>146.9</ele>
        <time>2020-02-08T12:23:33.000Z</time>
      </trkpt>
      <trkpt lat="48.76251" lon="2.28495">
        <ele>146.79</ele>
        <time>2020-02-08T12:23:49.000Z</time>
      </trkpt>
      <trkpt lat="48.76259" lon="2.2849">
        <ele>146.47</ele>
        <time>2020-02-08T12:24:03.000Z</time>
      </trkpt>
      <trkpt lat="48.76269" lon="2.28493">
        <ele>146.17</ele>
        <time>2020-02-08T12:24:10.000Z</time>
      </trkpt>
      <trkpt lat="48.76278" lon="2.28491">
        <ele>145.92</ele>
        <time>2020-02-08T12:24:15.000Z</time>
      </trkpt>
      <trkpt lat="48.76287" lon="2.28492">
        <ele>145.58</ele>
        <time>2020-02-08T12:24:22.000Z</time>
      </trkpt>
      <trkpt lat="48.76297" lon="2.2849">
        <ele>145.28</ele>
        <time>2020-02-08T12:24:30.000Z</time>
      </trkpt>
      <trkpt lat="48.76307" lon="2.2849">
        <ele>144.98</ele>
        <time>2020-02-08T12:25:00.000Z</time>
      </trkpt>
      <trkpt lat="48.76316" lon="2.28491">
        <ele>144.46</ele>
        <time>2020-02-08T12:25:12.000Z</time>
      </trkpt>
      <trkpt lat="48.76323" lon="2.28481">
        <ele>143.63</ele>
        <time>2020-02-08T12:25:27.000Z</time>
      </trkpt>
      <trkpt lat="48.76335" lon="2.28481">
        <ele>143.18</ele>
        <time>2020-02-08T12:25:34.000Z</time>
      </trkpt>
      <trkpt lat="48.76345" lon="2.2848">
        <ele>142.85</ele>
        <time>2020-02-08T12:25:40.000Z</time>
      </trkpt>
      <trkpt lat="48.76354" lon="2.28484">
        <ele>142.55</ele>
        <time>2020-02-08T12:25:46.000Z</time>
      </trkpt>
      <trkpt lat="48.76364" lon="2.28484">
        <ele>142.33</ele>
        <time>2020-02-08T12:25:55.000Z</time>
      </trkpt>
      <trkpt lat="48.76373" lon="2.28483">
        <ele>142.1</ele>
        <time>2020-02-08T12:26:03.000Z</time>
      </trkpt>
      <trkpt lat="48.76383" lon="2.28482">
        <ele>141.83</ele>
        <time>2020-02-08T12:26:12.000Z</time>
      </trkpt>
      <trkpt lat="48.76392" lon="2.28483">
        <ele>141.47</ele>
        <time>2020-02-08T12:26:33.000Z</time>
      </trkpt>
      <trkpt lat="48.76402" lon="2.28478">
        <ele>141.35</ele>
        <time>2020-02-08T12:26:37.000Z</time>
      </trkpt>
      <trkpt lat="48.76411" lon="2.28482">
        <ele>141.16</ele>
        <time>2020-02-08T12:26:43.000Z</time>
      </trkpt>
      <trkpt lat="48.7642" lon="2.28485">
        <ele>141.04</ele>
        <time>2020-02-08T12:26:47.000Z</time>
      </trkpt>
      <trkpt lat="48.7643" lon="2.28485">
        <ele>140.86</ele>
        <time>2020-02-08T12:26:54.000Z</time>
      </trkpt>
      <trkpt lat="48.76439" lon="2.28487">
        <ele>140.66</ele>
        <time>2020-02-08T12:27:05.000Z</time>
      </trkpt>
      <trkpt lat="48.76449" lon="2.2849">
        <ele>140.54</ele>
        <time>2020-02-08T12:27:23.000Z</time>
      </trkpt>
      <trkpt lat="48.76459" lon="2.28494">
        <ele>140.45</ele>
        <time>2020-02-08T12:27:36.000Z</time>
      </trkpt>
      <trkpt lat="48.76468" lon="2.28499">
        <ele>140.36</ele>
        <time>2020-02-08T12:27:45.000Z</time>
      </trkpt>
      <trkpt lat="48.76479" lon="2.28497">
        <ele>140.29</ele>
        <time>2020-02-08T12:27:50.000Z</time>
      </trkpt>
      <trkpt lat="48.76488" lon="2.28498">
        <ele>140.22</ele>
        <time>2020-02-08T12:27:56.000Z</time>
      </trkpt>
      <trkpt lat="48.76497" lon="2.28496">
        <ele>140.14</ele>
        <time>2020-02-08T12:28:02.000Z</time>
      </trkpt>
      <trkpt lat="48.76508" lon="2.28499">
        <ele>140.05</ele>
        <time>2020-02-08T12:28:10.000Z</time>
      </trkpt>
      <trkpt lat="48.76517" lon="2.28499">
        <ele>139.98</ele>
        <time>2020-02-08T12:28:17.000Z</time>
      </trkpt>
      <trkpt lat="48.76527" lon="2.28499">
        <ele>139.9</ele>
        <time>2020-02-08T12:28:24.000Z</time>
      </trkpt>
      <trkpt lat="48.76536" lon="2.28496">
        <ele>139.77</ele>
        <time>2020-02-08T12:28:33.999Z</time>
      </trkpt>
      <trkpt lat="48.76545" lon="2.28497">
        <ele>139.69</ele>
        <time>2020-02-08T12:28:42.999Z</time>
      </trkpt>
      <trkpt lat="48.76555" lon="2.28499">
        <ele>139.64</ele>
        <time>2020-02-08T12:28:48.999Z</time>
      </trkpt>
      <trkpt lat="48.76565" lon="2.28498">
        <ele>139.6</ele>
        <time>2020-02-08T12:28:53.999Z</time>
      </trkpt>
      <trkpt lat="48.76574" lon="2.28498">
        <ele>139.55</ele>
        <time>2020-02-08T12:29:00.999Z</time>
      </trkpt>
      <trkpt lat="48.76583" lon="2.28496">
        <ele>139.49</ele>
        <time>2020-02-08T12:29:08.999Z</time>
      </trkpt>
      <trkpt lat="48.7659" lon="2.28485">
        <ele>139.45</ele>
        <time>2020-02-08T12:29:14.999Z</time>
      </trkpt>
      <trkpt lat="48.76597" lon="2.28477">
        <ele>139.4</ele>
        <time>2020-02-08T12:29:24.999Z</time>
      </trkpt>
      <trkpt lat="48.76607" lon="2.28478">
        <ele>139.4</ele>
        <time>2020-02-08T12:29:32.999Z</time>
      </trkpt>
      <trkpt lat="48.76616" lon="2.28479">
        <ele>139.47</ele>
        <time>2020-02-08T12:29:41.999Z</time>
      </trkpt>
      <trkpt lat="48.76625" lon="2.2848">
        <ele>139.54</ele>
        <time>2020-02-08T12:29:52.999Z</time>
      </trkpt>
      <trkpt lat="48.76635" lon="2.28481">
        <ele>139.58</ele>
        <time>2020-02-08T12:30:00.999Z</time>
      </trkpt>
      <trkpt lat="48.76645" lon="2.2848">
        <ele>139.59</ele>
        <time>2020-02-08T12:30:05.999Z</time>
      </trkpt>
      <trkpt lat="48.76655" lon="2.28478">
        <ele>139.64</ele>
        <time>2020-02-08T12:30:17.999Z</time>
      </trkpt>
      <trkpt lat="48.76665" lon="2.2848">
        <ele>139.69</ele>
        <time>2020-02-08T12:30:28.999Z</time>
      </trkpt>
      <trkpt lat="48.76675" lon="2.28479">
        <ele>139.73</ele>
        <time>2020-02-08T12:30:35.999Z</time>
      </trkpt>
      <trkpt lat="48.76684" lon="2.28479">
        <ele>139.75</ele>
        <time>2020-02-08T12:30:42.999Z</time>
      </trkpt>
      <trkpt lat="48.76692" lon="2.28476">
        <ele>139.77</ele>
        <time>2020-02-08T12:30:49.999Z</time>
      </trkpt>
      <trkpt lat="48.76702" lon="2.28476">
        <ele>139.84</ele>
        <time>2020-02-08T12:31:00.999Z</time>
      </trkpt>
      <trkpt lat="48.7671" lon="2.28471">
        <ele>139.88</ele>
        <time>2020-02-08T12:31:09.999Z</time>
      </trkpt>
      <trkpt lat="48.7672" lon="2.28472">
        <ele>139.95</ele>
        <time>2020-02-08T12:31:20.999Z</time>
      </trkpt>
      <trkpt lat="48.76729" lon="2.28474">
        <ele>139.95</ele>
        <time>2020-02-08T12:31:26.999Z</time>
      </trkpt>
      <trkpt lat="48.76739" lon="2.28473">
        <ele>139.94</ele>
        <time>2020-02-08T12:31:33.999Z</time>
      </trkpt>
      <trkpt lat="48.76749" lon="2.28472">
        <ele>139.94</ele>
        <time>2020-02-08T12:31:41.999Z</time>
      </trkpt>
      <trkpt lat="48.76757" lon="2.28476">
        <ele>139.93</ele>
        <time>2020-02-08T12:31:47.999Z</time>
      </trkpt>
      <trkpt lat="48.76766" lon="2.28474">
        <ele>139.89</ele>
        <time>2020-02-08T12:31:55.999Z</time>
      </trkpt>
      <trkpt lat="48.76777" lon="2.28476">
        <ele>139.84</ele>
        <time>2020-02-08T12:32:01.999Z</time>
      </trkpt>
      <trkpt lat="48.76786" lon="2.28474">
        <ele>139.73</ele>
        <time>2020-02-08T12:32:12.999Z</time>
      </trkpt>
      <trkpt lat="48.76796" lon="2.28476">
        <ele>139.66</ele>
        <time>2020-02-08T12:32:19.999Z</time>
      </trkpt>
      <trkpt lat="48.76806" lon="2.28478">
        <ele>139.63</ele>
        <time>2020-02-08T12:32:24.999Z</time>
      </trkpt>
      <trkpt lat="48.76816" lon="2.2848">
        <ele>139.62</ele>
        <time>2020-02-08T12:32:30.999Z</time>
      </trkpt>
      <trkpt lat="48.76826" lon="2.28478">
        <ele>139.62</ele>
        <time>2020-02-08T12:32:43.999Z</time>
      </trkpt>
      <trkpt lat="48.76835" lon="2.28479">
        <ele>139.69</ele>
        <time>2020-02-08T12:32:57.999Z</time>
      </trkpt>
      <trkpt lat="48.76845" lon="2.28476">
        <ele>139.72</ele>
        <time>2020-02-08T12:33:03.999Z</time>
      </trkpt>
      <trkpt lat="48.76854" lon="2.28477">
        <ele>139.76</ele>
        <time>2020-02-08T12:33:12.999Z</time>
      </trkpt>
      <trkpt lat="48.76862" lon="2.28484">
        <ele>139.78</ele>
        <time>2020-02-08T12:33:21.999Z</time>
      </trkpt>
      <trkpt lat="48.76866" lon="2.28499">
        <ele>139.79</ele>
        <time>2020-02-08T12:33:25.999Z</time>
      </trkpt>
      <trkpt lat="48.76876" lon="2.28499">
        <ele>139.82</ele>
        <time>2020-02-08T12:33:35.999Z</time>
      </trkpt>
      <trkpt lat="48.76885" lon="2.285">
        <ele>139.84</ele>
        <time>2020-02-08T12:33:45.999Z</time>
      </trkpt>
      <trkpt lat="48.76895" lon="2.285">
        <ele>139.85</ele>
        <time>2020-02-08T12:33:55.999Z</time>
      </trkpt>
      <trkpt lat="48.76904" lon="2.28504">
        <ele>139.85</ele>
        <time>2020-02-08T12:34:18.999Z</time>
      </trkpt>
      <trkpt lat="48.76913" lon="2.28501">
        <ele>139.84</ele>
        <time>2020-02-08T12:34:25.999Z</time>
      </trkpt>
      <trkpt lat="48.76922" lon="2.28498">
        <ele>139.85</ele>
        <time>2020-02-08T12:34:38.999Z</time>
      </trkpt>
      <trkpt lat="48.76932" lon="2.28499">
        <ele>139.85</ele>
        <time>2020-02-08T12:34:47.999Z</time>
      </trkpt>
      <trkpt lat="48.76943" lon="2.28501">
        <ele>139.85</ele>
        <time>2020-02-08T12:34:53.999Z</time>
      </trkpt>
      <trkpt lat="48.76952" lon="2.28502">
        <ele>139.85</ele>
        <time>2020-02-08T12:35:00.999Z</time>
      </trkpt>
      <trkpt lat="48.76963" lon="2.28503">
        <ele>139.85</ele>
        <time>2020-02-08T12:35:06.999Z</time>
      </trkpt>
      <trkpt lat="48.76972" lon="2.28503">
        <ele>139.86</ele>
        <time>2020-02-08T12:35:16.999Z</time>
      </trkpt>
      <trkpt lat="48.76982" lon="2.28501">
        <ele>139.84</ele>
        <time>2020-02-08T12:35:27.999Z</time>
      </trkpt>
      <trkpt lat="48.76991" lon="2.285">
        <ele>139.52</ele>
        <time>2020-02-08T12:36:19.999Z</time>
      </trkpt>
      <trkpt lat="48.77002" lon="2.28497">
        <ele>139.44</ele>
        <time>2020-02-08T12:36:27.999Z</time>
      </trkpt>
      <trkpt lat="48.77012" lon="2.28497">
        <ele>139.34</ele>
        <time>2020-02-08T12:36:38.999Z</time>
      </trkpt>
      <trkpt lat="48.77022" lon="2.28501">
        <ele>139.27</ele>
        <time>2020-02-08T12:36:47.999Z</time>
      </trkpt>
      <trkpt lat="48.77031" lon="2.28498">
        <ele>139.22</ele>
        <time>2020-02-08T12:36:58.999Z</time>
      </trkpt>
      <trkpt lat="48.77041" lon="2.28501">
        <ele>139.15</ele>
        <time>2020-02-08T12:37:09.999Z</time>
      </trkpt>
      <trkpt lat="48.77052" lon="2.28504">
        <ele>139.12</ele>
        <time>2020-02-08T12:37:17.999Z</time>
      </trkpt>
      <trkpt lat="48.77061" lon="2.28505">
        <ele>139.1</ele>
        <time>2020-02-08T12:37:23.999Z</time>
      </trkpt>
      <trkpt lat="48.7707" lon="2.28509">
        <ele>139.07</ele>
        <time>2020-02-08T12:37:30.999Z</time>
      </trkpt>
      <trkpt lat="48.77079" lon="2.2851">
        <ele>139.05</ele>
        <time>2020-02-08T12:37:37.999Z</time>
      </trkpt>
      <trkpt lat="48.77089" lon="2.28504">
        <ele>138.98</ele>
        <time>2020-02-08T12:37:52.999Z</time>
      </trkpt>
      <trkpt lat="48.77098" lon="2.285">
        <ele>138.94</ele>
        <time>2020-02-08T12:37:58.999Z</time>
      </trkpt>
      <trkpt lat="48.77105" lon="2.28489">
        <ele>138.89</ele>
        <time>2020-02-08T12:38:06.999Z</time>
      </trkpt>
      <trkpt lat="48.77113" lon="2.28482">
        <ele>138.87</ele>
        <time>2020-02-08T12:38:09.999Z</time>
      </trkpt>
      <trkpt lat="48.77124" lon="2.28482">
        <ele>138.85</ele>
        <time>2020-02-08T12:38:12.999Z</time>
      </trkpt>
      <trkpt lat="48.77133" lon="2.28482">
        <ele>138.83</ele>
        <time>2020-02-08T12:38:21.999Z</time>
      </trkpt>
      <trkpt lat="48.77143" lon="2.28482">
        <ele>138.77</ele>
        <time>2020-02-08T12:38:43.999Z</time>
      </trkpt>
      <trkpt lat="48.77154" lon="2.28481">
        <ele>138.75</ele>
        <time>2020-02-08T12:38:49.999Z</time>
      </trkpt>
      <trkpt lat="48.77163" lon="2.28476">
        <ele>138.73</ele>
        <time>2020-02-08T12:38:56.999Z</time>
      </trkpt>
      <trkpt lat="48.77172" lon="2.28473">
        <ele>138.72</ele>
        <time>2020-02-08T12:39:04.999Z</time>
      </trkpt>
      <trkpt lat="48.77181" lon="2.28475">
        <ele>138.71</ele>
        <time>2020-02-08T12:39:14.999Z</time>
      </trkpt>
      <trkpt lat="48.77191" lon="2.28477">
        <ele>138.71</ele>
        <time>2020-02-08T12:39:20.999Z</time>
      </trkpt>
      <trkpt lat="48.77201" lon="2.2848">
        <ele>138.7</ele>
        <time>2020-02-08T12:39:29.999Z</time>
      </trkpt>
      <trkpt lat="48.77209" lon="2.28487">
        <ele>138.7</ele>
        <time>2020-02-08T12:39:35.999Z</time>
      </trkpt>
      <trkpt lat="48.77219" lon="2.28493">
        <ele>138.68</ele>
        <time>2020-02-08T12:39:48.999Z</time>
      </trkpt>
      <trkpt lat="48.77228" lon="2.28499">
        <ele>138.65</ele>
        <time>2020-02-08T12:39:57.999Z</time>
      </trkpt>
      <trkpt lat="48.7724" lon="2.28505">
        <ele>138.62</ele>
        <time>2020-02-08T12:40:05.999Z</time>
      </trkpt>
      <trkpt lat="48.7725" lon="2.28509">
        <ele>138.6</ele>
        <time>2020-02-08T12:40:09.999Z</time>
      </trkpt>
      <trkpt lat="48.77261" lon="2.28516">
        <ele>138.55</ele>
        <time>2020-02-08T12:40:24.999Z</time>
      </trkpt>
      <trkpt lat="48.77268" lon="2.28525">
        <ele>138.53</ele>
        <time>2020-02-08T12:40:29.999Z</time>
      </trkpt>
      <trkpt lat="48.77278" lon="2.28526">
        <ele>138.49</ele>
        <time>2020-02-08T12:40:37.999Z</time>
      </trkpt>
      <trkpt lat="48.77286" lon="2.28534">
        <ele>138.44</ele>
        <time>2020-02-08T12:40:44.999Z</time>
      </trkpt>
      <trkpt lat="48.77293" lon="2.28544">
        <ele>138.38</ele>
        <time>2020-02-08T12:40:49.999Z</time>
      </trkpt>
      <trkpt lat="48.77296" lon="2.28557">
        <ele>138.28</ele>
        <time>2020-02-08T12:40:56.999Z</time>
      </trkpt>
      <trkpt lat="48.77306" lon="2.28557">
        <ele>138.11</ele>
        <time>2020-02-08T12:41:14.999Z</time>
      </trkpt>
      <trkpt lat="48.77316" lon="2.28555">
        <ele>138.05</ele>
        <time>2020-02-08T12:41:18.999Z</time>
      </trkpt>
      <trkpt lat="48.77325" lon="2.28559">
        <ele>137.88</ele>
        <time>2020-02-08T12:41:31.999Z</time>
      </trkpt>
      <trkpt lat="48.77336" lon="2.2856">
        <ele>137.8</ele>
        <time>2020-02-08T12:41:38.999Z</time>
      </trkpt>
      <trkpt lat="48.77345" lon="2.2856">
        <ele>137.73</ele>
        <time>2020-02-08T12:41:43.999Z</time>
      </trkpt>
      <trkpt lat="48.77356" lon="2.28558">
        <ele>137.63</ele>
        <time>2020-02-08T12:41:52.999Z</time>
      </trkpt>
      <trkpt lat="48.77365" lon="2.28563">
        <ele>137.43</ele>
        <time>2020-02-08T12:42:07.999Z</time>
      </trkpt>
      <trkpt lat="48.77375" lon="2.28567">
        <ele>137.3</ele>
        <time>2020-02-08T12:42:17.999Z</time>
      </trkpt>
      <trkpt lat="48.77384" lon="2.2857">
        <ele>137.22</ele>
        <time>2020-02-08T12:42:23.999Z</time>
      </trkpt>
      <trkpt lat="48.77394" lon="2.28572">
        <ele>137.1</ele>
        <time>2020-02-08T12:42:32.999Z</time>
      </trkpt>
      <trkpt lat="48.77403" lon="2.28572">
        <ele>137.01</ele>
        <time>2020-02-08T12:42:40.000Z</time>
      </trkpt>
      <trkpt lat="48.77414" lon="2.28572">
        <ele>136.9</ele>
        <time>2020-02-08T12:42:49.000Z</time>
      </trkpt>
      <trkpt lat="48.77424" lon="2.28571">
        <ele>136.83</ele>
        <time>2020-02-08T12:42:56.000Z</time>
      </trkpt>
      <trkpt lat="48.77433" lon="2.28573">
        <ele>136.72</ele>
        <time>2020-02-08T12:43:07.000Z</time>
      </trkpt>
      <trkpt lat="48.77442" lon="2.28576">
        <ele>136.63</ele>
        <time>2020-02-08T12:43:16.000Z</time>
      </trkpt>
      <trkpt lat="48.77452" lon="2.28578">
        <ele>136.54</ele>
        <time>2020-02-08T12:43:26.000Z</time>
      </trkpt>
      <trkpt lat="48.77461" lon="2.28578">
        <ele>136.44</ele>
        <time>2020-02-08T12:43:37.000Z</time>
      </trkpt>
      <trkpt lat="48.77471" lon="2.2858">
        <ele>136.34</ele>
        <time>2020-02-08T12:43:48.000Z</time>
      </trkpt>
      <trkpt lat="48.77481" lon="2.28584">
        <ele>136.27</ele>
        <time>2020-02-08T12:43:57.000Z</time>
      </trkpt>
      <trkpt lat="48.77491" lon="2.28585">
        <ele>136.21</ele>
        <time>2020-02-08T12:44:04.000Z</time>
      </trkpt>
      <trkpt lat="48.77501" lon="2.28587">
        <ele>136.14</ele>
        <time>2020-02-08T12:44:13.000Z</time>
      </trkpt>
      <trkpt lat="48.77508" lon="2.28596">
        <ele>135.98</ele>
        <time>2020-02-08T12:44:41.000Z</time>
      </trkpt>
      <trkpt lat="48.77517" lon="2.28597">
        <ele>135.92</ele>
        <time>2020-02-08T12:44:51.000Z</time>
      </trkpt>
      <trkpt lat="48.77527" lon="2.28603">
        <ele>135.78</ele>
        <time>2020-02-08T12:45:09.000Z</time>
      </trkpt>
      <trkpt lat="48.77532" lon="2.28614">
        <ele>135.64</ele>
        <time>2020-02-08T12:45:23.000Z</time>
      </trkpt>
      <trkpt lat="48.77539" lon="2.28623">
        <ele>135.48</ele>
        <time>2020-02-08T12:45:36.000Z</time>
      </trkpt>
      <trkpt lat="48.77548" lon="2.28624">
        <ele>135.19</ele>
        <time>2020-02-08T12:46:00.000Z</time>
      </trkpt>
      <trkpt lat="48.77558" lon="2.28624">
        <ele>134.84</ele>
        <time>2020-02-08T12:46:20.000Z</time>
      </trkpt>
      <trkpt lat="48.77568" lon="2.28622">
        <ele>134.68</ele>
        <time>2020-02-08T12:46:27.000Z</time>
      </trkpt>
      <trkpt lat="48.77579" lon="2.28621">
        <ele>134.56</ele>
        <time>2020-02-08T12:46:32.000Z</time>
      </trkpt>
      <trkpt lat="48.7759" lon="2.2862">
        <ele>134.45</ele>
        <time>2020-02-08T12:46:37.000Z</time>
      </trkpt>
      <trkpt lat="48.77599" lon="2.28627">
        <ele>134.34</ele>
        <time>2020-02-08T12:46:42.000Z</time>
      </trkpt>
      <trkpt lat="48.77609" lon="2.28629">
        <ele>134.13</ele>
        <time>2020-02-08T12:46:52.000Z</time>
      </trkpt>
      <trkpt lat="48.77618" lon="2.2863">
        <ele>133.98</ele>
        <time>2020-02-08T12:47:00.000Z</time>
      </trkpt>
      <trkpt lat="48.77627" lon="2.28629">
        <ele>133.85</ele>
        <time>2020-02-08T12:47:07.000Z</time>
      </trkpt>
      <trkpt lat="48.77637" lon="2.28629">
        <ele>133.76</ele>
        <time>2020-02-08T12:47:14.000Z</time>
      </trkpt>
      <trkpt lat="48.77646" lon="2.28632">
        <ele>133.75</ele>
        <time>2020-02-08T12:47:32.000Z</time>
      </trkpt>
      <trkpt lat="48.77656" lon="2.2863">
        <ele>133.85</ele>
        <time>2020-02-08T12:47:47.000Z</time>
      </trkpt>
      <trkpt lat="48.77665" lon="2.28634">
        <ele>133.95</ele>
        <time>2020-02-08T12:47:56.000Z</time>
      </trkpt>
      <trkpt lat="48.77673" lon="2.28639">
        <ele>134.17</ele>
        <time>2020-02-08T12:48:15.000Z</time>
      </trkpt>
      <trkpt lat="48.77683" lon="2.28636">
        <ele>134.37</ele>
        <time>2020-02-08T12:48:28.000Z</time>
      </trkpt>
      <trkpt lat="48.77692" lon="2.28639">
        <ele>134.82</ele>
        <time>2020-02-08T12:48:52.000Z</time>
      </trkpt>
      <trkpt lat="48.777" lon="2.28647">
        <ele>135.03</ele>
        <time>2020-02-08T12:49:04.000Z</time>
      </trkpt>
      <trkpt lat="48.7771" lon="2.2865">
        <ele>135.12</ele>
        <time>2020-02-08T12:49:08.000Z</time>
      </trkpt>
      <trkpt lat="48.7772" lon="2.2865">
        <ele>135.45</ele>
        <time>2020-02-08T12:49:23.000Z</time>
      </trkpt>
      <trkpt lat="48.77729" lon="2.28648">
        <ele>135.76</ele>
        <time>2020-02-08T12:49:39.000Z</time>
      </trkpt>
      <trkpt lat="48.77738" lon="2.28652">
        <ele>135.9</ele>
        <time>2020-02-08T12:49:47.000Z</time>
      </trkpt>
      <trkpt lat="48.77746" lon="2.28657">
        <ele>136.05</ele>
        <time>2020-02-08T12:49:56.000Z</time>
      </trkpt>
      <trkpt lat="48.77755" lon="2.28662">
        <ele>136.18</ele>
        <time>2020-02-08T12:50:07.000Z</time>
      </trkpt>
      <trkpt lat="48.77758" lon="2.28677">
        <ele>137.51</ele>
        <time>2020-02-08T12:51:06.000Z</time>
      </trkpt>
      <trkpt lat="48.77764" lon="2.28688">
        <ele>138.12</ele>
        <time>2020-02-08T12:51:57.000Z</time>
      </trkpt>
      <trkpt lat="48.77772" lon="2.28694">
        <ele>140.03</ele>
        <time>2020-02-08T12:54:18.000Z</time>
      </trkpt>
      <trkpt lat="48.77781" lon="2.28697">
        <ele>140.9</ele>
        <time>2020-02-08T12:54:31.000Z</time>
      </trkpt>
      <trkpt lat="48.7779" lon="2.28704">
        <ele>142.43</ele>
        <time>2020-02-08T12:55:04.000Z</time>
      </trkpt>
      <trkpt lat="48.778" lon="2.28703">
        <ele>143.26</ele>
        <time>2020-02-08T12:55:21.000Z</time>
      </trkpt>
      <trkpt lat="48.77809" lon="2.28707">
        <ele>143.55</ele>
        <time>2020-02-08T12:55:28.000Z</time>
      </trkpt>
      <trkpt lat="48.7782" lon="2.28708">
        <ele>143.77</ele>
        <time>2020-02-08T12:55:34.000Z</time>
      </trkpt>
      <trkpt lat="48.77832" lon="2.28713">
        <ele>143.96</ele>
        <time>2020-02-08T12:55:40.000Z</time>
      </trkpt>
      <trkpt lat="48.77842" lon="2.28716">
        <ele>144.18</ele>
        <time>2020-02-08T12:55:48.000Z</time>
      </trkpt>
      <trkpt lat="48.7785" lon="2.28709">
        <ele>144.51</ele>
        <time>2020-02-08T12:56:02.000Z</time>
      </trkpt>
      <trkpt lat="48.7786" lon="2.28708">
        <ele>144.68</ele>
        <time>2020-02-08T12:56:12.000Z</time>
      </trkpt>
      <trkpt lat="48.77862" lon="2.28722">
        <ele>144.76</ele>
        <time>2020-02-08T12:56:21.000Z</time>
      </trkpt>
      <trkpt lat="48.77871" lon="2.28726">
        <ele>144.85</ele>
        <time>2020-02-08T12:56:28.000Z</time>
      </trkpt>
      <trkpt lat="48.77879" lon="2.28734">
        <ele>145.06</ele>
        <time>2020-02-08T12:56:47.000Z</time>
      </trkpt>
      <trkpt lat="48.77888" lon="2.28738">
        <ele>145.3</ele>
        <time>2020-02-08T12:56:59.000Z</time>
      </trkpt>
      <trkpt lat="48.77896" lon="2.28745">
        <ele>145.45</ele>
        <time>2020-02-08T12:57:07.000Z</time>
      </trkpt>
      <trkpt lat="48.77906" lon="2.28743">
        <ele>145.57</ele>
        <time>2020-02-08T12:57:14.000Z</time>
      </trkpt>
      <trkpt lat="48.77915" lon="2.28744">
        <ele>145.66</ele>
        <time>2020-02-08T12:57:22.000Z</time>
      </trkpt>
      <trkpt lat="48.77924" lon="2.28744">
        <ele>145.73</ele>
        <time>2020-02-08T12:57:29.000Z</time>
      </trkpt>
      <trkpt lat="48.77933" lon="2.2875">
        <ele>145.83</ele>
        <time>2020-02-08T12:57:43.000Z</time>
      </trkpt>
      <trkpt lat="48.77941" lon="2.28753">
        <ele>145.93</ele>
        <time>2020-02-08T12:57:51.000Z</time>
      </trkpt>
      <trkpt lat="48.7795" lon="2.2876">
        <ele>146.08</ele>
        <time>2020-02-08T12:58:00.999Z</time>
      </trkpt>
      <trkpt lat="48.77959" lon="2.28767">
        <ele>146.33</ele>
        <time>2020-02-08T12:58:16.999Z</time>
      </trkpt>
      <trkpt lat="48.7797" lon="2.28769">
        <ele>146.37</ele>
        <time>2020-02-08T12:58:19.999Z</time>
      </trkpt>
      <trkpt lat="48.77979" lon="2.28771">
        <ele>146.42</ele>
        <time>2020-02-08T12:58:23.999Z</time>
      </trkpt>
      <trkpt lat="48.77988" lon="2.28771">
        <ele>146.52</ele>
        <time>2020-02-08T12:58:34.999Z</time>
      </trkpt>
      <trkpt lat="48.77997" lon="2.28776">
        <ele>146.58</ele>
        <time>2020-02-08T12:58:41.999Z</time>
      </trkpt>
      <trkpt lat="48.78007" lon="2.28777">
        <ele>146.65</ele>
        <time>2020-02-08T12:58:50.999Z</time>
      </trkpt>
      <trkpt lat="48.78017" lon="2.2878">
        <ele>146.91</ele>
        <time>2020-02-08T12:59:23.999Z</time>
      </trkpt>
      <trkpt lat="48.78027" lon="2.28778">
        <ele>147.07</ele>
        <time>2020-02-08T12:59:30.999Z</time>
      </trkpt>
      <trkpt lat="48.78036" lon="2.28773">
        <ele>147.22</ele>
        <time>2020-02-08T12:59:39.999Z</time>
      </trkpt>
      <trkpt lat="48.78047" lon="2.28775">
        <ele>147.33</ele>
        <time>2020-02-08T12:59:47.999Z</time>
      </trkpt>
      <trkpt lat="48.78057" lon="2.28776">
        <ele>147.46</ele>
        <time>2020-02-08T12:59:57.999Z</time>
      </trkpt>
      <trkpt lat="48.78066" lon="2.28774">
        <ele>147.62</ele>
        <time>2020-02-08T13:00:10.999Z</time>
      </trkpt>
      <trkpt lat="48.78077" lon="2.28774">
        <ele>147.71</ele>
        <time>2020-02-08T13:00:26.999Z</time>
      </trkpt>
      <trkpt lat="48.78088" lon="2.28781">
        <ele>147.74</ele>
        <time>2020-02-08T13:00:30.999Z</time>
      </trkpt>
      <trkpt lat="48.78098" lon="2.28783">
        <ele>147.77</ele>
        <time>2020-02-08T13:00:36.999Z</time>
      </trkpt>
      <trkpt lat="48.78108" lon="2.28785">
        <ele>147.8</ele>
        <time>2020-02-08T13:00:44.999Z</time>
      </trkpt>
      <trkpt lat="48.78118" lon="2.28787">
        <ele>147.81</ele>
        <time>2020-02-08T13:00:52.999Z</time>
      </trkpt>
      <trkpt lat="48.78127" lon="2.28789">
        <ele>147.8</ele>
        <time>2020-02-08T13:00:59.999Z</time>
      </trkpt>
      <trkpt lat="48.78136" lon="2.2879">
        <ele>147.78</ele>
        <time>2020-02-08T13:01:07.999Z</time>
      </trkpt>
      <trkpt lat="48.78146" lon="2.28789">
        <ele>147.75</ele>
        <time>2020-02-08T13:01:14.999Z</time>
      </trkpt>
      <trkpt lat="48.78155" lon="2.2879">
        <ele>147.69</ele>
        <time>2020-02-08T13:01:22.999Z</time>
      </trkpt>
      <trkpt lat="48.78164" lon="2.28795">
        <ele>147.53</ele>
        <time>2020-02-08T13:01:32.999Z</time>
      </trkpt>
      <trkpt lat="48.78174" lon="2.28795">
        <ele>147.33</ele>
        <time>2020-02-08T13:01:43.999Z</time>
      </trkpt>
      <trkpt lat="48.78183" lon="2.28796">
        <ele>147.11</ele>
        <time>2020-02-08T13:01:54.999Z</time>
      </trkpt>
      <trkpt lat="48.78192" lon="2.288">
        <ele>146.97</ele>
        <time>2020-02-08T13:02:00.999Z</time>
      </trkpt>
      <trkpt lat="48.78202" lon="2.28801">
        <ele>146.74</ele>
        <time>2020-02-08T13:02:09.999Z</time>
      </trkpt>
      <trkpt lat="48.78211" lon="2.288">
        <ele>146.51</ele>
        <time>2020-02-08T13:02:18.999Z</time>
      </trkpt>
      <trkpt lat="48.78221" lon="2.28801">
        <ele>146.27</ele>
        <time>2020-02-08T13:02:26.999Z</time>
      </trkpt>
      <trkpt lat="48.7823" lon="2.28801">
        <ele>146.13</ele>
        <time>2020-02-08T13:02:31.999Z</time>
      </trkpt>
      <trkpt lat="48.78239" lon="2.28809">
        <ele>145.89</ele>
        <time>2020-02-08T13:02:44.999Z</time>
      </trkpt>
      <trkpt lat="48.78247" lon="2.28816">
        <ele>145.81</ele>
        <time>2020-02-08T13:02:54.999Z</time>
      </trkpt>
      <trkpt lat="48.78256" lon="2.28815">
        <ele>145.73</ele>
        <time>2020-02-08T13:03:03.999Z</time>
      </trkpt>
      <trkpt lat="48.78263" lon="2.28805">
        <ele>145.67</ele>
        <time>2020-02-08T13:03:10.999Z</time>
      </trkpt>
      <trkpt lat="48.78272" lon="2.28798">
        <ele>145.56</ele>
        <time>2020-02-08T13:03:19.999Z</time>
      </trkpt>
      <trkpt lat="48.78281" lon="2.28794">
        <ele>145.41</ele>
        <time>2020-02-08T13:03:29.999Z</time>
      </trkpt>
      <trkpt lat="48.78291" lon="2.2879">
        <ele>145.27</ele>
        <time>2020-02-08T13:03:38.999Z</time>
      </trkpt>
      <trkpt lat="48.78302" lon="2.28788">
        <ele>145.13</ele>
        <time>2020-02-08T13:03:47.999Z</time>
      </trkpt>
      <trkpt lat="48.78312" lon="2.28786">
        <ele>144.84</ele>
        <time>2020-02-08T13:04:04.999Z</time>
      </trkpt>
      <trkpt lat="48.78321" lon="2.28782">
        <ele>144.73</ele>
        <time>2020-02-08T13:04:11.999Z</time>
      </trkpt>
      <trkpt lat="48.7833" lon="2.28781">
        <ele>144.58</ele>
        <time>2020-02-08T13:04:20.999Z</time>
      </trkpt>
      <trkpt lat="48.78339" lon="2.28776">
        <ele>144.41</ele>
        <time>2020-02-08T13:04:30.999Z</time>
      </trkpt>
      <trkpt lat="48.78347" lon="2.28764">
        <ele>144.24</ele>
        <time>2020-02-08T13:04:45.999Z</time>
      </trkpt>
      <trkpt lat="48.78346" lon="2.28751">
        <ele>143.53</ele>
        <time>2020-02-08T13:06:47.999Z</time>
      </trkpt>
      <trkpt lat="48.78353" lon="2.28759">
        <ele>141.39</ele>
        <time>2020-02-08T13:11:50.999Z</time>
      </trkpt>
      <trkpt lat="48.78358" lon="2.28774">
        <ele>141</ele>
        <time>2020-02-08T13:12:11.999Z</time>
      </trkpt>
      <trkpt lat="48.78365" lon="2.28783">
        <ele>140.83</ele>
        <time>2020-02-08T13:12:20.999Z</time>
      </trkpt>
      <trkpt lat="48.78374" lon="2.2879">
        <ele>140.58</ele>
        <time>2020-02-08T13:12:27.999Z</time>
      </trkpt>
      <trkpt lat="48.78378" lon="2.28802">
        <ele>140.18</ele>
        <time>2020-02-08T13:12:43.999Z</time>
      </trkpt>
      <trkpt lat="48.78388" lon="2.28806">
        <ele>139.85</ele>
        <time>2020-02-08T13:12:51.999Z</time>
      </trkpt>
      <trkpt lat="48.78398" lon="2.2881">
        <ele>139.44</ele>
        <time>2020-02-08T13:13:01.999Z</time>
      </trkpt>
      <trkpt lat="48.78409" lon="2.28814">
        <ele>139.19</ele>
        <time>2020-02-08T13:13:07.999Z</time>
      </trkpt>
      <trkpt lat="48.78418" lon="2.28821">
        <ele>138.64</ele>
        <time>2020-02-08T13:13:24.000Z</time>
      </trkpt>
      <trkpt lat="48.78426" lon="2.2883">
        <ele>138.48</ele>
        <time>2020-02-08T13:13:28.000Z</time>
      </trkpt>
      <trkpt lat="48.78436" lon="2.2883">
        <ele>138.32</ele>
        <time>2020-02-08T13:13:32.000Z</time>
      </trkpt>
      <trkpt lat="48.78446" lon="2.28833">
        <ele>138.08</ele>
        <time>2020-02-08T13:13:41.000Z</time>
      </trkpt>
      <trkpt lat="48.78455" lon="2.28838">
        <ele>137.94</ele>
        <time>2020-02-08T13:13:45.000Z</time>
      </trkpt>
      <trkpt lat="48.78465" lon="2.28841">
        <ele>137.77</ele>
        <time>2020-02-08T13:13:50.000Z</time>
      </trkpt>
      <trkpt lat="48.78476" lon="2.28844">
        <ele>137.51</ele>
        <time>2020-02-08T13:14:00.000Z</time>
      </trkpt>
      <trkpt lat="48.78486" lon="2.28847">
        <ele>137.37</ele>
        <time>2020-02-08T13:14:05.000Z</time>
      </trkpt>
      <trkpt lat="48.78497" lon="2.28854">
        <ele>137.21</ele>
        <time>2020-02-08T13:14:12.000Z</time>
      </trkpt>
      <trkpt lat="48.78506" lon="2.28861">
        <ele>137.09</ele>
        <time>2020-02-08T13:14:17.000Z</time>
      </trkpt>
      <trkpt lat="48.78514" lon="2.28868">
        <ele>136.96</ele>
        <time>2020-02-08T13:14:23.000Z</time>
      </trkpt>
      <trkpt lat="48.78524" lon="2.28875">
        <ele>136.83</ele>
        <time>2020-02-08T13:14:29.000Z</time>
      </trkpt>
      <trkpt lat="48.78531" lon="2.28885">
        <ele>136.64</ele>
        <time>2020-02-08T13:14:39.000Z</time>
      </trkpt>
      <trkpt lat="48.78536" lon="2.28896">
        <ele>136.53</ele>
        <time>2020-02-08T13:14:45.000Z</time>
      </trkpt>
      <trkpt lat="48.78542" lon="2.28907">
        <ele>136.37</ele>
        <time>2020-02-08T13:14:56.000Z</time>
      </trkpt>
      <trkpt lat="48.78549" lon="2.28917">
        <ele>136.24</ele>
        <time>2020-02-08T13:15:05.000Z</time>
      </trkpt>
      <trkpt lat="48.78556" lon="2.28925">
        <ele>136.13</ele>
        <time>2020-02-08T13:15:13.000Z</time>
      </trkpt>
      <trkpt lat="48.78565" lon="2.28933">
        <ele>136.01</ele>
        <time>2020-02-08T13:15:22.000Z</time>
      </trkpt>
      <trkpt lat="48.78574" lon="2.28933">
        <ele>135.92</ele>
        <time>2020-02-08T13:15:30.000Z</time>
      </trkpt>
      <trkpt lat="48.78584" lon="2.2894">
        <ele>135.8</ele>
        <time>2020-02-08T13:15:48.000Z</time>
      </trkpt>
      <trkpt lat="48.78593" lon="2.28944">
        <ele>135.75</ele>
        <time>2020-02-08T13:15:54.000Z</time>
      </trkpt>
      <trkpt lat="48.78596" lon="2.28958">
        <ele>135.68</ele>
        <time>2020-02-08T13:16:04.000Z</time>
      </trkpt>
      <trkpt lat="48.78605" lon="2.28958">
        <ele>135.66</ele>
        <time>2020-02-08T13:16:08.000Z</time>
      </trkpt>
      <trkpt lat="48.7861" lon="2.2897">
        <ele>135.6</ele>
        <time>2020-02-08T13:16:18.000Z</time>
      </trkpt>
      <trkpt lat="48.78615" lon="2.28982">
        <ele>135.55</ele>
        <time>2020-02-08T13:16:30.000Z</time>
      </trkpt>
      <trkpt lat="48.78625" lon="2.28982">
        <ele>135.53</ele>
        <time>2020-02-08T13:16:36.000Z</time>
      </trkpt>
      <trkpt lat="48.78636" lon="2.28988">
        <ele>135.5</ele>
        <time>2020-02-08T13:16:42.000Z</time>
      </trkpt>
      <trkpt lat="48.78645" lon="2.2899">
        <ele>135.47</ele>
        <time>2020-02-08T13:16:49.000Z</time>
      </trkpt>
      <trkpt lat="48.78655" lon="2.28992">
        <ele>135.43</ele>
        <time>2020-02-08T13:16:57.000Z</time>
      </trkpt>
      <trkpt lat="48.78665" lon="2.28995">
        <ele>135.4</ele>
        <time>2020-02-08T13:17:04.000Z</time>
      </trkpt>
      <trkpt lat="48.78674" lon="2.29">
        <ele>135.35</ele>
        <time>2020-02-08T13:17:13.000Z</time>
      </trkpt>
      <trkpt lat="48.78682" lon="2.29009">
        <ele>135.27</ele>
        <time>2020-02-08T13:17:28.000Z</time>
      </trkpt>
      <trkpt lat="48.78689" lon="2.29017">
        <ele>135.14</ele>
        <time>2020-02-08T13:17:57.000Z</time>
      </trkpt>
      <trkpt lat="48.78696" lon="2.2903">
        <ele>135.07</ele>
        <time>2020-02-08T13:18:07.000Z</time>
      </trkpt>
      <trkpt lat="48.78702" lon="2.2904">
        <ele>135</ele>
        <time>2020-02-08T13:18:14.000Z</time>
      </trkpt>
      <trkpt lat="48.78708" lon="2.29053">
        <ele>134.9</ele>
        <time>2020-02-08T13:18:24.000Z</time>
      </trkpt>
      <trkpt lat="48.78716" lon="2.29062">
        <ele>134.83</ele>
        <time>2020-02-08T13:18:32.000Z</time>
      </trkpt>
      <trkpt lat="48.78725" lon="2.29069">
        <ele>134.77</ele>
        <time>2020-02-08T13:18:38.000Z</time>
      </trkpt>
      <trkpt lat="48.78733" lon="2.29075">
        <ele>134.69</ele>
        <time>2020-02-08T13:18:47.000Z</time>
      </trkpt>
      <trkpt lat="48.78743" lon="2.29068">
        <ele>134.66</ele>
        <time>2020-02-08T13:18:50.000Z</time>
      </trkpt>
      <trkpt lat="48.78749" lon="2.29059">
        <ele>134.55</ele>
        <time>2020-02-08T13:18:59.000Z</time>
      </trkpt>
      <trkpt lat="48.78757" lon="2.29051">
        <ele>134.49</ele>
        <time>2020-02-08T13:19:04.000Z</time>
      </trkpt>
      <trkpt lat="48.78765" lon="2.29041">
        <ele>134.42</ele>
        <time>2020-02-08T13:19:10.000Z</time>
      </trkpt>
      <trkpt lat="48.78774" lon="2.29037">
        <ele>134.33</ele>
        <time>2020-02-08T13:19:18.000Z</time>
      </trkpt>
      <trkpt lat="48.78784" lon="2.29038">
        <ele>134.27</ele>
        <time>2020-02-08T13:19:24.000Z</time>
      </trkpt>
      <trkpt lat="48.78794" lon="2.29041">
        <ele>134.25</ele>
        <time>2020-02-08T13:19:27.000Z</time>
      </trkpt>
      <trkpt lat="48.78803" lon="2.29039">
        <ele>134.16</ele>
        <time>2020-02-08T13:19:42.000Z</time>
      </trkpt>
      <trkpt lat="48.7881" lon="2.2903">
        <ele>134.11</ele>
        <time>2020-02-08T13:19:49.000Z</time>
      </trkpt>
      <trkpt lat="48.78816" lon="2.29019">
        <ele>134.05</ele>
        <time>2020-02-08T13:19:56.000Z</time>
      </trkpt>
      <trkpt lat="48.78825" lon="2.29011">
        <ele>133.99</ele>
        <time>2020-02-08T13:20:06.000Z</time>
      </trkpt>
      <trkpt lat="48.78831" lon="2.28999">
        <ele>133.97</ele>
        <time>2020-02-08T13:20:16.000Z</time>
      </trkpt>
      <trkpt lat="48.7884" lon="2.28999">
        <ele>133.96</ele>
        <time>2020-02-08T13:20:30.000Z</time>
      </trkpt>
      <trkpt lat="48.7885" lon="2.29004">
        <ele>133.99</ele>
        <time>2020-02-08T13:20:46.000Z</time>
      </trkpt>
      <trkpt lat="48.7886" lon="2.2901">
        <ele>134.02</ele>
        <time>2020-02-08T13:20:55.000Z</time>
      </trkpt>
      <trkpt lat="48.78867" lon="2.29024">
        <ele>134.07</ele>
        <time>2020-02-08T13:21:09.000Z</time>
      </trkpt>
      <trkpt lat="48.78877" lon="2.29026">
        <ele>134.11</ele>
        <time>2020-02-08T13:21:20.000Z</time>
      </trkpt>
      <trkpt lat="48.78886" lon="2.29027">
        <ele>134.14</ele>
        <time>2020-02-08T13:21:37.000Z</time>
      </trkpt>
      <trkpt lat="48.78896" lon="2.29033">
        <ele>134.14</ele>
        <time>2020-02-08T13:21:39.000Z</time>
      </trkpt>
      <trkpt lat="48.78906" lon="2.29033">
        <ele>134.13</ele>
        <time>2020-02-08T13:21:47.000Z</time>
      </trkpt>
      <trkpt lat="48.78917" lon="2.29031">
        <ele>134.12</ele>
        <time>2020-02-08T13:21:53.000Z</time>
      </trkpt>
      <trkpt lat="48.78926" lon="2.29023">
        <ele>134.05</ele>
        <time>2020-02-08T13:22:03.000Z</time>
      </trkpt>
      <trkpt lat="48.78933" lon="2.29014">
        <ele>133.99</ele>
        <time>2020-02-08T13:22:10.000Z</time>
      </trkpt>
      <trkpt lat="48.78935" lon="2.28999">
        <ele>133.95</ele>
        <time>2020-02-08T13:22:17.000Z</time>
      </trkpt>
      <trkpt lat="48.7894" lon="2.28984">
        <ele>133.94</ele>
        <time>2020-02-08T13:22:23.000Z</time>
      </trkpt>
      <trkpt lat="48.78945" lon="2.28972">
        <ele>133.94</ele>
        <time>2020-02-08T13:22:30.000Z</time>
      </trkpt>
      <trkpt lat="48.78944" lon="2.28956">
        <ele>133.96</ele>
        <time>2020-02-08T13:22:36.000Z</time>
      </trkpt>
      <trkpt lat="48.78948" lon="2.28943">
        <ele>134.04</ele>
        <time>2020-02-08T13:22:49.000Z</time>
      </trkpt>
      <trkpt lat="48.78952" lon="2.28931">
        <ele>134.17</ele>
        <time>2020-02-08T13:23:08.000Z</time>
      </trkpt>
      <trkpt lat="48.78957" lon="2.28917">
        <ele>134.22</ele>
        <time>2020-02-08T13:23:14.000Z</time>
      </trkpt>
      <trkpt lat="48.78958" lon="2.28902">
        <ele>134.27</ele>
        <time>2020-02-08T13:23:23.000Z</time>
      </trkpt>
      <trkpt lat="48.78962" lon="2.28889">
        <ele>134.26</ele>
        <time>2020-02-08T13:23:31.000Z</time>
      </trkpt>
      <trkpt lat="48.78966" lon="2.28877">
        <ele>134.2</ele>
        <time>2020-02-08T13:23:38.000Z</time>
      </trkpt>
      <trkpt lat="48.78972" lon="2.28865">
        <ele>133.64</ele>
        <time>2020-02-08T13:23:51.000Z</time>
      </trkpt>
      <trkpt lat="48.7898" lon="2.28873">
        <ele>133.33</ele>
        <time>2020-02-08T13:23:59.000Z</time>
      </trkpt>
      <trkpt lat="48.78989" lon="2.28877">
        <ele>133.16</ele>
        <time>2020-02-08T13:24:22.000Z</time>
      </trkpt>
      <trkpt lat="48.78998" lon="2.28881">
        <ele>132.52</ele>
        <time>2020-02-08T13:24:47.000Z</time>
      </trkpt>
      <trkpt lat="48.79004" lon="2.28871">
        <ele>149.46</ele>
        <time>2020-02-08T13:25:36.000Z</time>
      </trkpt>
      <trkpt lat="48.79008" lon="2.28858">
        <ele>175.24</ele>
        <time>2020-02-08T13:28:27.000Z</time>
      </trkpt>
      <trkpt lat="48.79015" lon="2.28865">
        <ele>175.74</ele>
        <time>2020-02-08T13:28:44.000Z</time>
      </trkpt>
      <trkpt lat="48.79026" lon="2.28868">
        <ele>175.92</ele>
        <time>2020-02-08T13:28:48.999Z</time>
      </trkpt>
      <trkpt lat="48.79034" lon="2.28876">
        <ele>176.13</ele>
        <time>2020-02-08T13:28:53.999Z</time>
      </trkpt>
      <trkpt lat="48.79042" lon="2.28886">
        <ele>176.95</ele>
        <time>2020-02-08T13:29:20.999Z</time>
      </trkpt>
      <trkpt lat="48.7905" lon="2.28894">
        <ele>177.1</ele>
        <time>2020-02-08T13:29:25.999Z</time>
      </trkpt>
      <trkpt lat="48.79058" lon="2.28905">
        <ele>177.05</ele>
        <time>2020-02-08T13:29:50.999Z</time>
      </trkpt>
      <trkpt lat="48.7906" lon="2.28919">
        <ele>176.76</ele>
        <time>2020-02-08T13:29:57.999Z</time>
      </trkpt>
      <trkpt lat="48.79059" lon="2.28934">
        <ele>176.38</ele>
        <time>2020-02-08T13:30:06.999Z</time>
      </trkpt>
      <trkpt lat="48.79057" lon="2.28949">
        <ele>176.13</ele>
        <time>2020-02-08T13:30:12.999Z</time>
      </trkpt>
      <trkpt lat="48.79051" lon="2.2896">
        <ele>175.85</ele>
        <time>2020-02-08T13:30:19.999Z</time>
      </trkpt>
      <trkpt lat="48.79044" lon="2.28971">
        <ele>175.6</ele>
        <time>2020-02-08T13:30:25.999Z</time>
      </trkpt>
    </trkseg>
  </trk>
</gpx>